Provisional Data: Driftwood Branch Sinnemahoning Creek


Please select a monitoring station.
Please select start date.
Please select start date.

Toggle Unit: C/F Toggle Unit: C/F
Sample Time Temperature (C) Temperature (F) Specific Conductivity (mS/cm) pH   Turbidity (NTU+) DO (mg/L)
10/22/2021 12:00:00 AM 13.22 55.796 0.074 7.09 3.16 9.3
10/22/2021 12:15:00 AM 13.19 55.742 0.074 7.1 5.67 9.34
10/22/2021 12:30:00 AM 13.17 55.706 0.074 7.09 4.8 9.36
10/22/2021 12:45:00 AM 13.15 55.67 0.075 7.1 6.44 9.41
10/22/2021 1:00:00 AM 13.14 55.652 0.075 7.1 9.14 9.45
10/22/2021 1:15:00 AM 13.12 55.616 0.075 7.13 7.76 9.49
10/22/2021 1:30:00 AM 13.1 55.58 0.075 7.13 7.85 9.52
10/22/2021 1:45:00 AM 13.07 55.526 0.075 7.13 8.86 9.54
10/22/2021 2:00:00 AM 13.03 55.454 0.074 7.13 7.72 9.56
10/22/2021 2:15:00 AM 13 55.4 0.074 7.13 8.1 9.57
10/22/2021 2:30:00 AM 12.96 55.328 0.074 7.13 7.39 9.59
10/22/2021 2:45:00 AM 12.92 55.256 0.074 7.14 8.33 9.6
10/22/2021 3:00:00 AM 12.89 55.202 0.074 7.13 9.33 9.61
10/22/2021 3:15:00 AM 12.86 55.148 0.074 7.14 11.29 9.62
10/22/2021 3:30:00 AM 12.82 55.076 0.074 7.13 13.71 9.62
10/22/2021 3:45:00 AM 12.79 55.022 0.074 7.13 15.9 9.62
10/22/2021 4:00:00 AM 12.77 54.986 0.074 7.12 17.2 9.63
10/22/2021 4:15:00 AM 12.74 54.932 0.074 7.12 17.41 9.63
10/22/2021 4:30:00 AM 12.71 54.878 0.073 7.12 16.97 9.64
10/22/2021 4:45:00 AM 12.68 54.824 0.072 7.11 16.16 9.65
10/22/2021 5:00:00 AM 12.65 54.77 0.072 7.11 15.15 9.66
10/22/2021 5:15:00 AM 12.62 54.716 0.071 7.11 14.9 9.67
10/22/2021 5:30:00 AM 12.58 54.644 0.071 7.1 13.96 9.68
10/22/2021 5:45:00 AM 12.55 54.59 0.071 7.1 13.63 9.69
10/22/2021 6:00:00 AM 12.53 54.554 0.071 7.1 13.65 9.7
10/22/2021 6:15:00 AM 12.5 54.5 0.071 7.11 13.08 9.71
10/22/2021 6:30:00 AM 12.47 54.446 0.071 7.11 12.03 9.72
10/22/2021 6:45:00 AM 12.44 54.392 0.071 7.1 12.15 9.73
10/22/2021 7:00:00 AM 12.42 54.356 0.071 7.1 11.63 9.73
10/22/2021 7:15:00 AM 12.4 54.32 0.072 7.11 11 9.74
10/22/2021 7:30:00 AM 12.38 54.284 0.072 7.11 10.25 9.75
10/22/2021 7:45:00 AM 12.36 54.248 0.072 7.11 9.41 9.76
10/22/2021 8:00:00 AM 12.34 54.212 0.073 7.11 9.34 9.78
10/22/2021 8:15:00 AM 12.33 54.194 0.073 7.12 8.93 9.81
10/22/2021 8:30:00 AM 12.32 54.176 0.073 7.12 8.61 9.84
10/22/2021 8:45:00 AM 12.32 54.176 0.073 7.14 8.06 9.88
10/22/2021 9:00:00 AM 12.32 54.176 0.073 7.15 8.12 9.94
10/22/2021 9:15:00 AM 12.32 54.176 0.074 7.16 7.69 9.99
10/22/2021 9:30:00 AM 12.34 54.212 0.074 7.18 7.5 10.05
10/22/2021 9:45:00 AM 12.35 54.23 0.074 7.19 7.19 10.12
10/22/2021 10:00:00 AM 12.37 54.266 0.074 7.21 6.51 10.18
10/22/2021 10:15:00 AM 12.42 54.356 0.074 7.23 6.42 10.25
10/22/2021 10:30:00 AM 12.44 54.392 0.074 7.25 5.88 10.32
10/22/2021 10:45:00 AM 12.49 54.482 0.074 7.27 5.86 10.39
10/22/2021 11:00:00 AM 12.56 54.608 0.074 7.3 5.64 10.47
10/22/2021 11:15:00 AM 12.62 54.716 0.074 7.32 5.34 10.51
10/22/2021 11:30:00 AM 12.65 54.77 0.073 7.34 5.47 10.54
10/22/2021 11:45:00 AM 12.68 54.824 0.073 7.35 4.9 10.56
10/22/2021 12:00:00 PM 12.67 54.806 0.073 7.36 4.64 10.53
10/22/2021 12:15:00 PM 12.7 54.86 0.073 7.36 4.33 10.52
10/22/2021 12:30:00 PM 12.79 55.022 0.073 7.38 4.36 10.57
10/22/2021 12:45:00 PM 12.91 55.238 0.073 7.41 4.19 10.63
10/22/2021 1:00:00 PM 13.03 55.454 0.073 7.44 4.12 10.69
10/22/2021 1:15:00 PM 13.11 55.598 0.072 7.47 4.25 10.72
10/22/2021 1:30:00 PM 13.13 55.634 0.072 7.48 3.9 10.71
10/22/2021 1:45:00 PM 13.14 55.652 0.072 7.5 3.7 10.71
10/22/2021 2:00:00 PM 13.14 55.652 0.072 7.5 3.46 10.69
10/22/2021 2:15:00 PM 13.12 55.616 0.072 7.5 3.45 10.65
10/22/2021 2:30:00 PM 13.09 55.562 0.072 7.49 3.34 10.6
10/22/2021 2:45:00 PM 13.08 55.544 0.072 7.48 3.12 10.58
10/22/2021 3:00:00 PM 13.07 55.526 0.072 7.48 3.28 10.57
10/22/2021 3:15:00 PM 13.05 55.49 0.072 7.47 3.04 10.54
10/22/2021 3:30:00 PM 13.04 55.472 0.072 7.47 2.87 10.54
10/22/2021 3:45:00 PM 13.06 55.508 0.072 7.48 3.01 10.55
10/22/2021 4:00:00 PM 13.04 55.472 0.072 7.47 2.83 10.55
10/22/2021 4:15:00 PM 13.04 55.472 0.072 7.48 2.68 10.55
10/22/2021 4:30:00 PM 13.03 55.454 0.072 7.47 2.59 10.53
10/22/2021 4:45:00 PM 13.02 55.436 0.072 7.46 2.56 10.48
10/22/2021 5:00:00 PM 12.99 55.382 0.072 7.43 2.61 10.4
10/22/2021 5:15:00 PM 12.98 55.364 0.072 7.41 2.52 10.36
10/22/2021 5:30:00 PM 12.95 55.31 0.072 7.39 2.49 10.31
10/22/2021 5:45:00 PM 12.9 55.22 0.072 7.36 2.45 10.21
10/22/2021 6:00:00 PM 12.86 55.148 0.072 7.34 2.39 10.14
10/22/2021 6:15:00 PM 12.81 55.058 0.072 7.31 2.39 10.06
10/22/2021 6:30:00 PM 12.74 54.932 0.073 7.28 2.38 9.98
10/22/2021 6:45:00 PM 12.69 54.842 0.073 7.25 2.39 9.91
10/22/2021 7:00:00 PM 12.62 54.716 0.073 7.23 2.44 9.87
10/22/2021 7:15:00 PM 12.55 54.59 0.073 7.22 2.46 9.84
10/22/2021 7:30:00 PM 12.5 54.5 0.073 7.2 2.5 9.81
10/22/2021 7:45:00 PM 12.45 54.41 0.073 7.19 2.57 9.79
10/22/2021 8:00:00 PM 12.41 54.338 0.073 7.18 2.37 9.79
10/22/2021 8:15:00 PM 12.37 54.266 0.073 7.17 2.4 9.78
10/22/2021 8:30:00 PM 12.32 54.176 0.073 7.17 2.33 9.78
10/22/2021 8:45:00 PM 12.25 54.05 0.074 7.16 2.39 9.78
10/22/2021 9:00:00 PM 12.18 53.924 0.074 7.15 2.21 9.79
10/22/2021 9:15:00 PM 12.13 53.834 0.074 7.15 2.17 9.79
10/22/2021 9:30:00 PM 12.1 53.78 0.074 7.15 2.46 9.79
10/22/2021 9:45:00 PM 12.06 53.708 0.074 7.15 2.24 9.8
10/22/2021 10:00:00 PM 12.02 53.636 0.074 7.14 2.18 9.81
10/22/2021 10:15:00 PM 11.98 53.564 0.074 7.14 2.26 9.82
10/22/2021 10:30:00 PM 11.94 53.492 0.074 7.13 2.2 9.83
10/22/2021 10:45:00 PM 11.89 53.402 0.074 7.12 2.24 9.85
10/22/2021 11:00:00 PM 11.85 53.33 0.074 7.13 2.17 9.86
10/22/2021 11:15:00 PM 11.81 53.258 0.074 7.12 2.13 9.87
10/22/2021 11:30:00 PM 11.77 53.186 0.074 7.13 2.14 9.88
10/22/2021 11:45:00 PM 11.73 53.114 0.074 7.12 2.09 9.89
10/23/2021 12:00:00 AM 11.69 53.042 0.074 7.13 2.05 9.9
10/23/2021 12:15:00 AM 11.65 52.97 0.074 7.13 1.99 9.91
10/23/2021 12:30:00 AM 11.61 52.898 0.074 7.13 1.99 9.92
10/23/2021 12:45:00 AM 11.58 52.844 0.074 7.13 1.98 9.93
10/23/2021 1:00:00 AM 11.54 52.772 0.074 7.12 2 9.94
10/23/2021 1:15:00 AM 11.5 52.7 0.074 7.12 2.04 9.95
10/23/2021 1:30:00 AM 11.46 52.628 0.074 7.12 1.98 9.96
10/23/2021 1:45:00 AM 11.43 52.574 0.075 7.12 2.03 9.96
10/23/2021 2:00:00 AM 11.39 52.502 0.075 7.12 1.91 9.98
10/23/2021 2:15:00 AM 11.35 52.43 0.075 7.12 1.98 9.99
10/23/2021 2:30:00 AM 11.32 52.376 0.075 7.12 1.98 10
10/23/2021 2:45:00 AM 11.28 52.304 0.075 7.12 1.96 10.01
10/23/2021 3:00:00 AM 11.25 52.25 0.075 7.12 1.86 10.01
10/23/2021 3:15:00 AM 11.21 52.178 0.075 7.12 1.92 10.03
10/23/2021 3:30:00 AM 11.18 52.124 0.075 7.12 1.93 10.03
10/23/2021 3:45:00 AM 11.15 52.07 0.075 7.12 1.94 10.04
10/23/2021 4:00:00 AM 11.11 51.998 0.075 7.12 1.9 10.05
10/23/2021 4:15:00 AM 11.08 51.944 0.075 7.11 1.92 10.06
10/23/2021 4:30:00 AM 11.04 51.872 0.075 7.11 1.82 10.07
10/23/2021 4:45:00 AM 11 51.8 0.075 7.12 1.77 10.08
10/23/2021 5:00:00 AM 10.96 51.728 0.075 7.12 1.76 10.09
10/23/2021 5:15:00 AM 10.92 51.656 0.075 7.11 1.74 10.09
10/23/2021 5:30:00 AM 10.88 51.584 0.075 7.12 1.81 10.11
10/23/2021 5:45:00 AM 10.85 51.53 0.075 7.12 1.81 10.12
10/23/2021 6:00:00 AM 10.82 51.476 0.075 7.11 1.87 10.12
10/23/2021 6:15:00 AM 10.79 51.422 0.075 7.11 1.83 10.14
10/23/2021 6:30:00 AM 10.76 51.368 0.075 7.12 1.76 10.14
10/23/2021 6:45:00 AM 10.74 51.332 0.075 7.12 1.71 10.16
10/23/2021 7:00:00 AM 10.71 51.278 0.075 7.12 1.75 10.15
10/23/2021 7:15:00 AM 10.69 51.242 0.076 7.12 1.73 10.16
10/23/2021 7:30:00 AM 10.66 51.188 0.076 7.12 1.68 10.17
10/23/2021 7:45:00 AM 10.64 51.152 0.075 7.13 1.7 10.19
10/23/2021 8:00:00 AM 10.62 51.116 0.075 7.12 1.68 10.22
10/23/2021 8:15:00 AM 10.6 51.08 0.075 7.12 1.65 10.25
10/23/2021 8:30:00 AM 10.58 51.044 0.075 7.13 1.6 10.3
10/23/2021 8:45:00 AM 10.58 51.044 0.075 7.14 1.57 10.37
10/23/2021 9:00:00 AM 10.57 51.026 0.075 7.15 1.52 10.43
10/23/2021 9:15:00 AM 10.56 51.008 0.075 7.16 1.59 10.49
10/23/2021 9:30:00 AM 10.56 51.008 0.075 7.18 1.56 10.55
10/23/2021 9:45:00 AM 10.57 51.026 0.075 7.19 1.49 10.62
10/23/2021 10:00:00 AM 10.57 51.026 0.075 7.2 1.43 10.69
10/23/2021 10:15:00 AM 10.59 51.062 0.075 7.22 1.54 10.75
10/23/2021 10:30:00 AM 10.6 51.08 0.074 7.24 1.45 10.83
10/23/2021 10:45:00 AM 10.61 51.098 0.074 7.25 1.44 10.88
10/23/2021 11:00:00 AM 10.61 51.098 0.074 7.27 1.41 10.92
10/23/2021 11:15:00 AM 10.65 51.17 0.074 7.29 1.45 10.99
10/23/2021 11:30:00 AM 10.73 51.314 0.074 7.32 1.45 11.07
10/23/2021 11:45:00 AM 10.84 51.512 0.074 7.35 1.42 11.15
10/23/2021 12:00:00 PM 10.92 51.656 0.074 7.39 1.43 11.21
10/23/2021 12:15:00 PM 11.01 51.818 0.074 7.42 1.31 11.25
10/23/2021 12:30:00 PM 11.07 51.926 0.074 7.44 1.34 11.28
10/23/2021 12:45:00 PM 11.07 51.926 0.073 7.45 1.42 11.26
10/23/2021 1:00:00 PM 11.12 52.016 0.073 7.47 1.35 11.26
10/23/2021 1:15:00 PM 11.17 52.106 0.073 7.49 1.34 11.27
10/23/2021 1:30:00 PM 11.22 52.196 0.073 7.5 1.33 11.28
10/23/2021 1:45:00 PM 11.28 52.304 0.073 7.52 1.27 11.27
10/23/2021 2:00:00 PM 11.28 52.304 0.073 7.51 1.29 11.24
10/23/2021 2:15:00 PM 11.3 52.34 0.073 7.52 1.32 11.2
10/23/2021 2:30:00 PM 11.33 52.394 0.073 7.52 1.3 11.19
10/23/2021 2:45:00 PM 11.4 52.52 0.073 7.54 1.25 11.2
10/23/2021 3:00:00 PM 11.45 52.61 0.073 7.55 1.26 11.21
10/23/2021 3:15:00 PM 11.48 52.664 0.072 7.56 1.26 11.21
10/23/2021 3:30:00 PM 11.49 52.682 0.072 7.56 1.25 11.17
10/23/2021 3:45:00 PM 11.54 52.772 0.072 7.57 1.26 11.16
10/23/2021 4:00:00 PM 11.57 52.826 0.072 7.58 1.25 11.15
10/23/2021 4:15:00 PM 11.57 52.826 0.072 7.57 1.22 11.12
10/23/2021 4:30:00 PM 11.56 52.808 0.072 7.55 1.26 11.06
10/23/2021 4:45:00 PM 11.54 52.772 0.072 7.51 1.24 10.95
10/23/2021 5:00:00 PM 11.52 52.736 0.072 7.47 1.26 10.84
10/23/2021 5:15:00 PM 11.48 52.664 0.072 7.43 1.25 10.76
10/23/2021 5:30:00 PM 11.46 52.628 0.073 7.4 1.3 10.68
10/23/2021 5:45:00 PM 11.43 52.574 0.073 7.37 1.26 10.6
10/23/2021 6:00:00 PM 11.4 52.52 0.073 7.35 1.31 10.55
10/23/2021 6:15:00 PM 11.36 52.448 0.073 7.32 1.27 10.48
10/23/2021 6:30:00 PM 11.32 52.376 0.073 7.3 1.28 10.4
10/23/2021 6:45:00 PM 11.29 52.322 0.073 7.28 1.27 10.33
10/23/2021 7:00:00 PM 11.26 52.268 0.073 7.26 1.36 10.28
10/23/2021 7:15:00 PM 11.22 52.196 0.073 7.24 1.37 10.24
10/23/2021 7:30:00 PM 11.18 52.124 0.073 7.22 1.49 10.21
10/23/2021 7:45:00 PM 11.15 52.07 0.073 7.21 1.51 10.19
10/23/2021 8:00:00 PM 11.11 51.998 0.073 7.2 1.35 10.17
10/23/2021 8:15:00 PM 11.07 51.926 0.073 7.19 1.48 10.17
10/23/2021 8:30:00 PM 11.04 51.872 0.074 7.18 1.56 10.15
10/23/2021 8:45:00 PM 11 51.8 0.073 7.18 1.56 10.16
10/23/2021 9:00:00 PM 10.97 51.746 0.074 7.17 1.61 10.15
10/23/2021 9:15:00 PM 10.93 51.674 0.074 7.16 1.56 10.16
10/23/2021 9:30:00 PM 10.9 51.62 0.074 7.16 1.52 10.16
10/23/2021 9:45:00 PM 10.87 51.566 0.074 7.16 1.56 10.17
10/23/2021 10:00:00 PM 10.84 51.512 0.074 7.16 1.52 10.18
10/23/2021 10:15:00 PM 10.81 51.458 0.074 7.15 1.58 10.18
10/23/2021 10:30:00 PM 10.78 51.404 0.074 7.15 1.49 10.19
10/23/2021 10:45:00 PM 10.73 51.314 0.074 7.15 1.46 10.19
10/23/2021 11:00:00 PM 10.7 51.26 0.074 7.14 1.47 10.2
10/23/2021 11:15:00 PM 10.68 51.224 0.074 7.14 1.45 10.22
10/23/2021 11:30:00 PM 10.65 51.17 0.074 7.14 1.47 10.22
10/23/2021 11:45:00 PM 10.63 51.134 0.074 7.14 1.6 10.23
10/24/2021 12:00:00 AM 10.61 51.098 0.074 7.14 1.57 10.23
10/24/2021 12:15:00 AM 10.59 51.062 0.074 7.13 1.6 10.24
10/24/2021 12:30:00 AM 10.57 51.026 0.074 7.13 1.6 10.25
10/24/2021 12:45:00 AM 10.55 50.99 0.074 7.14 1.52 10.26
10/24/2021 1:00:00 AM 10.52 50.936 0.074 7.13 1.47 10.26
10/24/2021 1:15:00 AM 10.5 50.9 0.074 7.13 1.43 10.27
10/24/2021 1:30:00 AM 10.47 50.846 0.074 7.13 1.39 10.28
10/24/2021 1:45:00 AM 10.45 50.81 0.075 7.13 1.47 10.29
10/24/2021 2:00:00 AM 10.43 50.774 0.075 7.13 1.43 10.29
10/24/2021 2:15:00 AM 10.41 50.738 0.075 7.13 1.47 10.3
10/24/2021 2:30:00 AM 10.39 50.702 0.075 7.13 1.46 10.31
10/24/2021 2:45:00 AM 10.36 50.648 0.075 7.13 1.43 10.31
10/24/2021 3:00:00 AM 10.31 50.558 0.075 7.13 1.44 10.32
10/24/2021 3:15:00 AM 10.29 50.522 0.075 7.13 1.42 10.33
10/24/2021 3:30:00 AM 10.26 50.468 0.075 7.13 1.4 10.34
10/24/2021 3:45:00 AM 10.23 50.414 0.075 7.13 1.45 10.36
10/24/2021 4:00:00 AM 10.21 50.378 0.075 7.13 1.35 10.36
10/24/2021 4:15:00 AM 10.2 50.36 0.075 7.13 1.46 10.37
10/24/2021 4:30:00 AM 10.18 50.324 0.075 7.13 1.42 10.37
10/24/2021 4:45:00 AM 10.15 50.27 0.075 7.13 1.39 10.38
10/24/2021 5:00:00 AM 10.11 50.198 0.075 7.13 1.39 10.39
10/24/2021 5:15:00 AM 10.09 50.162 0.075 7.13 1.39 10.4
10/24/2021 5:30:00 AM 10.05 50.09 0.076 7.13 1.43 10.41
10/24/2021 5:45:00 AM 10.04 50.072 0.076 7.13 1.45 10.42
10/24/2021 6:00:00 AM 10.02 50.036 0.076 7.13 1.42 10.43
10/24/2021 6:15:00 AM 10.01 50.018 0.076 7.13 1.35 10.43
10/24/2021 6:30:00 AM 10 50 0.076 7.13 1.44 10.44
10/24/2021 6:45:00 AM 9.99 49.982 0.075 7.13 1.45 10.45
10/24/2021 7:00:00 AM 9.98 49.964 0.075 7.13 1.41 10.45
10/24/2021 7:15:00 AM 9.97 49.946 0.075 7.13 1.41 10.46
10/24/2021 7:30:00 AM 9.96 49.928 0.075 7.14 1.5 10.47
10/24/2021 7:45:00 AM 9.94 49.892 0.075 7.14 1.39 10.48
10/24/2021 8:00:00 AM 9.94 49.892 0.075 7.14 1.36 10.5
10/24/2021 8:15:00 AM 9.93 49.874 0.075 7.15 1.41 10.55
10/24/2021 8:30:00 AM 9.93 49.874 0.075 7.16 1.29 10.61
10/24/2021 8:45:00 AM 9.93 49.874 0.075 7.18 1.31 10.68
10/24/2021 9:00:00 AM 9.94 49.892 0.075 7.19 1.37 10.73
10/24/2021 9:15:00 AM 9.94 49.892 0.075 7.2 1.35 10.79
10/24/2021 9:30:00 AM 9.95 49.91 0.075 7.21 1.34 10.86
10/24/2021 9:45:00 AM 9.96 49.928 0.074 7.23 1.28 10.93
10/24/2021 10:00:00 AM 10 50 0.074 7.25 1.3 11.02
10/24/2021 10:15:00 AM 10.08 50.144 0.074 7.27 1.31 11.13
10/24/2021 10:30:00 AM 10.13 50.234 0.074 7.3 1.29 11.21
10/24/2021 10:45:00 AM 10.17 50.306 0.074 7.33 1.27 11.26
10/24/2021 11:00:00 AM 10.19 50.342 0.074 7.34 1.28 11.27
10/24/2021 11:15:00 AM 10.2 50.36 0.073 7.35 1.28 11.24
10/24/2021 11:30:00 AM 10.2 50.36 0.073 7.35 1.23 11.2
10/24/2021 11:45:00 AM 10.21 50.378 0.073 7.35 1.25 11.18
10/24/2021 12:00:00 PM 10.22 50.396 0.073 7.35 1.17 11.17
10/24/2021 12:15:00 PM 10.26 50.468 0.073 7.36 1.23 11.21
10/24/2021 12:30:00 PM 10.32 50.576 0.073 7.39 1.22 11.27
10/24/2021 12:45:00 PM 10.36 50.648 0.073 7.41 1.24 11.32
10/24/2021 1:00:00 PM 10.46 50.828 0.073 7.44 1.18 11.38
10/24/2021 1:15:00 PM 10.55 50.99 0.073 7.46 1.14 11.43
10/24/2021 1:30:00 PM 10.61 51.098 0.073 7.49 1.3 11.44
10/24/2021 1:45:00 PM 10.69 51.242 0.072 7.51 1.2 11.47
10/24/2021 2:00:00 PM 10.76 51.368 0.072 7.53 1.24 11.47
10/24/2021 2:15:00 PM 10.78 51.404 0.072 7.53 1.16 11.43
10/24/2021 2:30:00 PM 10.8 51.44 0.072 7.53 1.21 11.37
10/24/2021 2:45:00 PM 10.81 51.458 0.072 7.51 1.19 11.28
10/24/2021 3:00:00 PM 10.82 51.476 0.072 7.48 1.25 11.2
10/24/2021 3:15:00 PM 10.84 51.512 0.072 7.47 1.17 11.16
10/24/2021 3:30:00 PM 10.85 51.53 0.072 7.45 1.24 11.09
10/24/2021 3:45:00 PM 10.86 51.548 0.073 7.43 1.12 11.01
10/24/2021 4:00:00 PM 10.86 51.548 0.073 7.41 1.22 10.96
10/24/2021 4:15:00 PM 10.87 51.566 0.073 7.39 1.24 10.9
10/24/2021 4:30:00 PM 10.88 51.584 0.073 7.37 1.22 10.85
10/24/2021 4:45:00 PM 10.88 51.584 0.073 7.35 1.24 10.8
10/24/2021 5:00:00 PM 10.88 51.584 0.073 7.34 1.24 10.74
10/24/2021 5:15:00 PM 10.88 51.584 0.073 7.32 1.21 10.68
10/24/2021 5:30:00 PM 10.88 51.584 0.073 7.3 1.23 10.61
10/24/2021 5:45:00 PM 10.87 51.566 0.073 7.28 1.31 10.54
10/24/2021 6:00:00 PM 10.86 51.548 0.075 7.26 1.5 10.49
10/24/2021 6:15:00 PM 10.86 51.548 0.076 7.24 2.02 10.44
10/24/2021 6:30:00 PM 10.85 51.53 0.075 7.23 1.79 10.39
10/24/2021 6:45:00 PM 10.84 51.512 0.074 7.21 1.66 10.36
10/24/2021 7:00:00 PM 10.84 51.512 0.074 7.2 1.8 10.32
10/24/2021 7:15:00 PM 10.83 51.494 0.074 7.19 1.68 10.3
10/24/2021 7:30:00 PM 10.82 51.476 0.074 7.18 1.63 10.28
10/24/2021 7:45:00 PM 10.82 51.476 0.073 7.17 1.65 10.27
10/24/2021 8:00:00 PM 10.82 51.476 0.074 7.17 1.77 10.25
10/24/2021 8:15:00 PM 10.82 51.476 0.074 7.16 2.06 10.25
10/24/2021 8:30:00 PM 10.82 51.476 0.074 7.15 2.09 10.24
10/24/2021 8:45:00 PM 10.82 51.476 0.073 7.15 2.01 10.23
10/24/2021 9:00:00 PM 10.82 51.476 0.073 7.14 1.82 10.22
10/24/2021 9:15:00 PM 10.82 51.476 0.073 7.14 1.84 10.22
10/24/2021 9:30:00 PM 10.82 51.476 0.073 7.13 1.94 10.22
10/24/2021 9:45:00 PM 10.82 51.476 0.073 7.13 1.96 10.22
10/24/2021 10:00:00 PM 10.82 51.476 0.073 7.12 2.08 10.21
10/24/2021 10:15:00 PM 10.82 51.476 0.073 7.12 1.83 10.21
10/24/2021 10:30:00 PM 10.82 51.476 0.073 7.12 2.01 10.21
10/24/2021 10:45:00 PM 10.82 51.476 0.073 7.12 2.14 10.21
10/24/2021 11:00:00 PM 10.82 51.476 0.073 7.11 2.1 10.21
10/24/2021 11:15:00 PM 10.82 51.476 0.073 7.11 1.98 10.21
10/24/2021 11:30:00 PM 10.83 51.494 0.073 7.11 2.18 10.22
10/24/2021 11:45:00 PM 10.83 51.494 0.073 7.11 2.31 10.22
10/25/2021 12:00:00 AM 10.83 51.494 0.073 7.11 2.79 10.22
10/25/2021 12:15:00 AM 10.84 51.512 0.073 7.11 2.75 10.23
10/25/2021 12:30:00 AM 10.84 51.512 0.074 7.12 2.86 10.24
10/25/2021 12:45:00 AM 10.84 51.512 0.073 7.11 3.16 10.24
10/25/2021 1:00:00 AM 10.84 51.512 0.073 7.12 3.59 10.25
10/25/2021 1:15:00 AM 10.84 51.512 0.073 7.12 4.16 10.26
10/25/2021 1:30:00 AM 10.84 51.512 0.073 7.12 4.75 10.26
10/25/2021 1:45:00 AM 10.84 51.512 0.072 7.12 4.84 10.26
10/25/2021 2:00:00 AM 10.84 51.512 0.072 7.12 5.41 10.26
10/25/2021 2:15:00 AM 10.84 51.512 0.073 7.11 5.37 10.26
10/25/2021 2:30:00 AM 10.83 51.494 0.073 7.12 6.93 10.26
10/25/2021 2:45:00 AM 10.83 51.494 0.073 7.11 7.31 10.26
10/25/2021 3:00:00 AM 10.81 51.458 0.073 7.11 8.59 10.27
10/25/2021 3:15:00 AM 10.79 51.422 0.073 7.09 11.27 10.27
10/25/2021 3:30:00 AM 10.79 51.422 0.073 7.12 13.68 10.28
10/25/2021 3:45:00 AM 10.78 51.404 0.074 7.1 13.97 10.29
10/25/2021 4:00:00 AM 10.77 51.386 0.074 7.13 16.65 10.3
10/25/2021 4:15:00 AM 10.76 51.368 0.075 7.11 18.39 10.31
10/25/2021 4:30:00 AM 10.76 51.368 0.075 7.12 19.09 10.32
10/25/2021 4:45:00 AM 10.75 51.35 0.075 7.12 20.48 10.32
10/25/2021 5:00:00 AM 10.75 51.35 0.075 7.11 20.78 10.33
10/25/2021 5:15:00 AM 10.75 51.35 0.075 7.12 22.61 10.33
10/25/2021 5:30:00 AM 10.75 51.35 0.075 7.12 17.74 10.34
10/25/2021 5:45:00 AM 10.75 51.35 0.075 7.12 23.52 10.34
10/25/2021 6:00:00 AM 10.75 51.35 0.074 7.12 24.74 10.35
10/25/2021 6:15:00 AM 10.75 51.35 0.074 7.12 23.46 10.35
10/25/2021 6:30:00 AM 10.75 51.35 0.074 7.11 24.48 10.35
10/25/2021 6:45:00 AM 10.76 51.368 0.074 7.02 24.01 10.35
10/25/2021 7:00:00 AM 10.76 51.368 0.073 6.95 25.26 10.35
10/25/2021 7:15:00 AM 10.77 51.386 0.073 7 25.18 10.35
10/25/2021 7:30:00 AM 10.77 51.386 0.073 7.05 24.44 10.35
10/25/2021 7:45:00 AM 10.78 51.404 0.073 7.06 24.75 10.35
10/25/2021 8:00:00 AM 10.79 51.422 0.073 7.08 24.27 10.35
10/25/2021 8:15:00 AM 10.8 51.44 0.073 7.08 22.84 10.37
10/25/2021 8:30:00 AM 10.82 51.476 0.072 7.08 21.23 10.38
10/25/2021 8:45:00 AM 10.83 51.494 0.072 7.09 20.07 10.39
10/25/2021 9:00:00 AM 10.85 51.53 0.071 7.09 18.55 10.41
10/25/2021 9:15:00 AM 10.87 51.566 0.071 7.11 16.42 10.44
10/25/2021 9:30:00 AM 10.91 51.638 0.071 7.12 16.25 10.48
10/25/2021 9:45:00 AM 10.95 51.71 0.07 7.13 14.97 10.52
10/25/2021 10:00:00 AM 10.99 51.782 0.07 7.14 15.33 10.54
10/25/2021 10:15:00 AM 11.04 51.872 0.07 7.15 14.49 10.58
10/25/2021 10:30:00 AM 11.11 51.998 0.07 7.17 13.73 10.62
10/25/2021 10:45:00 AM 11.16 52.088 0.069 7.18 12.16 10.63
10/25/2021 11:00:00 AM 11.24 52.232 0.07 7.19 12.26 10.64
10/25/2021 11:15:00 AM 11.32 52.376 0.069 7.2 11.53 10.64
10/25/2021 11:30:00 AM 11.42 52.556 0.069 7.21 11.54 10.65
10/25/2021 11:45:00 AM 11.55 52.79 0.069 7.22 10.64 10.65
10/25/2021 12:00:00 PM 11.7 53.06 0.069 7.23 10.66 10.65
10/25/2021 12:15:00 PM 11.85 53.33 0.069 7.25 9.76 10.64
10/25/2021 12:30:00 PM 12.01 53.618 0.069 7.26 9.89 10.63
10/25/2021 12:45:00 PM 12.18 53.924 0.069 7.27 9.58 10.62
10/25/2021 1:00:00 PM 12.29 54.122 0.069 7.29 8.88 10.6
10/25/2021 1:15:00 PM 12.37 54.266 0.069 7.3 8.93 10.59
10/25/2021 1:30:00 PM 12.43 54.374 0.069 7.3 8.81 10.56
10/25/2021 1:45:00 PM 12.51 54.518 0.069 7.31 8.25 10.55
10/25/2021 2:00:00 PM 12.59 54.662 0.069 7.31 8.24 10.53
10/25/2021 2:15:00 PM 12.71 54.878 0.069 7.32 7.62 10.52
10/25/2021 2:30:00 PM 12.82 55.076 0.069 7.34 7.24 10.51
10/25/2021 2:45:00 PM 12.93 55.274 0.069 7.35 7.31 10.48
10/25/2021 3:00:00 PM 12.97 55.346 0.069 7.34 7.42 10.43
10/25/2021 3:15:00 PM 12.99 55.382 0.069 7.32 7.23 10.36
10/25/2021 3:30:00 PM 13.03 55.454 0.069 7.32 6.79 10.3
10/25/2021 3:45:00 PM 13.05 55.49 0.069 7.29 6.71 10.24
10/25/2021 4:00:00 PM 13.06 55.508 0.069 7.28 6.74 10.17
10/25/2021 4:15:00 PM 13.07 55.526 0.069 7.25 6.5 10.13
10/25/2021 4:30:00 PM 13.09 55.562 0.069 7.24 6.43 10.13
10/25/2021 4:45:00 PM 13.09 55.562 0.069 7.24 6.7 10.1
10/25/2021 5:00:00 PM 13.08 55.544 0.069 7.23 6.31 10.06
10/25/2021 5:15:00 PM 13.07 55.526 0.069 7.22 6.05 10.02
10/25/2021 5:30:00 PM 13.06 55.508 0.069 7.2 5.83 9.97
10/25/2021 5:45:00 PM 13.03 55.454 0.069 7.18 6.17 9.93
10/25/2021 6:00:00 PM 13 55.4 0.069 7.17 6.24 9.91
10/25/2021 6:15:00 PM 12.98 55.364 0.069 7.16 6.12 9.88
10/25/2021 6:30:00 PM 12.95 55.31 0.069 7.15 6.25 9.87
10/25/2021 6:45:00 PM 12.92 55.256 0.069 7.14 6.48 9.85
10/25/2021 7:00:00 PM 12.89 55.202 0.069 7.13 6.34 9.84
10/25/2021 7:15:00 PM 12.85 55.13 0.069 7.13 6.53 9.84
10/25/2021 7:30:00 PM 12.81 55.058 0.068 7.11 6.75 9.83
10/25/2021 7:45:00 PM 12.78 55.004 0.069 7.12 6.79 9.84
10/25/2021 8:00:00 PM 12.74 54.932 0.068 7.11 6.35 9.84
10/25/2021 8:15:00 PM 12.71 54.878 0.068 7.11 6.56 9.84
10/25/2021 8:30:00 PM 12.68 54.824 0.068 7.1 6.05 9.84
10/25/2021 8:45:00 PM 12.65 54.77 0.068 7.09 6.2 9.85
10/25/2021 9:00:00 PM 12.62 54.716 0.068 7.09 6.26 9.85
10/25/2021 9:15:00 PM 12.59 54.662 0.068 7.09 6.18 9.86
10/25/2021 9:30:00 PM 12.57 54.626 0.068 7.09 6.11 9.87
10/25/2021 9:45:00 PM 12.54 54.572 0.068 7.08 5.77 9.87
10/25/2021 10:00:00 PM 12.51 54.518 0.068 7.08 5.99 9.88
10/25/2021 10:15:00 PM 12.49 54.482 0.068 7.08 5.91 9.88
10/25/2021 10:30:00 PM 12.45 54.41 0.068 7.07 5.89 9.89
10/25/2021 10:45:00 PM 12.42 54.356 0.068 7.07 5.53 9.89
10/25/2021 11:00:00 PM 12.4 54.32 0.068 7.07 5.45 9.9
10/25/2021 11:15:00 PM 12.38 54.284 0.068 7.07 5.54 9.91
10/25/2021 11:30:00 PM 12.36 54.248 0.067 7.07 5.68 9.91
10/25/2021 11:45:00 PM 12.34 54.212 0.067 7.07 5.46 9.92
10/26/2021 12:00:00 AM 12.33 54.194 0.067 7.06 5.55 9.92
10/26/2021 12:15:00 AM 12.32 54.176 0.067 7.07 5.6 9.93
10/26/2021 12:30:00 AM 12.3 54.14 0.067 7.08 8.99 9.93
10/26/2021 12:45:00 AM 12.28 54.104 0.066 7.07 6.32 9.93
10/26/2021 1:00:00 AM 12.27 54.086 0.067 7.06 6.16 9.92
10/26/2021 1:15:00 AM 12.25 54.05 0.066 7.06 6.24 9.92
10/26/2021 1:30:00 AM 12.24 54.032 0.066 7.06 6.21 9.92
10/26/2021 1:45:00 AM 12.23 54.014 0.066 7.07 5.87 9.92
10/26/2021 2:00:00 AM 12.21 53.978 0.066 7.04 6.03 9.92
10/26/2021 2:15:00 AM 12.19 53.942 0.066 7.04 5.72 9.93
10/26/2021 2:30:00 AM 12.17 53.906 0.066 7.04 5.89 9.93
10/26/2021 2:45:00 AM 12.16 53.888 0.066 7.03 5.91 9.93
10/26/2021 3:00:00 AM 12.14 53.852 0.066 7.04 6.02 9.93
10/26/2021 3:15:00 AM 12.13 53.834 0.066 7.05 6.29 9.94
10/26/2021 3:30:00 AM 12.12 53.816 0.066 7.05 6.31 9.94
10/26/2021 3:45:00 AM 12.11 53.798 0.066 7.05 6.78 9.94
10/26/2021 4:00:00 AM 12.1 53.78 0.066 7.04 7.71 9.95
10/26/2021 4:15:00 AM 12.09 53.762 0.066 7.04 7.27 9.94
10/26/2021 4:30:00 AM 12.08 53.744 0.066 7.05 7.07 9.94
10/26/2021 4:45:00 AM 12.06 53.708 0.066 7.04 6.89 9.94
10/26/2021 5:00:00 AM 12.05 53.69 0.066 7.04 6.97 9.95
10/26/2021 5:15:00 AM 12.04 53.672 0.066 7.03 7.03 9.95
10/26/2021 5:30:00 AM 12.03 53.654 0.066 7.03 6.77 9.95
10/26/2021 5:45:00 AM 12.02 53.636 0.066 7.03 7.3 9.96
10/26/2021 6:00:00 AM 12.01 53.618 0.066 7.03 7.22 9.96
10/26/2021 6:15:00 AM 12 53.6 0.066 7.03 7.28 9.96
10/26/2021 6:30:00 AM 11.99 53.582 0.066 7.04 7.53 9.97
10/26/2021 6:45:00 AM 11.99 53.582 0.066 7.03 7.41 9.97
10/26/2021 7:00:00 AM 11.98 53.564 0.066 7.03 7.1 9.97
10/26/2021 7:15:00 AM 11.97 53.546 0.066 7.02 7.3 9.97
10/26/2021 7:30:00 AM 11.96 53.528 0.066 7.03 7.41 9.98
10/26/2021 7:45:00 AM 11.95 53.51 0.066 7.03 7.43 9.98
10/26/2021 8:00:00 AM 11.94 53.492 0.066 7.03 7.58 9.99
10/26/2021 8:15:00 AM 11.93 53.474 0.066 7.03 7.48 10
10/26/2021 8:30:00 AM 11.92 53.456 0.066 7.05 7.35 10.01
10/26/2021 8:45:00 AM 11.91 53.438 0.066 7.05 7.36 10.02
10/26/2021 9:00:00 AM 11.89 53.402 0.066 7.05 7.75 10.03
10/26/2021 9:15:00 AM 11.88 53.384 0.066 7.06 7.55 10.06
10/26/2021 9:30:00 AM 11.85 53.33 0.066 7.07 7.74 10.09
10/26/2021 9:45:00 AM 11.83 53.294 0.066 7.08 7.3 10.13
10/26/2021 10:00:00 AM 11.81 53.258 0.066 7.09 9.36 10.19
10/26/2021 10:15:00 AM 11.8 53.24 0.066 7.11 7.52 10.25
10/26/2021 10:30:00 AM 11.77 53.186 0.066 7.11 7.42 10.27
10/26/2021 10:45:00 AM 11.75 53.15 0.066 7.12 7.12 10.29
10/26/2021 11:00:00 AM 11.73 53.114 0.066 7.13 7.59 10.3
10/26/2021 11:15:00 AM 11.69 53.042 0.066 7.14 964.91 10.31
10/26/2021 11:30:00 AM 11.67 53.006 0.065 7.13 7.79 10.33
10/26/2021 11:45:00 AM 11.65 52.97 0.066 7.13 8.06 10.34
10/26/2021 12:00:00 PM 11.63 52.934 0.065 7.15 7.85 10.37
10/26/2021 12:15:00 PM 11.61 52.898 0.065 7.16 7.28 10.39
10/26/2021 12:30:00 PM 11.58 52.844 0.065 7.15 7.87 10.39
10/26/2021 12:45:00 PM 11.56 52.808 0.065 7.16 7.84 10.41
10/26/2021 1:00:00 PM 11.53 52.754 0.065 7.16 8.83 10.43
10/26/2021 1:15:00 PM 11.51 52.718 0.065 7.16 8.55 10.43
10/26/2021 1:30:00 PM 11.48 52.664 0.065 7.16 9.04 10.43
10/26/2021 1:45:00 PM 11.46 52.628 0.065 7.15 9.56 10.43
10/26/2021 2:00:00 PM 11.43 52.574 0.065 7.15 9.77 10.42
10/26/2021 2:15:00 PM 11.4 52.52 0.065 7.16 10.32 10.43
10/26/2021 2:30:00 PM 11.37 52.466 0.065 7.15 10.26 10.43
10/26/2021 2:45:00 PM 11.34 52.412 0.065 7.15 10.42 10.43
10/26/2021 3:00:00 PM 11.31 52.358 0.065 7.15 10.4 10.42
10/26/2021 3:15:00 PM 11.28 52.304 0.065 7.15 10.47 10.43
10/26/2021 3:30:00 PM 11.24 52.232 0.065 7.13 10.67 10.43
10/26/2021 3:45:00 PM 11.2 52.16 0.065 7.13 11.31 10.43
10/26/2021 4:00:00 PM 11.16 52.088 0.065 7.13 10.63 10.43
10/26/2021 4:15:00 PM 11.12 52.016 0.065 7.12 11.67 10.41
10/26/2021 4:30:00 PM 11.07 51.926 0.065 7.12 11.86 10.41
10/26/2021 4:45:00 PM 11.02 51.836 0.065 7.09 12.35 10.4
10/26/2021 5:00:00 PM 10.97 51.746 0.065 7.09 12.85 10.4
10/26/2021 5:15:00 PM 10.93 51.674 0.065 7.08 13.46 10.4
10/26/2021 5:30:00 PM 10.88 51.584 0.065 7.08 13.77 10.39
10/26/2021 5:45:00 PM 10.83 51.494 0.065 7.09 13.31 10.38
10/26/2021 6:00:00 PM 10.78 51.404 0.065 7.08 14.18 10.38
10/26/2021 6:15:00 PM 10.73 51.314 0.065 7.07 13.98 10.38
10/26/2021 6:30:00 PM 10.69 51.242 0.065 7.04 15.07 10.38
10/26/2021 6:45:00 PM 10.64 51.152 0.065 7.05 14.46 10.38
10/26/2021 7:00:00 PM 10.6 51.08 0.065 7.05 15.42 10.39
10/26/2021 7:15:00 PM 10.56 51.008 0.065 7.04 16.41 10.4
10/26/2021 7:30:00 PM 10.52 50.936 0.065 7.05 15.68 10.41
10/26/2021 7:45:00 PM 10.49 50.882 0.064 7.03 16.56 10.41
10/26/2021 8:00:00 PM 10.45 50.81 0.064 7.04 17.14 10.42
10/26/2021 8:15:00 PM 10.42 50.756 0.064 7.04 17.52 10.43
10/26/2021 8:30:00 PM 10.39 50.702 0.064 7.03 17.91 10.45
10/26/2021 8:45:00 PM 10.37 50.666 0.064 7.03 18.87 10.45
10/26/2021 9:00:00 PM 10.34 50.612 0.064 7.02 19.21 10.46
10/26/2021 9:15:00 PM 10.32 50.576 0.064 7.02 20 10.47
10/26/2021 9:30:00 PM 10.3 50.54 0.064 7.04 20.28 10.48
10/26/2021 9:45:00 PM 10.28 50.504 0.064 7.03 21.33 10.48
10/26/2021 10:00:00 PM 10.27 50.486 0.064 7.01 21.27 10.49
10/26/2021 10:15:00 PM 10.25 50.45 0.063 7 21.31 10.5
10/26/2021 10:30:00 PM 10.24 50.432 0.063 7 21.86 10.5
10/26/2021 10:45:00 PM 10.22 50.396 0.063 6.97 19.74 10.51
10/26/2021 11:00:00 PM 10.22 50.396 0.063 6.84 21.37 10.52
10/26/2021 11:15:00 PM 10.21 50.378 0.063 6.87 21.16 10.52
10/26/2021 11:30:00 PM 10.2 50.36 0.063 6.93 20.75 10.53
10/26/2021 11:45:00 PM 10.19 50.342 0.063 6.95 20.13 10.53
10/27/2021 12:00:00 AM 10.19 50.342 0.062 6.95 20.61 10.53
10/27/2021 12:15:00 AM 10.19 50.342 0.062 6.94 20.01 10.54
10/27/2021 12:30:00 AM 10.18 50.324 0.062 6.95 19.61 10.54
10/27/2021 12:45:00 AM 10.18 50.324 0.062 6.94 18.93 10.54
10/27/2021 1:00:00 AM 10.18 50.324 0.062 6.95 409.69 10.54
10/27/2021 1:15:00 AM 10.18 50.324 0.061 6.95 18.66 10.55
10/27/2021 1:30:00 AM 10.18 50.324 0.061 6.95 18.6 10.54
10/27/2021 1:45:00 AM 10.18 50.324 0.061 6.94 18.35 10.55
10/27/2021 2:00:00 AM 10.18 50.324 0.061 6.95 17.58 10.55
10/27/2021 2:15:00 AM 10.18 50.324 0.061 6.96 17.35 10.55
10/27/2021 2:30:00 AM 10.19 50.342 0.06 6.94 17.67 10.55
10/27/2021 2:45:00 AM 10.19 50.342 0.06 6.94 16.87 10.56
10/27/2021 3:00:00 AM 10.2 50.36 0.06 6.96 16.3 10.56
10/27/2021 3:15:00 AM 10.2 50.36 0.06 6.96 15.72 10.56
10/27/2021 3:30:00 AM 10.21 50.378 0.06 6.94 16.28 10.56
10/27/2021 3:45:00 AM 10.21 50.378 0.06 6.95 15.96 10.56
10/27/2021 4:00:00 AM 10.22 50.396 0.059 6.96 15.47 10.56
10/27/2021 4:15:00 AM 10.23 50.414 0.059 6.95 15.03 10.56
10/27/2021 4:30:00 AM 10.23 50.414 0.059 6.95 14.42 10.56
10/27/2021 4:45:00 AM 10.24 50.432 0.059 6.96 15.01 10.56
10/27/2021 5:00:00 AM 10.25 50.45 0.059 6.96 14.72 10.55
10/27/2021 5:15:00 AM 10.26 50.468 0.059 6.98 14.34 10.56
10/27/2021 5:30:00 AM 10.25 50.45 0.058 6.96 14.33 10.55
10/27/2021 5:45:00 AM 10.25 50.45 0.058 6.96 13.79 10.55
10/27/2021 6:00:00 AM 10.25 50.45 0.058 6.94 14.08 10.56
10/27/2021 6:15:00 AM 10.25 50.45 0.058 6.95 13.5 10.56
10/27/2021 6:30:00 AM 10.26 50.468 0.058 6.93 13.69 10.56
10/27/2021 6:45:00 AM 10.27 50.486 0.058 6.94 13.61 10.56
10/27/2021 7:00:00 AM 10.28 50.504 0.058 6.95 13.45 10.56
10/27/2021 7:15:00 AM 10.29 50.522 0.058 6.95 13.1 10.56
10/27/2021 7:30:00 AM 10.3 50.54 0.058 6.95 13.58 10.56
10/27/2021 7:45:00 AM 10.31 50.558 0.058 6.94 13.48 10.56
10/27/2021 8:00:00 AM 10.32 50.576 0.057 6.93 12.96 10.56
10/27/2021 8:15:00 AM 10.33 50.594 0.057 6.94 12.2 10.57
10/27/2021 8:30:00 AM 10.34 50.612 0.057 6.94 12.09 10.57
10/27/2021 8:45:00 AM 10.36 50.648 0.057 6.94 11.91 10.58
10/27/2021 9:00:00 AM 10.38 50.684 0.057 6.95 11.4 10.59
10/27/2021 9:15:00 AM 10.4 50.72 0.057 6.97 10.69 10.6
10/27/2021 9:30:00 AM 10.43 50.774 0.057 6.97 11.79 10.62
10/27/2021 9:45:00 AM 10.45 50.81 0.057 6.99 11.66 10.63
10/27/2021 10:00:00 AM 10.48 50.864 0.057 7 10.42 10.64
10/27/2021 10:15:00 AM 10.52 50.936 0.057 7.01 9.61 10.65
10/27/2021 10:30:00 AM 10.56 51.008 0.056 7.01 9.38 10.68
10/27/2021 10:45:00 AM 10.6 51.08 0.056 7.02 8.84 10.71
10/27/2021 11:00:00 AM 10.65 51.17 0.056 7.03 8.67 10.73
10/27/2021 11:15:00 AM 10.71 51.278 0.056 7.07 8.52 10.75
10/27/2021 11:30:00 AM 10.77 51.386 0.056 7.05 8.59 10.77
10/27/2021 11:45:00 AM 10.85 51.53 0.056 7.07 8.2 10.78
10/27/2021 12:00:00 PM 10.95 51.71 0.056 7.08 8.03 10.79
10/27/2021 12:15:00 PM 11.04 51.872 0.056 7.08 7.84 10.78
10/27/2021 12:30:00 PM 11.16 52.088 0.056 7.09 7.87 10.77
10/27/2021 12:45:00 PM 11.28 52.304 0.056 7.09 7.73 10.75
10/27/2021 1:00:00 PM 11.4 52.52 0.056 7.11 7.73 10.74
10/27/2021 1:15:00 PM 11.48 52.664 0.055 7.1 7.56 10.72
10/27/2021 1:30:00 PM 11.58 52.844 0.055 7.12 7.97 10.7
10/27/2021 1:45:00 PM 11.66 52.988 0.055 7.12 7.55 10.67
10/27/2021 2:00:00 PM 11.74 53.132 0.055 7.11 7.9 10.65
10/27/2021 2:15:00 PM 11.82 53.276 0.055 7.07 7.37 10.63
10/27/2021 2:30:00 PM 11.89 53.402 0.055 7.08 7.83 10.6
10/27/2021 2:45:00 PM 11.96 53.528 0.055 7.08 7.91 10.58
10/27/2021 3:00:00 PM 12.01 53.618 0.055 7.09 7.63 10.55
10/27/2021 3:15:00 PM 12.06 53.708 0.055 7.09 7.79 10.52
10/27/2021 3:30:00 PM 12.09 53.762 0.055 7.1 7.12 10.5
10/27/2021 3:45:00 PM 12.09 53.762 0.055 7.09 7.68 10.47
10/27/2021 4:00:00 PM 12.09 53.762 0.055 7.1 7.61 10.45
10/27/2021 4:15:00 PM 12.07 53.726 0.055 7.09 7.55 10.43
10/27/2021 4:30:00 PM 12.04 53.672 0.055 7.08 7.52 10.41
10/27/2021 4:45:00 PM 12 53.6 0.055 7.08 7.8 10.38
10/27/2021 5:00:00 PM 11.95 53.51 0.055 7.06 7.52 10.36
10/27/2021 5:15:00 PM 11.89 53.402 0.055 7.05 7.39 10.34
10/27/2021 5:30:00 PM 11.83 53.294 0.055 7.04 7.55 10.33
10/27/2021 5:45:00 PM 11.76 53.168 0.055 7.03 7.41 10.32
10/27/2021 6:00:00 PM 11.7 53.06 0.055 7.02 7.74 10.31
10/27/2021 6:15:00 PM 11.63 52.934 0.055 7.02 7.15 10.31
10/27/2021 6:30:00 PM 11.57 52.826 0.055 7 7.64 10.3
10/27/2021 6:45:00 PM 11.51 52.718 0.055 7 7.67 10.29
10/27/2021 7:00:00 PM 11.44 52.592 0.055 7 7.45 10.3
10/27/2021 7:15:00 PM 11.38 52.484 0.055 7 7.97 10.3
10/27/2021 7:30:00 PM 11.32 52.376 0.055 6.98 7.58 10.31
10/27/2021 7:45:00 PM 11.26 52.268 0.055 6.97 7.45 10.32
10/27/2021 8:00:00 PM 11.19 52.142 0.055 6.96 7.63 10.34
10/27/2021 8:15:00 PM 11.12 52.016 0.055 6.95 15.91 10.35
10/27/2021 8:30:00 PM 11.06 51.908 0.055 6.96 7.69 10.36
10/27/2021 8:45:00 PM 10.99 51.782 0.055 6.97 7.14 10.38
10/27/2021 9:00:00 PM 10.93 51.674 0.055 6.96 7.19 10.4
10/27/2021 9:15:00 PM 10.86 51.548 0.055 6.95 7.64 10.41
10/27/2021 9:30:00 PM 10.8 51.44 0.055 6.95 7.33 10.43
10/27/2021 9:45:00 PM 10.74 51.332 0.055 6.95 7.41 10.45
10/27/2021 10:00:00 PM 10.67 51.206 0.055 6.96 7.29 10.47
10/27/2021 10:15:00 PM 10.61 51.098 0.055 6.96 7.09 10.48
10/27/2021 10:30:00 PM 10.55 50.99 0.055 6.96 7.36 10.5
10/27/2021 10:45:00 PM 10.48 50.864 0.055 6.95 7.07 10.52
10/27/2021 11:00:00 PM 10.42 50.756 0.055 6.95 7.08 10.53
10/27/2021 11:15:00 PM 10.36 50.648 0.055 6.95 7.19 10.55
10/27/2021 11:30:00 PM 10.3 50.54 0.055 6.95 6.82 10.56
10/27/2021 11:45:00 PM 10.25 50.45 0.055 6.95 7.32 10.58
10/28/2021 12:00:00 AM 10.19 50.342 0.055 6.95 7.79 10.59
10/28/2021 12:15:00 AM 10.13 50.234 0.055 6.95 7.14 10.61
10/28/2021 12:30:00 AM 10.07 50.126 0.055 6.95 10.7 10.62
10/28/2021 12:45:00 AM 10.02 50.036 0.055 6.96 6.71 10.64
10/28/2021 1:00:00 AM 9.97 49.946 0.055 6.96 6.82 10.65
10/28/2021 1:15:00 AM 9.91 49.838 0.055 6.95 6.82 10.67
10/28/2021 1:30:00 AM 9.86 49.748 0.055 6.95 6.58 10.69
10/28/2021 1:45:00 AM 9.81 49.658 0.055 6.96 6.45 10.7
10/28/2021 2:00:00 AM 9.76 49.568 0.055 6.95 6.37 10.71
10/28/2021 2:15:00 AM 9.71 49.478 0.055 6.95 6.69 10.73
10/28/2021 2:30:00 AM 9.66 49.388 0.055 6.95 6.35 10.74
10/28/2021 2:45:00 AM 9.61 49.298 0.055 6.95 6.33 10.75
10/28/2021 3:00:00 AM 9.56 49.208 0.055 6.94 6.26 10.77
10/28/2021 3:15:00 AM 9.51 49.118 0.055 6.95 6.1 10.78
10/28/2021 3:30:00 AM 9.47 49.046 0.055 6.94 6.06 10.79
10/28/2021 3:45:00 AM 9.43 48.974 0.055 6.95 6.13 10.81
10/28/2021 4:00:00 AM 9.39 48.902 0.055 6.95 5.92 10.81
10/28/2021 4:15:00 AM 9.35 48.83 0.055 6.95 6.06 10.82
10/28/2021 4:30:00 AM 9.31 48.758 0.055 6.95 5.82 10.83
10/28/2021 4:45:00 AM 9.27 48.686 0.055 6.95 5.55 10.85
10/28/2021 5:00:00 AM 9.22 48.596 0.055 6.95 5.79 10.86
10/28/2021 5:15:00 AM 9.18 48.524 0.055 6.95 5.98 10.87
10/28/2021 5:30:00 AM 9.14 48.452 0.055 6.95 5.39 10.88
10/28/2021 5:45:00 AM 9.11 48.398 0.055 6.95 5.43 10.89
10/28/2021 6:00:00 AM 9.07 48.326 0.055 6.96 5.28 10.9
10/28/2021 6:15:00 AM 9.04 48.272 0.055 6.96 5.29 10.91
10/28/2021 6:30:00 AM 9.01 48.218 0.055 6.95 5.49 10.92
10/28/2021 6:45:00 AM 8.98 48.164 0.055 6.95 5.14 10.93
10/28/2021 7:00:00 AM 8.95 48.11 0.055 6.95 5.35 10.94
10/28/2021 7:15:00 AM 8.92 48.056 0.055 6.95 5.1 10.95
10/28/2021 7:30:00 AM 8.89 48.002 0.055 6.96 5.3 10.96
10/28/2021 7:45:00 AM 8.86 47.948 0.055 6.96 5.05 10.97
10/28/2021 8:00:00 AM 8.83 47.894 0.055 6.96 4.78 10.99
10/28/2021 8:15:00 AM 8.8 47.84 0.055 6.96 4.72 11.01
10/28/2021 8:30:00 AM 8.77 47.786 0.055 6.97 4.65 11.04
10/28/2021 8:45:00 AM 8.76 47.768 0.055 6.98 4.87 11.08
10/28/2021 9:00:00 AM 8.74 47.732 0.055 6.98 4.7 11.11
10/28/2021 9:15:00 AM 8.74 47.732 0.055 6.99 4.51 11.15
10/28/2021 9:30:00 AM 8.74 47.732 0.055 7 4.53 11.2
10/28/2021 9:45:00 AM 8.74 47.732 0.055 7 4.16 11.24
10/28/2021 10:00:00 AM 8.76 47.768 0.055 6.94 4.35 11.29
10/28/2021 10:15:00 AM 8.78 47.804 0.055 6.95 4.05 11.31
10/28/2021 10:30:00 AM 8.82 47.876 0.054 6.99 3.98 11.35
10/28/2021 10:45:00 AM 8.86 47.948 0.054 7.02 4.08 11.35
10/28/2021 11:00:00 AM 8.92 48.056 0.054 7.04 3.9 11.35
10/28/2021 11:15:00 AM 8.99 48.182 0.054 7.05 3.79 11.36
10/28/2021 11:30:00 AM 9.08 48.344 0.054 7.08 3.67 11.36
10/28/2021 11:45:00 AM 9.19 48.542 0.054 7.09 4.11 11.35
10/28/2021 12:00:00 PM 9.3 48.74 0.054 7.11 4.46 11.33
10/28/2021 12:15:00 PM 9.4 48.92 0.054 7.1 4.01 11.31
10/28/2021 12:30:00 PM 9.53 49.154 0.054 7.12 5.44 11.29
10/28/2021 12:45:00 PM 9.64 49.352 0.054 7.13 4.12 11.27
10/28/2021 1:00:00 PM 9.79 49.622 0.054 7.14 3.67 11.24
10/28/2021 1:15:00 PM 9.93 49.874 0.054 7.15 3.63 11.21
10/28/2021 1:30:00 PM 10.07 50.126 0.054 7.16 3.72 11.18
10/28/2021 1:45:00 PM 10.19 50.342 0.054 7.16 3.61 11.14
10/28/2021 2:00:00 PM 10.31 50.558 0.054 7.17 4 11.11
10/28/2021 2:15:00 PM 10.45 50.81 0.054 7.17 3.8 11.07
10/28/2021 2:30:00 PM 10.54 50.972 0.054 7.16 3.92 11.03
10/28/2021 2:45:00 PM 10.61 51.098 0.054 7.17 3.8 11
10/28/2021 3:00:00 PM 10.69 51.242 0.054 7.17 3.89 10.97
10/28/2021 3:15:00 PM 10.75 51.35 0.054 7.18 4.33 10.92
10/28/2021 3:30:00 PM 10.8 51.44 0.054 7.18 4.21 10.91
10/28/2021 3:45:00 PM 10.88 51.584 0.054 7.17 4.06 10.89
10/28/2021 4:00:00 PM 10.92 51.656 0.054 7.17 3.87 10.86
10/28/2021 4:15:00 PM 10.97 51.746 0.054 7.17 3.83 10.83
10/28/2021 4:30:00 PM 11 51.8 0.054 7.17 3.86 10.79
10/28/2021 4:45:00 PM 11.02 51.836 0.054 7.16 4.1 10.75
10/28/2021 5:00:00 PM 11.04 51.872 0.054 7.16 4.05 10.72
10/28/2021 5:15:00 PM 11.06 51.908 0.054 7.14 4.17 10.68
10/28/2021 5:30:00 PM 11.06 51.908 0.054 7.12 4.11 10.64
10/28/2021 5:45:00 PM 11.06 51.908 0.054 7.1 4.24 10.58
10/28/2021 6:00:00 PM 11.06 51.908 0.054 7.08 3.98 10.53
10/28/2021 6:15:00 PM 11.05 51.89 0.054 7.06 4.55 10.48
10/28/2021 6:30:00 PM 11.04 51.872 0.054 7.06 4.22 10.45
10/28/2021 6:45:00 PM 11.02 51.836 0.055 7.04 4.25 10.42
10/28/2021 7:00:00 PM 11.01 51.818 0.055 7.02 4.49 10.4
10/28/2021 7:15:00 PM 11.01 51.818 0.055 7.01 4.77 10.38
10/28/2021 7:30:00 PM 11.01 51.818 0.055 7.01 4.92 10.38
10/28/2021 7:45:00 PM 11 51.8 0.055 7 4.78 10.37
10/28/2021 8:00:00 PM 11 51.8 0.055 7 4.84 10.36
10/28/2021 8:15:00 PM 11 51.8 0.055 7.01 4.76 10.36
10/28/2021 8:30:00 PM 11 51.8 0.055 7 4.89 10.35
10/28/2021 8:45:00 PM 10.99 51.782 0.055 7 4.79 10.36
10/28/2021 9:00:00 PM 10.99 51.782 0.055 7 4.6 10.35
10/28/2021 9:15:00 PM 10.99 51.782 0.055 6.99 4.94 10.35
10/28/2021 9:30:00 PM 10.99 51.782 0.055 7 4.73 10.35
10/28/2021 9:45:00 PM 10.99 51.782 0.055 7 4.74 10.35
10/28/2021 10:00:00 PM 10.99 51.782 0.055 7 4.69 10.35
10/28/2021 10:15:00 PM 10.99 51.782 0.055 7 4.48 10.35
10/28/2021 10:30:00 PM 10.99 51.782 0.055 7 4.62 10.35
10/28/2021 10:45:00 PM 10.99 51.782 0.055 7 4.44 10.35
10/28/2021 11:00:00 PM 10.99 51.782 0.055 6.99 4.63 10.35
10/28/2021 11:15:00 PM 11 51.8 0.055 7 4.49 10.35
10/28/2021 11:30:00 PM 11 51.8 0.055 6.99 4.48 10.35
10/28/2021 11:45:00 PM 11.01 51.818 0.055 7 4.52 10.34
10/29/2021 12:00:00 AM 11.01 51.818 0.055 6.99 4.51 10.34
10/29/2021 12:15:00 AM 11.01 51.818 0.055 6.99 4.43 10.34
10/29/2021 12:30:00 AM 11.02 51.836 0.055 7 4.33 10.34
10/29/2021 12:45:00 AM 11.02 51.836 0.055 7 4.45 10.34
10/29/2021 1:00:00 AM 11.02 51.836 0.055 6.99 4.32 10.33
10/29/2021 1:15:00 AM 11.02 51.836 0.055 6.99 4.42 10.33
10/29/2021 1:30:00 AM 11.03 51.854 0.055 7 4.78 10.33
10/29/2021 1:45:00 AM 11.03 51.854 0.055 7 4.23 10.33
10/29/2021 2:00:00 AM 11.03 51.854 0.055 7 4.19 10.33
10/29/2021 2:15:00 AM 11.03 51.854 0.055 7 4.19 10.32
10/29/2021 2:30:00 AM 11.03 51.854 0.055 7 4.15 10.32
10/29/2021 2:45:00 AM 11.03 51.854 0.055 7 4.33 10.32
10/29/2021 3:00:00 AM 11.03 51.854 0.055 7 4.2 10.32
10/29/2021 3:15:00 AM 11.03 51.854 0.055 6.99 4.04 10.32
10/29/2021 3:30:00 AM 11.03 51.854 0.055 6.99 3.85 10.32
10/29/2021 3:45:00 AM 11.03 51.854 0.055 6.98 4 10.32
10/29/2021 4:00:00 AM 11.03 51.854 0.055 7 3.99 10.31
10/29/2021 4:15:00 AM 11.03 51.854 0.055 7 3.99 10.31
10/29/2021 4:30:00 AM 11.02 51.836 0.055 6.99 3.91 10.32
10/29/2021 4:45:00 AM 11.02 51.836 0.055 7 3.83 10.32
10/29/2021 5:00:00 AM 11.02 51.836 0.055 7 3.88 10.31
10/29/2021 5:15:00 AM 11.02 51.836 0.055 6.99 4.04 10.32
10/29/2021 5:30:00 AM 11.01 51.818 0.055 7 3.87 10.31
10/29/2021 5:45:00 AM 11.01 51.818 0.055 7 3.91 10.31
10/29/2021 6:00:00 AM 11.01 51.818 0.055 6.99 3.94 10.32
10/29/2021 6:15:00 AM 11 51.8 0.055 6.99 3.95 10.32
10/29/2021 6:30:00 AM 11 51.8 0.055 6.99 3.81 10.31
10/29/2021 6:45:00 AM 10.99 51.782 0.055 6.99 3.91 10.31
10/29/2021 7:00:00 AM 10.98 51.764 0.055 6.99 3.86 10.32
10/29/2021 7:15:00 AM 10.98 51.764 0.055 6.98 3.93 10.32
10/29/2021 7:30:00 AM 10.97 51.746 0.055 7 3.97 10.32
10/29/2021 7:45:00 AM 10.95 51.71 0.055 6.99 3.56 10.32
10/29/2021 8:00:00 AM 10.94 51.692 0.055 7 3.73 10.33
10/29/2021 8:15:00 AM 10.92 51.656 0.055 7 3.74 10.34
10/29/2021 8:30:00 AM 10.91 51.638 0.055 7 3.62 10.34
10/29/2021 8:45:00 AM 10.89 51.602 0.055 7 3.79 10.36
10/29/2021 9:00:00 AM 10.88 51.584 0.055 7.01 4.01 10.39
10/29/2021 9:15:00 AM 10.88 51.584 0.055 7.02 3.72 10.42
10/29/2021 9:30:00 AM 10.88 51.584 0.055 7.02 3.86 10.44
10/29/2021 9:45:00 AM 10.87 51.566 0.055 7.02 3.81 10.46
10/29/2021 10:00:00 AM 10.86 51.548 0.055 7.03 3.61 10.48
10/29/2021 10:15:00 AM 10.86 51.548 0.055 7.03 3.56 10.5
10/29/2021 10:30:00 AM 10.86 51.548 0.055 7.04 3.45 10.53
10/29/2021 10:45:00 AM 10.86 51.548 0.055 7.05 3.56 10.56
10/29/2021 11:00:00 AM 10.86 51.548 0.055 7.06 3.36 10.56
10/29/2021 11:15:00 AM 10.85 51.53 0.055 7.05 4.42 10.55
10/29/2021 11:30:00 AM 10.85 51.53 0.055 7.06 3.69 10.55
10/29/2021 11:45:00 AM 10.84 51.512 0.055 7.06 4.06 10.55
10/29/2021 12:00:00 PM 10.83 51.494 0.055 7.06 3.68 10.55
10/29/2021 12:15:00 PM 10.82 51.476 0.055 7.05 3.42 10.55
10/29/2021 12:30:00 PM 10.82 51.476 0.055 7.06 3.71 10.54
10/29/2021 12:45:00 PM 10.81 51.458 0.055 7.06 3.78 10.54
10/29/2021 1:00:00 PM 10.79 51.422 0.055 7.06 3.73 10.54
10/29/2021 1:15:00 PM 10.78 51.404 0.055 7.05 3.82 10.54
10/29/2021 1:30:00 PM 10.77 51.386 0.055 7.06 3.85 10.55
10/29/2021 1:45:00 PM 10.75 51.35 0.055 7.06 3.91 10.54
10/29/2021 2:00:00 PM 10.74 51.332 0.055 7.06 4.47 10.53
10/29/2021 2:15:00 PM 10.73 51.314 0.055 7.05 4.43 10.54
10/29/2021 2:30:00 PM 10.75 51.35 0.055 7.05 4.8 10.6
10/29/2021 2:45:00 PM 10.77 51.386 0.055 7.08 4.85 10.64
10/29/2021 3:00:00 PM 10.76 51.368 0.055 7.07 5.06 10.62
10/29/2021 3:15:00 PM 10.75 51.35 0.054 7.07 5.79 10.59
10/29/2021 3:30:00 PM 10.74 51.332 0.055 7.06 6.6 10.54
10/29/2021 3:45:00 PM 10.72 51.296 0.054 7.05 8.2 10.52
10/29/2021 4:00:00 PM 10.7 51.26 0.054 7.03 9.85 10.5
10/29/2021 4:15:00 PM 10.68 51.224 0.054 7.03 11.53 10.48
10/29/2021 4:30:00 PM 10.68 51.224 0.054 7.02 15.05 10.47
10/29/2021 4:45:00 PM 10.67 51.206 0.054 7.01 18.61 10.45
10/29/2021 5:00:00 PM 10.67 51.206 0.054 6.94 22.23 10.43
10/29/2021 5:15:00 PM 10.66 51.188 0.055 6.96 26.52 10.42
10/29/2021 5:30:00 PM 10.65 51.17 0.055 6.97 31.07 10.4
10/29/2021 5:45:00 PM 10.64 51.152 0.055 7 33.09 10.39
10/29/2021 6:00:00 PM 10.63 51.134 0.055 6.99 40.92 10.39
10/29/2021 6:15:00 PM 10.61 51.098 0.055 6.95 46.15 10.38
10/29/2021 6:30:00 PM 10.6 51.08 0.055 6.96 47.43 10.38
10/29/2021 6:45:00 PM 10.59 51.062 0.055 6.94 51.1 10.37
10/29/2021 7:00:00 PM 10.58 51.044 0.055 6.96 58.16 10.37
10/29/2021 7:15:00 PM 10.57 51.026 0.055 6.95 58.21 10.37
10/29/2021 7:30:00 PM 10.56 51.008 0.055 6.93 67.08 10.38
10/29/2021 7:45:00 PM 10.55 50.99 0.055 6.94 60.47 10.38
10/29/2021 8:00:00 PM 10.55 50.99 0.055 6.93 56 10.38
10/29/2021 8:15:00 PM 10.54 50.972 0.054 6.91 55.71 10.38
10/29/2021 8:30:00 PM 10.54 50.972 0.054 6.91 50.6 10.38
10/29/2021 8:45:00 PM 10.53 50.954 0.054 6.91 48.15 10.39
10/29/2021 9:00:00 PM 10.52 50.936 0.054 6.91 46.67 10.39
10/29/2021 9:15:00 PM 10.52 50.936 0.054 6.88 44.15 10.39
10/29/2021 9:30:00 PM 10.52 50.936 0.053 6.89 40.76 10.39
10/29/2021 9:45:00 PM 10.51 50.918 0.053 6.88 36.98 10.4
10/29/2021 10:00:00 PM 10.51 50.918 0.053 6.89 35.43 10.4
10/29/2021 10:15:00 PM 10.51 50.918 0.053 6.9 5648.21 10.4
10/29/2021 10:30:00 PM 10.5 50.9 0.053 6.88 29.5 10.41
10/29/2021 10:45:00 PM 10.5 50.9 0.054 6.86 27.82 10.4
10/29/2021 11:00:00 PM 10.49 50.882 0.053 6.89 26.56 10.41
10/29/2021 11:15:00 PM 10.48 50.864 0.053 6.89 25.08 10.41
10/29/2021 11:30:00 PM 10.48 50.864 0.054 6.91 31.97 10.41
10/29/2021 11:45:00 PM 10.47 50.846 0.053 6.9 29.41 10.42
10/30/2021 12:00:00 AM 10.46 50.828 0.054 6.9 31.18 10.42
10/30/2021 12:15:00 AM 10.45 50.81 0.053 6.89 25.83 10.42
10/30/2021 12:30:00 AM 10.44 50.792 0.053 6.91 66.15 10.42
10/30/2021 12:45:00 AM 10.43 50.774 0.053 6.91 21.03 10.42
10/30/2021 1:00:00 AM 10.43 50.774 0.053 6.91 19.35 10.43
10/30/2021 1:15:00 AM 10.42 50.756 0.053 6.92 24.15 10.43
10/30/2021 1:30:00 AM 10.41 50.738 0.053 6.92 17.1 10.43
10/30/2021 1:45:00 AM 10.4 50.72 0.053 6.92 19.29 10.43
10/30/2021 2:00:00 AM 10.39 50.702 0.053 6.92 19.47 10.44
10/30/2021 2:15:00 AM 10.38 50.684 0.053 6.92 35.58 10.44
10/30/2021 2:30:00 AM 10.38 50.684 0.053 6.92 17.98 10.44
10/30/2021 2:45:00 AM 10.37 50.666 0.053 6.92 18.38 10.44
10/30/2021 3:00:00 AM 10.36 50.648 0.053 6.92 15.86 10.44
10/30/2021 3:15:00 AM 10.35 50.63 0.053 6.91 15.4 10.45
10/30/2021 3:30:00 AM 10.34 50.612 0.053 6.89 15.33 10.44
10/30/2021 3:45:00 AM 10.34 50.612 0.052 6.89 15.14 10.45
10/30/2021 4:00:00 AM 10.33 50.594 0.053 6.89 14.33 10.45
10/30/2021 4:15:00 AM 10.32 50.576 0.052 6.89 2453.12 10.45
10/30/2021 4:30:00 AM 10.32 50.576 0.052 6.9 14.56 10.45
10/30/2021 4:45:00 AM 10.31 50.558 0.052 6.88 14.44 10.46
10/30/2021 5:00:00 AM 10.3 50.54 0.052 6.9 14.42 10.46
10/30/2021 5:15:00 AM 10.29 50.522 0.052 6.9 14.34 10.46
10/30/2021 5:30:00 AM 10.29 50.522 0.052 6.91 16.11 10.46
10/30/2021 5:45:00 AM 10.28 50.504 0.052 6.9 13.97 10.46
10/30/2021 6:00:00 AM 10.27 50.486 0.052 6.89 13.43 10.47
10/30/2021 6:15:00 AM 10.26 50.468 0.052 6.89 13.59 10.47
10/30/2021 6:30:00 AM 10.26 50.468 0.052 6.89 13.67 10.47
10/30/2021 6:45:00 AM 10.25 50.45 0.052 6.9 13.08 10.47
10/30/2021 7:00:00 AM 10.24 50.432 0.052 6.91 12.99 10.48
10/30/2021 7:15:00 AM 10.24 50.432 0.052 6.91 12.68 10.47
10/30/2021 7:30:00 AM 10.23 50.414 0.052 6.9 12.94 10.48
10/30/2021 7:45:00 AM 10.23 50.414 0.052 6.89 12.6 10.48
10/30/2021 8:00:00 AM 10.22 50.396 0.052 6.88 11.81 10.48
10/30/2021 8:15:00 AM 10.22 50.396 0.052 6.91 12.3 10.49
10/30/2021 8:30:00 AM 10.22 50.396 0.052 6.91 11.93 10.5
10/30/2021 8:45:00 AM 10.22 50.396 0.051 6.91 11.23 10.51
10/30/2021 9:00:00 AM 10.23 50.414 0.051 6.92 11.3 10.53
10/30/2021 9:15:00 AM 10.24 50.432 0.051 6.92 11.05 10.55
10/30/2021 9:30:00 AM 10.25 50.45 0.051 6.92 10.92 10.57
10/30/2021 9:45:00 AM 10.26 50.468 0.051 6.92 10.75 10.58
10/30/2021 10:00:00 AM 10.29 50.522 0.051 6.92 10.5 10.6
10/30/2021 10:15:00 AM 10.32 50.576 0.051 6.94 10.04 10.63
10/30/2021 10:30:00 AM 10.36 50.648 0.051 6.94 10 10.65
10/30/2021 10:45:00 AM 10.39 50.702 0.051 6.95 10.54 10.65
10/30/2021 11:00:00 AM 10.41 50.738 0.051 6.96 9.88 10.65
10/30/2021 11:15:00 AM 10.44 50.792 0.051 6.94 9.15 10.65
10/30/2021 11:30:00 AM 10.47 50.846 0.051 6.96 9.25 10.65
10/30/2021 11:45:00 AM 10.5 50.9 0.051 6.96 9.01 10.65
10/30/2021 12:00:00 PM 10.53 50.954 0.051 6.97 9.08 10.65
10/30/2021 12:15:00 PM 10.57 51.026 0.051 6.98 8.81 10.65
10/30/2021 12:30:00 PM 10.61 51.098 0.051 6.99 8.82 10.66
10/30/2021 12:45:00 PM 10.65 51.17 0.051 6.99 8.65 10.66
10/30/2021 1:00:00 PM 10.7 51.26 0.051 7.01 8.35 10.67
10/30/2021 1:15:00 PM 10.74 51.332 0.051 7.01 8.39 10.66
10/30/2021 1:30:00 PM 10.78 51.404 0.051 7 8.46 10.64
10/30/2021 1:45:00 PM 10.81 51.458 0.051 6.99 8.52 10.63
10/30/2021 2:00:00 PM 10.86 51.548 0.051 7 8.14 10.63
10/30/2021 2:15:00 PM 10.9 51.62 0.051 7 7.98 10.62
10/30/2021 2:30:00 PM 10.95 51.71 0.051 7 8.36 10.62
10/30/2021 2:45:00 PM 11 51.8 0.051 7.01 8.15 10.62
10/30/2021 3:00:00 PM 11.03 51.854 0.051 7.01 8.01 10.59
10/30/2021 3:15:00 PM 11.06 51.908 0.051 7.01 8.19 10.56
10/30/2021 3:30:00 PM 11.1 51.98 0.051 7 8.04 10.55
10/30/2021 3:45:00 PM 11.13 52.034 0.051 7.01 7.85 10.55
10/30/2021 4:00:00 PM 11.15 52.07 0.051 7.01 7.6 10.53
10/30/2021 4:15:00 PM 11.16 52.088 0.051 7 7.68 10.51
10/30/2021 4:30:00 PM 11.18 52.124 0.051 7 7.54 10.49
10/30/2021 4:45:00 PM 11.2 52.16 0.051 7 7.64 10.48
10/30/2021 5:00:00 PM 11.21 52.178 0.051 6.99 7.32 10.47
10/30/2021 5:15:00 PM 11.21 52.178 0.051 6.99 7.66 10.42
10/30/2021 5:30:00 PM 11.2 52.16 0.051 6.97 7.9 10.38
10/30/2021 5:45:00 PM 11.2 52.16 0.051 6.93 7.68 10.35
10/30/2021 6:00:00 PM 11.19 52.142 0.051 6.93 7.59 10.33
10/30/2021 6:15:00 PM 11.17 52.106 0.051 6.93 7.47 10.3
10/30/2021 6:30:00 PM 11.16 52.088 0.051 6.91 7.9 10.29
10/30/2021 6:45:00 PM 11.15 52.07 0.051 6.91 7.71 10.28
10/30/2021 7:00:00 PM 11.14 52.052 0.051 6.91 7.83 10.29
10/30/2021 7:15:00 PM 11.13 52.034 0.051 6.91 7.56 10.28
10/30/2021 7:30:00 PM 11.12 52.016 0.051 6.91 7.78 10.28
10/30/2021 7:45:00 PM 11.11 51.998 0.051 6.89 7.52 10.28
10/30/2021 8:00:00 PM 11.1 51.98 0.051 6.9 7.88 10.28
10/30/2021 8:15:00 PM 11.08 51.944 0.051 6.89 7.48 10.28
10/30/2021 8:30:00 PM 11.07 51.926 0.051 6.89 7.39 10.29
10/30/2021 8:45:00 PM 11.06 51.908 0.051 6.89 7.55 10.29
10/30/2021 9:00:00 PM 11.06 51.908 0.051 6.89 7.39 10.29
10/30/2021 9:15:00 PM 11.05 51.89 0.051 6.88 7.24 10.29
10/30/2021 9:30:00 PM 11.04 51.872 0.051 6.89 7.08 10.29
10/30/2021 9:45:00 PM 11.03 51.854 0.051 6.88 7.49 10.29
10/30/2021 10:00:00 PM 11.02 51.836 0.051 6.89 7.23 10.3
10/30/2021 10:15:00 PM 11.01 51.818 0.051 6.88 7.12 10.3
10/30/2021 10:30:00 PM 11 51.8 0.051 6.88 8.31 10.3
10/30/2021 10:45:00 PM 10.99 51.782 0.051 6.88 6.87 10.3
10/30/2021 11:00:00 PM 10.98 51.764 0.051 6.87 6.94 10.31
10/30/2021 11:15:00 PM 10.97 51.746 0.051 6.88 6.97 10.31
10/30/2021 11:30:00 PM 10.96 51.728 0.051 6.88 6.97 10.31
10/30/2021 11:45:00 PM 10.94 51.692 0.051 6.88 6.87 10.31
10/31/2021 12:00:00 AM 10.94 51.692 0.051 6.87 6.66 10.32
10/31/2021 12:15:00 AM 10.93 51.674 0.051 6.88 6.63 10.32
10/31/2021 12:30:00 AM 10.92 51.656 0.051 6.88 6.64 10.32
10/31/2021 12:45:00 AM 10.91 51.638 0.051 6.88 6.62 10.32
10/31/2021 1:00:00 AM 10.91 51.638 0.051 6.88 6.2 10.32
10/31/2021 1:15:00 AM 10.9 51.62 0.051 6.88 6.15 10.32
10/31/2021 1:30:00 AM 10.89 51.602 0.051 6.88 6.45 10.32
10/31/2021 1:45:00 AM 10.89 51.602 0.051 6.88 6.33 10.32
10/31/2021 2:00:00 AM 10.88 51.584 0.051 6.88 6.52 10.32
10/31/2021 2:15:00 AM 10.87 51.566 0.051 6.88 6.03 10.32
10/31/2021 2:30:00 AM 10.86 51.548 0.051 6.88 6.28 10.33
10/31/2021 2:45:00 AM 10.86 51.548 0.051 6.88 6.24 10.32
10/31/2021 3:00:00 AM 10.85 51.53 0.051 6.88 6.35 10.32
10/31/2021 3:15:00 AM 10.85 51.53 0.051 6.89 5.98 10.32
10/31/2021 3:30:00 AM 10.84 51.512 0.051 6.88 6.22 10.33
10/31/2021 3:45:00 AM 10.84 51.512 0.051 6.88 6.1 10.33
10/31/2021 4:00:00 AM 10.84 51.512 0.051 6.88 6.16 10.33
10/31/2021 4:15:00 AM 10.83 51.494 0.051 6.88 6.63 10.33
10/31/2021 4:30:00 AM 10.83 51.494 0.051 6.88 6.21 10.33
10/31/2021 4:45:00 AM 10.83 51.494 0.051 6.89 5.99 10.33
10/31/2021 5:00:00 AM 10.82 51.476 0.051 6.87 5.79 10.33
10/31/2021 5:15:00 AM 10.82 51.476 0.051 6.87 6.26 10.33
10/31/2021 5:30:00 AM 10.82 51.476 0.051 6.88 5.87 10.33
10/31/2021 5:45:00 AM 10.81 51.458 0.051 6.88 5.85 10.33
10/31/2021 6:00:00 AM 10.81 51.458 0.051 6.87 6 10.33
10/31/2021 6:15:00 AM 10.81 51.458 0.051 6.87 5.82 10.33
10/31/2021 6:30:00 AM 10.8 51.44 0.051 6.87 5.81 10.34
10/31/2021 6:45:00 AM 10.8 51.44 0.051 6.87 5.69 10.34
10/31/2021 7:00:00 AM 10.8 51.44 0.051 6.87 5.63 10.34
10/31/2021 7:15:00 AM 10.79 51.422 0.051 6.87 5.66 10.34
10/31/2021 7:30:00 AM 10.79 51.422 0.051 6.88 5.55 10.34
10/31/2021 7:45:00 AM 10.79 51.422 0.051 6.88 5.87 10.34
10/31/2021 8:00:00 AM 10.79 51.422 0.051 6.88 5.43 10.35
10/31/2021 8:15:00 AM 10.79 51.422 0.051 6.87 5.8 10.36
10/31/2021 8:30:00 AM 10.79 51.422 0.051 6.88 5.8 10.37
10/31/2021 8:45:00 AM 10.79 51.422 0.051 6.89 5.32 10.39
10/31/2021 9:00:00 AM 10.8 51.44 0.051 6.89 5.22 10.41
10/31/2021 9:15:00 AM 10.81 51.458 0.051 6.9 5.25 10.45
10/31/2021 9:30:00 AM 10.82 51.476 0.051 6.91 5.13 10.49
10/31/2021 9:45:00 AM 10.83 51.494 0.051 6.92 5.05 10.51
10/31/2021 10:00:00 AM 10.85 51.53 0.051 6.94 4.72 10.55
10/31/2021 10:15:00 AM 10.87 51.566 0.051 6.94 5.03 10.56
10/31/2021 10:30:00 AM 10.88 51.584 0.051 6.96 4.52 10.58
10/31/2021 10:45:00 AM 10.91 51.638 0.051 6.96 4.53 10.6
10/31/2021 11:00:00 AM 10.94 51.692 0.051 6.98 4.5 10.62
10/31/2021 11:15:00 AM 10.96 51.728 0.051 6.99 4.32 10.63
10/31/2021 11:30:00 AM 10.98 51.764 0.051 6.99 4.57 10.62
10/31/2021 11:45:00 AM 10.99 51.782 0.051 6.99 4.44 10.6
10/31/2021 12:00:00 PM 11 51.8 0.051 6.98 4.24 10.6
10/31/2021 12:15:00 PM 11.02 51.836 0.051 6.99 4.35 10.61
10/31/2021 12:30:00 PM 11.02 51.836 0.051 6.99 4.28 10.6
10/31/2021 12:45:00 PM 11.04 51.872 0.051 6.99 4.38 10.61
10/31/2021 1:00:00 PM 11.04 51.872 0.051 7 4.45 10.6
10/31/2021 1:15:00 PM 11.08 51.944 0.051 7.01 4.16 10.62
10/31/2021 1:30:00 PM 11.13 52.034 0.051 7.01 4.3 10.65
10/31/2021 1:45:00 PM 11.15 52.07 0.051 7.01 4.31 10.66
10/31/2021 2:00:00 PM 11.16 52.088 0.051 7.02 4.26 10.64
10/31/2021 2:15:00 PM 11.17 52.106 0.051 7.01 4.54 10.63
10/31/2021 2:30:00 PM 11.21 52.178 0.051 7.01 4.38 10.64
10/31/2021 2:45:00 PM 11.23 52.214 0.051 7.02 4.51 10.65
10/31/2021 3:00:00 PM 11.27 52.286 0.051 7.03 4.79 10.66
10/31/2021 3:15:00 PM 11.3 52.34 0.051 7.05 4.56 10.66
10/31/2021 3:30:00 PM 11.35 52.43 0.05 7.05 4.62 10.66
10/31/2021 3:45:00 PM 11.37 52.466 0.051 7.05 4.7 10.64
10/31/2021 4:00:00 PM 11.38 52.484 0.05 7.05 4.58 10.62
10/31/2021 4:15:00 PM 11.37 52.466 0.051 7.04 4.48 10.58
10/31/2021 4:30:00 PM 11.38 52.484 0.051 7.03 4.48 10.56
10/31/2021 4:45:00 PM 11.39 52.502 0.051 7.03 4.47 10.57
10/31/2021 5:00:00 PM 11.38 52.484 0.051 7.03 4.51 10.56
10/31/2021 5:15:00 PM 11.36 52.448 0.051 7.02 4.51 10.52
10/31/2021 5:30:00 PM 11.34 52.412 0.051 6.99 4.5 10.49
10/31/2021 5:45:00 PM 11.31 52.358 0.051 6.99 4.48 10.46
10/31/2021 6:00:00 PM 11.27 52.286 0.051 6.97 4.46 10.43
10/31/2021 6:15:00 PM 11.23 52.214 0.051 6.96 4.47 10.39
10/31/2021 6:30:00 PM 11.19 52.142 0.051 6.95 4.57 10.38
10/31/2021 6:45:00 PM 11.14 52.052 0.051 6.94 4.97 10.36
10/31/2021 7:00:00 PM 11.09 51.962 0.051 6.92 4.96 10.36
10/31/2021 7:15:00 PM 11.03 51.854 0.051 6.91 4.83 10.36
10/31/2021 7:30:00 PM 10.98 51.764 0.051 6.9 4.92 10.36
10/31/2021 7:45:00 PM 10.93 51.674 0.051 6.9 4.86 10.37
10/31/2021 8:00:00 PM 10.87 51.566 0.051 6.91 4.95 10.38
10/31/2021 8:15:00 PM 10.82 51.476 0.051 6.9 4.89 10.39
10/31/2021 8:30:00 PM 10.77 51.386 0.051 6.89 5.22 10.4
10/31/2021 8:45:00 PM 10.71 51.278 0.051 6.89 4.93 10.42
10/31/2021 9:00:00 PM 10.66 51.188 0.051 6.89 4.93 10.43
10/31/2021 9:15:00 PM 10.62 51.116 0.051 6.89 5.06 10.45
10/31/2021 9:30:00 PM 10.57 51.026 0.051 6.89 4.93 10.46
10/31/2021 9:45:00 PM 10.52 50.936 0.051 6.89 5.12 10.47
10/31/2021 10:00:00 PM 10.49 50.882 0.051 6.88 4.79 10.49
10/31/2021 10:15:00 PM 10.46 50.828 0.051 6.88 5.02 10.5
10/31/2021 10:30:00 PM 10.44 50.792 0.051 6.89 4.88 10.51
10/31/2021 10:45:00 PM 10.42 50.756 0.051 6.89 5.06 10.52
10/31/2021 11:00:00 PM 10.4 50.72 0.051 6.9 4.63 10.52
10/31/2021 11:15:00 PM 10.37 50.666 0.051 6.89 4.79 10.53
10/31/2021 11:30:00 PM 10.35 50.63 0.051 6.89 4.86 10.54
10/31/2021 11:45:00 PM 10.34 50.612 0.051 6.89 4.68 10.54
11/1/2021 12:00:00 AM 10.32 50.576 0.051 6.89 5.22 10.55
11/1/2021 12:15:00 AM 10.32 50.576 0.051 6.89 4.67 10.56
11/1/2021 12:30:00 AM 10.31 50.558 0.051 6.89 4.66 10.56
11/1/2021 12:45:00 AM 10.3 50.54 0.051 6.88 4.41 10.56
11/1/2021 1:00:00 AM 10.29 50.522 0.051 6.89 4.67 10.57
11/1/2021 1:15:00 AM 10.29 50.522 0.051 6.89 4.44 10.56
11/1/2021 1:30:00 AM 10.29 50.522 0.051 6.88 4.57 10.56
11/1/2021 1:45:00 AM 10.29 50.522 0.051 6.88 4.47 10.57
11/1/2021 2:00:00 AM 10.29 50.522 0.051 6.89 4.63 10.56
11/1/2021 2:15:00 AM 10.29 50.522 0.051 6.89 4.54 10.57
11/1/2021 2:30:00 AM 10.29 50.522 0.051 6.9 4.5 10.57
11/1/2021 2:45:00 AM 10.28 50.504 0.051 6.89 4.5 10.58
11/1/2021 3:00:00 AM 10.27 50.486 0.051 6.89 4.55 10.58
11/1/2021 3:15:00 AM 10.26 50.468 0.051 6.89 4.56 10.58
11/1/2021 3:30:00 AM 10.25 50.45 0.051 6.89 4.61 10.59
11/1/2021 3:45:00 AM 10.23 50.414 0.051 6.89 4.37 10.59
11/1/2021 4:00:00 AM 10.21 50.378 0.051 6.89 4.3 10.6
11/1/2021 4:15:00 AM 10.19 50.342 0.051 6.9 4.24 10.6
11/1/2021 4:30:00 AM 10.16 50.288 0.051 6.9 4.52 10.62
11/1/2021 4:45:00 AM 10.13 50.234 0.051 6.9 4.24 10.63
11/1/2021 5:00:00 AM 10.11 50.198 0.051 6.89 4.24 10.63
11/1/2021 5:15:00 AM 10.08 50.144 0.051 6.9 4.31 10.64
11/1/2021 5:30:00 AM 10.04 50.072 0.051 6.89 4.47 10.65
11/1/2021 5:45:00 AM 10.01 50.018 0.051 6.9 4.4 10.66
11/1/2021 6:00:00 AM 9.98 49.964 0.051 6.9 4.23 10.68
11/1/2021 6:15:00 AM 9.93 49.874 0.051 6.9 4.11 10.69
11/1/2021 6:30:00 AM 9.88 49.784 0.051 6.89 4.35 10.71
11/1/2021 6:45:00 AM 9.83 49.694 0.051 6.9 4.38 10.72
11/1/2021 7:00:00 AM 9.77 49.586 0.051 6.89 4.08 10.74
11/1/2021 7:15:00 AM 9.72 49.496 0.051 6.89 4.15 10.75
11/1/2021 7:30:00 AM 9.66 49.388 0.051 6.89 4.1 10.77
11/1/2021 7:45:00 AM 9.61 49.298 0.051 6.89 4.17 10.79
11/1/2021 8:00:00 AM 9.55 49.19 0.051 6.88 4.17 10.81
11/1/2021 8:15:00 AM 9.5 49.1 0.051 6.89 4.02 10.85
11/1/2021 8:30:00 AM 9.45 49.01 0.051 6.9 3.96 10.88
11/1/2021 8:45:00 AM 9.4 48.92 0.051 6.9 3.95 10.92
11/1/2021 9:00:00 AM 9.38 48.884 0.051 6.92 3.91 10.98
11/1/2021 9:15:00 AM 9.34 48.812 0.051 6.92 3.94 11.02
11/1/2021 9:30:00 AM 9.32 48.776 0.051 6.93 3.72 11.06
11/1/2021 9:45:00 AM 9.33 48.794 0.051 6.94 3.71 11.11
11/1/2021 10:00:00 AM 9.33 48.794 0.051 6.95 3.82 11.14
11/1/2021 10:15:00 AM 9.34 48.812 0.051 6.96 3.65 11.18
11/1/2021 10:30:00 AM 9.38 48.884 0.051 6.97 3.5 11.21
11/1/2021 10:45:00 AM 9.4 48.92 0.051 6.98 3.6 11.24
11/1/2021 11:00:00 AM 9.42 48.956 0.051 6.99 3.34 11.27
11/1/2021 11:15:00 AM 9.45 49.01 0.051 7.01 3.34 11.28
11/1/2021 11:30:00 AM 9.46 49.028 0.051 7.02 3.44 11.29
11/1/2021 11:45:00 AM 9.53 49.154 0.051 7.03 3.48 11.31
11/1/2021 12:00:00 PM 9.62 49.316 0.051 7.04 3.6 11.32
11/1/2021 12:15:00 PM 9.73 49.514 0.051 7.05 3.4 11.31
11/1/2021 12:30:00 PM 9.84 49.712 0.051 7.06 3.38 11.3
11/1/2021 12:45:00 PM 9.93 49.874 0.051 7.06 3.37 11.28
11/1/2021 1:00:00 PM 10.08 50.144 0.051 7.07 3.23 11.27
11/1/2021 1:15:00 PM 10.07 50.126 0.051 7.06 3.19 11.24
11/1/2021 1:30:00 PM 10.04 50.072 0.051 7.06 3.27 11.22
11/1/2021 1:45:00 PM 10.08 50.144 0.051 7.07 3.29 11.22
11/1/2021 2:00:00 PM 10.17 50.306 0.051 7.07 3.37 11.22
11/1/2021 2:15:00 PM 10.24 50.432 0.051 7.08 3.34 11.2
11/1/2021 2:30:00 PM 10.27 50.486 0.051 7.08 3.25 11.17
11/1/2021 2:45:00 PM 10.37 50.666 0.051 7.09 3.26 11.16
11/1/2021 3:00:00 PM 10.38 50.684 0.051 7.08 3.22 11.14
11/1/2021 3:15:00 PM 10.37 50.666 0.051 7.07 3.1 11.12
11/1/2021 3:30:00 PM 10.35 50.63 0.051 7.07 3.31 11.11
11/1/2021 3:45:00 PM 10.34 50.612 0.051 7.07 3.39 11.11
11/1/2021 4:00:00 PM 10.29 50.522 0.051 7.07 3.4 11.08
11/1/2021 4:15:00 PM 10.23 50.414 0.051 7.06 3.27 11.05
11/1/2021 4:30:00 PM 10.17 50.306 0.051 7.04 3.46 11.02
11/1/2021 4:45:00 PM 10.14 50.252 0.051 7.04 3.39 11.01
11/1/2021 5:00:00 PM 10.11 50.198 0.051 7.03 3.38 11.01
11/1/2021 5:15:00 PM 10.05 50.09 0.051 7.02 3.56 10.98
11/1/2021 5:30:00 PM 9.99 49.982 0.051 7.01 3.62 10.97
11/1/2021 5:45:00 PM 9.92 49.856 0.051 7 3.49 10.95
11/1/2021 6:00:00 PM 9.85 49.73 0.051 6.99 3.4 10.93
11/1/2021 6:15:00 PM 9.79 49.622 0.051 6.97 3.51 10.9
11/1/2021 6:30:00 PM 9.72 49.496 0.051 6.96 3.59 10.88
11/1/2021 6:45:00 PM 9.65 49.37 0.051 6.95 3.76 10.87
11/1/2021 7:00:00 PM 9.58 49.244 0.052 6.94 3.52 10.87
11/1/2021 7:15:00 PM 9.51 49.118 0.052 6.93 3.77 10.87
11/1/2021 7:30:00 PM 9.45 49.01 0.052 6.93 3.67 10.88
11/1/2021 7:45:00 PM 9.4 48.92 0.052 6.92 3.71 10.89
11/1/2021 8:00:00 PM 9.34 48.812 0.052 6.92 3.96 10.9
11/1/2021 8:15:00 PM 9.3 48.74 0.052 6.91 3.92 10.91
11/1/2021 8:30:00 PM 9.26 48.668 0.052 6.91 3.85 10.92
11/1/2021 8:45:00 PM 9.21 48.578 0.052 6.91 3.86 10.93
11/1/2021 9:00:00 PM 9.15 48.47 0.052 6.91 3.82 10.95
11/1/2021 9:15:00 PM 9.1 48.38 0.052 6.9 3.77 10.96
11/1/2021 9:30:00 PM 9.04 48.272 0.052 6.9 3.73 10.98
11/1/2021 9:45:00 PM 8.98 48.164 0.052 6.85 3.93 11
11/1/2021 10:00:00 PM 8.92 48.056 0.052 6.82 3.86 11.01
11/1/2021 10:15:00 PM 8.86 47.948 0.052 6.84 3.67 11.02
11/1/2021 10:30:00 PM 8.81 47.858 0.052 6.86 3.61 11.04
11/1/2021 10:45:00 PM 8.76 47.768 0.052 6.86 3.81 11.05
11/1/2021 11:00:00 PM 8.72 47.696 0.052 6.86 3.62 11.06
11/1/2021 11:15:00 PM 8.68 47.624 0.052 6.87 3.68 11.08
11/1/2021 11:30:00 PM 8.64 47.552 0.052 6.86 3.64 11.09
11/1/2021 11:45:00 PM 8.61 47.498 0.052 6.86 3.72 11.1
11/2/2021 12:00:00 AM 8.57 47.426 0.052 6.87 3.61 11.12
11/2/2021 12:15:00 AM 8.54 47.372 0.052 6.87 3.64 11.13
11/2/2021 12:30:00 AM 8.5 47.3 0.052 6.87 3.43 11.13
11/2/2021 12:45:00 AM 8.47 47.246 0.052 6.87 3.53 11.14
11/2/2021 1:00:00 AM 8.43 47.174 0.052 6.87 3.72 11.15
11/2/2021 1:15:00 AM 8.4 47.12 0.052 6.86 3.56 11.16
11/2/2021 1:30:00 AM 8.37 47.066 0.052 6.87 3.48 11.17
11/2/2021 1:45:00 AM 8.34 47.012 0.052 6.87 3.55 11.18
11/2/2021 2:00:00 AM 8.31 46.958 0.052 6.86 3.39 11.19
11/2/2021 2:15:00 AM 8.27 46.886 0.052 6.87 3.37 11.2
11/2/2021 2:30:00 AM 8.24 46.832 0.052 6.87 3.32 11.21
11/2/2021 2:45:00 AM 8.22 46.796 0.052 6.86 3.4 11.22
11/2/2021 3:00:00 AM 8.19 46.742 0.052 6.87 3.34 11.23
11/2/2021 3:15:00 AM 8.16 46.688 0.052 6.87 3.5 11.24
11/2/2021 3:30:00 AM 8.14 46.652 0.052 6.87 3.33 11.24
11/2/2021 3:45:00 AM 8.12 46.616 0.052 6.87 3.36 11.25
11/2/2021 4:00:00 AM 8.1 46.58 0.052 6.87 3.25 11.25
11/2/2021 4:15:00 AM 8.07 46.526 0.052 6.86 3.24 11.26
11/2/2021 4:30:00 AM 8.05 46.49 0.052 6.86 3.26 11.27
11/2/2021 4:45:00 AM 8.02 46.436 0.052 6.87 3.37 11.28
11/2/2021 5:00:00 AM 7.98 46.364 0.052 6.86 3.23 11.29
11/2/2021 5:15:00 AM 7.95 46.31 0.052 6.86 3.18 11.3
11/2/2021 5:30:00 AM 7.91 46.238 0.052 6.85 3.31 11.3
11/2/2021 5:45:00 AM 7.87 46.166 0.052 6.86 3.19 11.31
11/2/2021 6:00:00 AM 7.84 46.112 0.052 6.86 3.15 11.33
11/2/2021 6:15:00 AM 7.8 46.04 0.052 6.86 3.03 11.34
11/2/2021 6:30:00 AM 7.77 45.986 0.052 6.86 3.15 11.35
11/2/2021 6:45:00 AM 7.73 45.914 0.052 6.85 3.08 11.36
11/2/2021 7:00:00 AM 7.69 45.842 0.052 6.87 3.15 11.36
11/2/2021 7:15:00 AM 7.66 45.788 0.052 6.85 3.11 11.38
11/2/2021 7:30:00 AM 7.64 45.752 0.052 6.87 3.01 11.38
11/2/2021 7:45:00 AM 7.61 45.698 0.052 6.86 3.08 11.4
11/2/2021 8:00:00 AM 7.58 45.644 0.052 6.85 2.96 11.41
11/2/2021 8:15:00 AM 7.56 45.608 0.052 6.87 2.9 11.44
11/2/2021 8:30:00 AM 7.53 45.554 0.052 6.86 3.14 11.48
11/2/2021 8:45:00 AM 7.52 45.536 0.052 6.88 2.92 11.54
11/2/2021 9:00:00 AM 7.5 45.5 0.052 6.89 2.86 11.59
11/2/2021 9:15:00 AM 7.5 45.5 0.052 6.91 2.81 11.64
11/2/2021 9:30:00 AM 7.49 45.482 0.052 6.93 2.84 11.68
11/2/2021 9:45:00 AM 7.51 45.518 0.052 6.95 2.76 11.74
11/2/2021 10:00:00 AM 7.54 45.572 0.052 6.97 2.71 11.79
11/2/2021 10:15:00 AM 7.57 45.626 0.052 6.98 2.81 11.82
11/2/2021 10:30:00 AM 7.59 45.662 0.052 6.99 2.59 11.83
11/2/2021 10:45:00 AM 7.66 45.788 0.052 7.01 2.57 11.86
11/2/2021 11:00:00 AM 7.73 45.914 0.052 7.02 2.55 11.86
11/2/2021 11:15:00 AM 7.83 46.094 0.052 7.03 2.59 11.87
11/2/2021 11:30:00 AM 7.97 46.346 0.052 7.04 2.43 11.85
11/2/2021 11:45:00 AM 7.98 46.364 0.051 7.05 2.72 11.81
11/2/2021 12:00:00 PM 8 46.4 0.051 7.05 2.43 11.8
11/2/2021 12:15:00 PM 7.99 46.382 0.051 7.05 2.38 11.8
11/2/2021 12:30:00 PM 8.04 46.472 0.051 7.06 2.47 11.8
11/2/2021 12:45:00 PM 8.18 46.724 0.051 7.08 2.44 11.8
11/2/2021 1:00:00 PM 8.37 47.066 0.051 7.09 2.46 11.78
11/2/2021 1:15:00 PM 8.47 47.246 0.051 7.09 2.43 11.75
11/2/2021 1:30:00 PM 8.49 47.282 0.051 7.09 2.3 11.71
11/2/2021 1:45:00 PM 8.59 47.462 0.051 7.09 2.43 11.69
11/2/2021 2:00:00 PM 8.71 47.678 0.051 7.1 2.49 11.66
11/2/2021 2:15:00 PM 8.76 47.768 0.051 7.1 2.51 11.62
11/2/2021 2:30:00 PM 8.73 47.714 0.051 7.09 2.43 11.56
11/2/2021 2:45:00 PM 8.79 47.822 0.051 7.09 2.53 11.55
11/2/2021 3:00:00 PM 8.86 47.948 0.051 7.1 2.51 11.54
11/2/2021 3:15:00 PM 8.92 48.056 0.051 7.1 2.57 11.55
11/2/2021 3:30:00 PM 8.96 48.128 0.051 7.11 2.46 11.56
11/2/2021 3:45:00 PM 8.97 48.146 0.051 7.12 2.58 11.53
11/2/2021 4:00:00 PM 8.96 48.128 0.051 7.11 2.49 11.53
11/2/2021 4:15:00 PM 8.95 48.11 0.051 7.11 2.58 11.53
11/2/2021 4:30:00 PM 8.95 48.11 0.051 7.11 2.49 11.51
11/2/2021 4:45:00 PM 8.91 48.038 0.051 7.09 2.68 11.47
11/2/2021 5:00:00 PM 8.86 47.948 0.051 7.09 2.66 11.44
11/2/2021 5:15:00 PM 8.83 47.894 0.052 7.08 2.64 11.4
11/2/2021 5:30:00 PM 8.79 47.822 0.052 7.06 2.53 11.37
11/2/2021 5:45:00 PM 8.74 47.732 0.052 7.04 2.71 11.32
11/2/2021 6:00:00 PM 8.68 47.624 0.052 7.03 2.47 11.29
11/2/2021 6:15:00 PM 8.63 47.534 0.052 7.01 2.74 11.25
11/2/2021 6:30:00 PM 8.59 47.462 0.052 7 2.72 11.23
11/2/2021 6:45:00 PM 8.55 47.39 0.052 6.99 2.94 11.21
11/2/2021 7:00:00 PM 8.5 47.3 0.052 6.98 2.96 11.2
11/2/2021 7:15:00 PM 8.46 47.228 0.052 6.97 2.81 11.19
11/2/2021 7:30:00 PM 8.42 47.156 0.052 6.97 2.84 11.2
11/2/2021 7:45:00 PM 8.38 47.084 0.052 6.96 3.78 11.2
11/2/2021 8:00:00 PM 8.34 47.012 0.052 6.96 3.1 11.21
11/2/2021 8:15:00 PM 8.3 46.94 0.052 6.95 3.97 11.21
11/2/2021 8:30:00 PM 8.27 46.886 0.052 6.94 3.04 11.22
11/2/2021 8:45:00 PM 8.23 46.814 0.052 6.95 2.94 11.23
11/2/2021 9:00:00 PM 8.18 46.724 0.052 6.94 3.17 11.23
11/2/2021 9:15:00 PM 8.13 46.634 0.052 6.94 3.03 11.25
11/2/2021 9:30:00 PM 8.08 46.544 0.052 6.93 3.11 11.26
11/2/2021 9:45:00 PM 8.03 46.454 0.053 6.93 3.01 11.27
11/2/2021 10:00:00 PM 7.97 46.346 0.053 6.93 2.98 11.29
11/2/2021 10:15:00 PM 7.92 46.256 0.053 6.93 3.04 11.3
11/2/2021 10:30:00 PM 7.89 46.202 0.053 6.93 3.11 11.31
11/2/2021 10:45:00 PM 7.85 46.13 0.053 6.93 3 11.32
11/2/2021 11:00:00 PM 7.81 46.058 0.053 6.93 3.02 11.34
11/2/2021 11:15:00 PM 7.76 45.968 0.053 6.93 3 11.35
11/2/2021 11:30:00 PM 7.7 45.86 0.053 6.93 2.97 11.37
11/2/2021 11:45:00 PM 7.65 45.77 0.053 6.92 2.93 11.38
11/3/2021 12:00:00 AM 7.61 45.698 0.053 6.92 3.04 11.4
11/3/2021 12:15:00 AM 7.57 45.626 0.053 6.92 3.17 11.41
11/3/2021 12:30:00 AM 7.53 45.554 0.053 6.92 3.04 11.42
11/3/2021 12:45:00 AM 7.5 45.5 0.053 6.92 2.85 11.43
11/3/2021 1:00:00 AM 7.47 45.446 0.053 6.92 3.16 11.44
11/3/2021 1:15:00 AM 7.44 45.392 0.053 6.92 3.02 11.45
11/3/2021 1:30:00 AM 7.42 45.356 0.053 6.92 2.87 11.47
11/3/2021 1:45:00 AM 7.38 45.284 0.053 6.92 3.02 11.48
11/3/2021 2:00:00 AM 7.35 45.23 0.053 6.92 2.79 11.49
11/3/2021 2:15:00 AM 7.32 45.176 0.053 6.92 2.91 11.49
11/3/2021 2:30:00 AM 7.3 45.14 0.053 6.92 2.83 11.5
11/3/2021 2:45:00 AM 7.28 45.104 0.053 6.92 2.86 11.51
11/3/2021 3:00:00 AM 7.26 45.068 0.053 6.92 2.76 11.51
11/3/2021 3:15:00 AM 7.24 45.032 0.053 6.91 2.75 11.52
11/3/2021 3:30:00 AM 7.23 45.014 0.053 6.91 2.97 11.53
11/3/2021 3:45:00 AM 7.22 44.996 0.053 6.92 2.78 11.53
11/3/2021 4:00:00 AM 7.21 44.978 0.053 6.92 2.79 11.54
11/3/2021 4:15:00 AM 7.2 44.96 0.053 6.92 2.78 11.54
11/3/2021 4:30:00 AM 7.19 44.942 0.053 6.92 2.68 11.55
11/3/2021 4:45:00 AM 7.18 44.924 0.053 6.92 2.62 11.55
11/3/2021 5:00:00 AM 7.17 44.906 0.053 6.92 2.76 11.55
11/3/2021 5:15:00 AM 7.16 44.888 0.053 6.92 2.85 11.55
11/3/2021 5:30:00 AM 7.14 44.852 0.053 6.92 2.67 11.56
11/3/2021 5:45:00 AM 7.13 44.834 0.053 6.92 2.59 11.56
11/3/2021 6:00:00 AM 7.12 44.816 0.053 6.96 75.97 11.56
11/3/2021 6:15:00 AM 7.09 44.762 0.053 6.91 2.58 11.57
11/3/2021 6:30:00 AM 7.08 44.744 0.053 6.92 5.52 11.58
11/3/2021 6:45:00 AM 7.05 44.69 0.053 6.91 5.18 11.58
11/3/2021 7:00:00 AM 7.01 44.618 0.053 6.92 5.62 11.6
11/3/2021 7:15:00 AM 6.98 44.564 0.053 6.92 5.06 11.6
11/3/2021 7:30:00 AM 6.94 44.492 0.053 6.91 4.56 11.61
11/3/2021 7:45:00 AM 6.9 44.42 0.053 6.92 4.6 11.63
11/3/2021 8:00:00 AM 6.86 44.348 0.053 6.92 5.35 11.65
11/3/2021 8:15:00 AM 6.82 44.276 0.053 6.92 4.65 11.68
11/3/2021 8:30:00 AM 6.79 44.222 0.053 6.93 4.62 11.73
11/3/2021 8:45:00 AM 6.78 44.204 0.052 6.94 4.82 11.79
11/3/2021 9:00:00 AM 6.79 44.222 0.052 6.95 4.64 11.84
11/3/2021 9:15:00 AM 6.8 44.24 0.052 6.97 4.51 11.91
11/3/2021 9:30:00 AM 6.82 44.276 0.052 6.98 4.73 11.95
11/3/2021 9:45:00 AM 6.84 44.312 0.052 6.99 5.46 11.98
11/3/2021 10:00:00 AM 6.88 44.384 0.052 7 4.78 12.03
11/3/2021 10:15:00 AM 6.91 44.438 0.052 7.02 4.71 12.06
11/3/2021 10:30:00 AM 6.95 44.51 0.052 7.03 4.9 12.08
11/3/2021 10:45:00 AM 7 44.6 0.052 7.04 5.8 12.1
11/3/2021 11:00:00 AM 7.05 44.69 0.052 7.05 6.55 12.11
11/3/2021 11:15:00 AM 7.09 44.762 0.052 7.06 3.04 12.1
11/3/2021 11:30:00 AM 7.11 44.798 0.052 7.06 3.9 12.09
11/3/2021 11:45:00 AM 7.17 44.906 0.049 7.07 2.29 12.11
11/3/2021 12:00:00 PM 7.21 44.978 0.052 7.08 16.33 12.11
11/3/2021 12:15:00 PM 7.29 45.122 0.052 7.09 4.5 12.12
11/3/2021 12:30:00 PM 7.37 45.266 0.052 7.09 3.9 12.12
11/3/2021 12:45:00 PM 7.52 45.536 0.052 7.11 4.07 12.11
11/3/2021 1:00:00 PM 7.54 45.572 0.052 7.11 3.82 12.07
11/3/2021 1:15:00 PM 7.6 45.68 0.052 7.1 4.08 12.05
11/3/2021 1:30:00 PM 7.62 45.716 0.052 7.11 4.5 12.01
11/3/2021 1:45:00 PM 7.72 45.896 0.052 7.11 4.02 11.99
11/3/2021 2:00:00 PM 7.74 45.932 0.052 7.1 5.43 11.95
11/3/2021 2:15:00 PM 7.75 45.95 0.052 7.1 5.61 11.94
11/3/2021 2:30:00 PM 7.78 46.004 0.052 7.1 4.11 11.91
11/3/2021 2:45:00 PM 7.78 46.004 0.052 7.09 3.41 11.87
11/3/2021 3:00:00 PM 7.8 46.04 0.052 7.1 3.85 11.88
11/3/2021 3:15:00 PM 7.82 46.076 0.052 7.1 4.84 11.87
11/3/2021 3:30:00 PM 7.83 46.094 0.052 7.1 5.74 11.85
11/3/2021 3:45:00 PM 7.86 46.148 0.052 7.1 18.55 11.85
11/3/2021 4:00:00 PM 7.91 46.238 0.052 7.11 19.21 11.87
11/3/2021 4:15:00 PM 7.92 46.256 0.052 7.12 3.24 11.85
11/3/2021 4:30:00 PM 7.93 46.274 0.052 7.11 3.02 11.82
11/3/2021 4:45:00 PM 7.91 46.238 0.052 7.09 2.23 11.74
11/3/2021 5:00:00 PM 7.88 46.184 0.052 7.07 2.11 11.68
11/3/2021 5:15:00 PM 7.88 46.184 0.052 7.06 2.8 11.66
11/3/2021 5:30:00 PM 7.87 46.166 0.052 7.05 3.71 11.63
11/3/2021 5:45:00 PM 7.85 46.13 0.052 7.04 3.48 11.6
11/3/2021 6:00:00 PM 7.83 46.094 0.052 7.03 3.5 11.56
11/3/2021 6:15:00 PM 7.79 46.022 0.052 7.02 3.48 11.53
11/3/2021 6:30:00 PM 7.77 45.986 0.052 7.01 3.77 11.49
11/3/2021 6:45:00 PM 7.74 45.932 0.052 6.99 3.63 11.47
11/3/2021 7:00:00 PM 7.71 45.878 0.052 6.99 3.4 11.46
11/3/2021 7:15:00 PM 7.68 45.824 0.052 6.98 4.17 11.45
11/3/2021 7:30:00 PM 7.64 45.752 0.053 6.97 4.03 11.46
11/3/2021 7:45:00 PM 7.61 45.698 0.053 6.96 3.81 11.46
11/3/2021 8:00:00 PM 7.58 45.644 0.053 6.96 3.45 11.46
11/3/2021 8:15:00 PM 7.54 45.572 0.053 6.96 3.71 11.48
11/3/2021 8:30:00 PM 7.51 45.518 0.053 6.95 3.79 11.47
11/3/2021 8:45:00 PM 7.48 45.464 0.053 6.95 3.66 11.48
11/3/2021 9:00:00 PM 7.45 45.41 0.053 6.95 3.58 11.49
11/3/2021 9:15:00 PM 7.41 45.338 0.053 6.95 3.44 11.5
11/3/2021 9:30:00 PM 7.37 45.266 0.053 6.95 3.7 11.52
11/3/2021 9:45:00 PM 7.33 45.194 0.053 6.94 3.35 11.53
11/3/2021 10:00:00 PM 7.29 45.122 0.053 6.94 3.69 11.53
11/3/2021 10:15:00 PM 7.24 45.032 0.053 6.94 3.81 11.55
11/3/2021 10:30:00 PM 7.19 44.942 0.053 6.94 3.79 11.56
11/3/2021 10:45:00 PM 7.16 44.888 0.053 6.94 3.84 11.57
11/3/2021 11:00:00 PM 7.13 44.834 0.053 6.94 3.6 11.58
11/3/2021 11:15:00 PM 7.1 44.78 0.053 6.94 3.85 11.6
11/3/2021 11:30:00 PM 7.07 44.726 0.053 6.94 3.42 11.61
11/3/2021 11:45:00 PM 7.04 44.672 0.053 6.94 3.71 11.62
11/4/2021 12:00:00 AM 7.02 44.636 0.053 6.94 3.77 11.63
11/4/2021 12:15:00 AM 6.99 44.582 0.053 6.94 3.75 11.64
11/4/2021 12:30:00 AM 6.97 44.546 0.053 6.93 4.02 11.64
11/4/2021 12:45:00 AM 6.94 44.492 0.053 6.93 3.98 11.65
11/4/2021 1:00:00 AM 6.92 44.456 0.053 6.94 3.61 11.66
11/4/2021 1:15:00 AM 6.89 44.402 0.053 6.93 3.85 11.66
11/4/2021 1:30:00 AM 6.85 44.33 0.053 6.93 4.07 11.67
11/4/2021 1:45:00 AM 6.81 44.258 0.053 6.93 3.68 11.69
11/4/2021 2:00:00 AM 6.77 44.186 0.053 6.93 3.94 11.7
11/4/2021 2:15:00 AM 6.73 44.114 0.053 6.93 3.73 11.7
11/4/2021 2:30:00 AM 6.69 44.042 0.053 6.93 3.75 11.72
11/4/2021 2:45:00 AM 6.66 43.988 0.053 6.93 3.75 11.73
11/4/2021 3:00:00 AM 6.62 43.916 0.053 6.93 3.6 11.75
11/4/2021 3:15:00 AM 6.59 43.862 0.053 6.93 3.6 11.76
11/4/2021 3:30:00 AM 6.55 43.79 0.053 6.93 3.38 11.77
11/4/2021 3:45:00 AM 6.52 43.736 0.053 6.92 3.62 11.78
11/4/2021 4:00:00 AM 6.48 43.664 0.053 6.92 3.67 11.79
11/4/2021 4:15:00 AM 6.45 43.61 0.053 6.92 3.59 11.8
11/4/2021 4:30:00 AM 6.43 43.574 0.053 6.92 3.79 11.81
11/4/2021 4:45:00 AM 6.4 43.52 0.053 6.92 3.65 11.82
11/4/2021 5:00:00 AM 6.38 43.484 0.053 6.92 3.63 11.83
11/4/2021 5:15:00 AM 6.36 43.448 0.053 6.92 3.36 11.84
11/4/2021 5:30:00 AM 6.33 43.394 0.053 6.92 3.82 11.85
11/4/2021 5:45:00 AM 6.29 43.322 0.053 6.92 3.7 11.86
11/4/2021 6:00:00 AM 6.26 43.268 0.053 6.86 3.94 11.86
11/4/2021 6:15:00 AM 6.24 43.232 0.053 6.86 3.59 11.86
11/4/2021 6:30:00 AM 6.21 43.178 0.053 6.88 3.52 11.88
11/4/2021 6:45:00 AM 6.19 43.142 0.053 6.88 3.71 11.89
11/4/2021 7:00:00 AM 6.17 43.106 0.053 6.89 4.13 11.9
11/4/2021 7:15:00 AM 6.15 43.07 0.053 6.88 3.85 11.9
11/4/2021 7:30:00 AM 6.13 43.034 0.053 6.89 3.51 11.91
11/4/2021 7:45:00 AM 6.11 42.998 0.053 6.89 3.72 11.92
11/4/2021 8:00:00 AM 6.09 42.962 0.053 6.9 3.1 11.93
11/4/2021 8:15:00 AM 6.07 42.926 0.053 6.9 3.75 11.97
11/4/2021 8:30:00 AM 6.06 42.908 0.053 6.91 4 12
11/4/2021 8:45:00 AM 6.05 42.89 0.053 6.92 3.73 12.03
11/4/2021 9:00:00 AM 6.05 42.89 0.053 6.93 3.9 12.08
11/4/2021 9:15:00 AM 6.04 42.872 0.053 6.95 3.82 12.16
11/4/2021 9:30:00 AM 6.05 42.89 0.053 6.97 3.6 12.22
11/4/2021 9:45:00 AM 6.07 42.926 0.053 6.98 3.9 12.28
11/4/2021 10:00:00 AM 6.09 42.962 0.053 7 3.54 12.34
11/4/2021 10:15:00 AM 6.11 42.998 0.053 7.02 3.44 12.37
11/4/2021 10:30:00 AM 6.14 43.052 0.053 7.03 3.52 12.39
11/4/2021 10:45:00 AM 6.17 43.106 0.053 7.04 3.44 12.4
11/4/2021 11:00:00 AM 6.23 43.214 0.053 7.05 3.43 12.4
11/4/2021 11:15:00 AM 6.32 43.376 0.053 7.06 3.4 12.42
11/4/2021 11:30:00 AM 6.41 43.538 0.053 7.06 3.33 12.4
11/4/2021 11:45:00 AM 6.52 43.736 0.053 7.08 3.27 12.39
11/4/2021 12:00:00 PM 6.63 43.934 0.052 7.09 3.52 12.39
11/4/2021 12:15:00 PM 6.65 43.97 0.052 7.09 3.42 12.36
11/4/2021 12:30:00 PM 6.64 43.952 0.052 7.1 3.01 12.35
11/4/2021 12:45:00 PM 6.66 43.988 0.052 7.1 3.32 12.35
11/4/2021 1:00:00 PM 6.7 44.06 0.052 7.1 3.21 12.34
11/4/2021 1:15:00 PM 6.78 44.204 0.052 7.12 3.33 12.34
11/4/2021 1:30:00 PM 6.82 44.276 0.052 7.12 3.18 12.32
11/4/2021 1:45:00 PM 6.85 44.33 0.052 7.12 3.13 12.3
11/4/2021 2:00:00 PM 6.9 44.42 0.052 7.12 3.41 12.28
11/4/2021 2:15:00 PM 6.98 44.564 0.052 7.13 3.58 12.25
11/4/2021 2:30:00 PM 7.07 44.726 0.052 7.14 4.35 12.24
11/4/2021 2:45:00 PM 7.15 44.87 0.052 7.15 3.84 12.22
11/4/2021 3:00:00 PM 7.25 45.05 0.052 7.16 3.61 12.22
11/4/2021 3:15:00 PM 7.35 45.23 0.052 7.16 3.31 12.2
11/4/2021 3:30:00 PM 7.45 45.41 0.052 7.17 3.21 12.16
11/4/2021 3:45:00 PM 7.5 45.5 0.052 7.17 3.14 12.14
11/4/2021 4:00:00 PM 7.56 45.608 0.052 7.17 3.07 12.12
11/4/2021 4:15:00 PM 7.54 45.572 0.052 7.17 3.07 12.09
11/4/2021 4:30:00 PM 7.52 45.536 0.052 7.16 3.13 12.06
11/4/2021 4:45:00 PM 7.51 45.518 0.052 7.15 3.09 12.04
11/4/2021 5:00:00 PM 7.48 45.464 0.052 7.15 3.16 12.01
11/4/2021 5:15:00 PM 7.44 45.392 0.052 7.13 3.18 11.97
11/4/2021 5:30:00 PM 7.41 45.338 0.052 7.12 3.31 11.91
11/4/2021 5:45:00 PM 7.38 45.284 0.052 7.1 3.36 11.86
11/4/2021 6:00:00 PM 7.35 45.23 0.052 7.08 3.51 11.79
11/4/2021 6:15:00 PM 7.31 45.158 0.053 7.06 3.46 11.73
11/4/2021 6:30:00 PM 7.27 45.086 0.053 7.04 3.64 11.68
11/4/2021 6:45:00 PM 7.24 45.032 0.053 7.03 3.41 11.65
11/4/2021 7:00:00 PM 7.21 44.978 0.053 7.01 3.23 11.63
11/4/2021 7:15:00 PM 7.17 44.906 0.053 7 3.51 11.61
11/4/2021 7:30:00 PM 7.13 44.834 0.053 7 3.76 11.61
11/4/2021 7:45:00 PM 7.07 44.726 0.053 6.98 3.31 11.61
11/4/2021 8:00:00 PM 7.02 44.636 0.053 6.98 3.84 11.62
11/4/2021 8:15:00 PM 6.98 44.564 0.053 6.98 3.52 11.62
11/4/2021 8:30:00 PM 6.93 44.474 0.053 6.98 3.48 11.63
11/4/2021 8:45:00 PM 6.89 44.402 0.053 6.97 3.7 11.65
11/4/2021 9:00:00 PM 6.85 44.33 0.053 6.96 3.64 11.65
11/4/2021 9:15:00 PM 6.82 44.276 0.053 6.96 3.89 11.67
11/4/2021 9:30:00 PM 6.78 44.204 0.054 6.97 4.01 11.68
11/4/2021 9:45:00 PM 6.74 44.132 0.054 6.95 4.1 11.69
11/4/2021 10:00:00 PM 6.7 44.06 0.054 6.96 3.65 11.7
11/4/2021 10:15:00 PM 6.66 43.988 0.054 6.95 3.38 11.71
11/4/2021 10:30:00 PM 6.62 43.916 0.054 6.96 4.02 11.72
11/4/2021 10:45:00 PM 6.57 43.826 0.054 6.95 3.63 11.74
11/4/2021 11:00:00 PM 6.52 43.736 0.054 6.95 3.93 11.75
11/4/2021 11:15:00 PM 6.47 43.646 0.054 6.95 3.34 11.76
11/4/2021 11:30:00 PM 6.41 43.538 0.054 6.95 3.31 11.78
11/4/2021 11:45:00 PM 6.36 43.448 0.054 6.95 3.65 11.8
11/5/2021 12:00:00 AM 6.31 43.358 0.054 6.94 3.82 11.81
11/5/2021 12:15:00 AM 6.25 43.25 0.054 6.95 3.84 11.82
11/5/2021 12:30:00 AM 6.2 43.16 0.054 6.95 3.86 11.85
11/5/2021 12:45:00 AM 6.14 43.052 0.054 6.94 3.67 11.86
11/5/2021 1:00:00 AM 6.08 42.944 0.054 6.94 3.62 11.89
11/5/2021 1:15:00 AM 6.03 42.854 0.054 6.95 3.82 11.9
11/5/2021 1:30:00 AM 5.97 42.746 0.054 6.94 3.98 11.93
11/5/2021 1:45:00 AM 5.92 42.656 0.054 6.94 3.5 11.94
11/5/2021 2:00:00 AM 5.87 42.566 0.054 6.94 3.88 11.96
11/5/2021 2:15:00 AM 5.82 42.476 0.054 6.94 3.67 11.97
11/5/2021 2:30:00 AM 5.76 42.368 0.054 6.94 3.85 11.99
11/5/2021 2:45:00 AM 5.71 42.278 0.054 6.93 3.79 12.01
11/5/2021 3:00:00 AM 5.66 42.188 0.054 6.94 4.07 12.02
11/5/2021 3:15:00 AM 5.6 42.08 0.054 6.94 3.83 12.05
11/5/2021 3:30:00 AM 5.55 41.99 0.054 6.94 3.92 12.06
11/5/2021 3:45:00 AM 5.5 41.9 0.054 6.93 3.59 12.08
11/5/2021 4:00:00 AM 5.45 41.81 0.054 6.93 3.79 12.1
11/5/2021 4:15:00 AM 5.4 41.72 0.054 6.93 3.88 12.12
11/5/2021 4:30:00 AM 5.34 41.612 0.054 6.94 3.73 12.14
11/5/2021 4:45:00 AM 5.29 41.522 0.054 6.93 3.74 12.16
11/5/2021 5:00:00 AM 5.24 41.432 0.054 6.93 3.76 12.17
11/5/2021 5:15:00 AM 5.19 41.342 0.054 6.93 3.66 12.19
11/5/2021 5:30:00 AM 5.14 41.252 0.054 6.93 3.67 12.21
11/5/2021 5:45:00 AM 5.08 41.144 0.054 6.93 3.5 12.23
11/5/2021 6:00:00 AM 5.03 41.054 0.054 6.93 3.85 12.25
11/5/2021 6:15:00 AM 4.99 40.982 0.054 6.93 3.67 12.27
11/5/2021 6:30:00 AM 4.93 40.874 0.054 6.93 3.68 12.28
11/5/2021 6:45:00 AM 4.88 40.784 0.054 6.93 3.62 12.31
11/5/2021 7:00:00 AM 4.84 40.712 0.054 6.93 3.5 12.33
11/5/2021 7:15:00 AM 4.8 40.64 0.054 6.92 3.69 12.35
11/5/2021 7:30:00 AM 4.76 40.568 0.054 6.92 3.76 12.36
11/5/2021 7:45:00 AM 4.72 40.496 0.054 6.93 3.6 12.39
11/5/2021 8:00:00 AM 4.68 40.424 0.054 6.92 3.62 12.41
11/5/2021 8:15:00 AM 4.65 40.37 0.054 6.93 3.26 12.45
11/5/2021 8:30:00 AM 4.63 40.334 0.054 6.94 3.19 12.51
11/5/2021 8:45:00 AM 4.62 40.316 0.054 6.87 3.44 12.58
11/5/2021 9:00:00 AM 4.59 40.262 0.054 6.88 3.43 12.64
11/5/2021 9:15:00 AM 4.56 40.208 0.054 6.89 3.22 12.7
11/5/2021 9:30:00 AM 4.56 40.208 0.054 6.93 3.31 12.77
11/5/2021 9:45:00 AM 4.57 40.226 0.054 6.97 3.54 12.82
11/5/2021 10:00:00 AM 4.57 40.226 0.054 6.98 3.35 12.85
11/5/2021 10:15:00 AM 4.59 40.262 0.053 7 3.13 12.88
11/5/2021 10:30:00 AM 4.63 40.334 0.053 7.01 2.93 12.9
11/5/2021 10:45:00 AM 4.7 40.46 0.053 7.02 3.18 12.92
11/5/2021 11:00:00 AM 4.78 40.604 0.053 7.04 3.19 12.93
11/5/2021 11:15:00 AM 4.87 40.766 0.053 7.05 3.09 12.93
11/5/2021 11:30:00 AM 4.97 40.946 0.053 7.05 3.02 12.93
11/5/2021 11:45:00 AM 5.09 41.162 0.053 7.06 2.8 12.92
11/5/2021 12:00:00 PM 5.22 41.396 0.053 7.08 3.31 12.9
11/5/2021 12:15:00 PM 5.36 41.648 0.053 7.08 2.91 12.88
11/5/2021 12:30:00 PM 5.57 42.026 0.053 7.1 3.29 12.85
11/5/2021 12:45:00 PM 5.67 42.206 0.053 7.11 3.27 12.81
11/5/2021 1:00:00 PM 5.67 42.206 0.053 7.11 3.18 12.77
11/5/2021 1:15:00 PM 5.75 42.35 0.053 7.11 3.37 12.75
11/5/2021 1:30:00 PM 5.88 42.584 0.053 7.11 3.66 12.73
11/5/2021 1:45:00 PM 6.04 42.872 0.053 7.12 3.43 12.68
11/5/2021 2:00:00 PM 6.09 42.962 0.053 7.12 3.94 12.63
11/5/2021 2:15:00 PM 6.2 43.16 0.053 7.12 3.61 12.61
11/5/2021 2:30:00 PM 6.33 43.394 0.053 7.13 4.35 12.56
11/5/2021 2:45:00 PM 6.39 43.502 0.053 7.13 3.29 12.5
11/5/2021 3:00:00 PM 6.48 43.664 0.053 7.13 3.48 12.47
11/5/2021 3:15:00 PM 6.58 43.844 0.053 7.14 2.74 12.44
11/5/2021 3:30:00 PM 6.64 43.952 0.053 7.14 3.38 12.4
11/5/2021 3:45:00 PM 6.68 44.024 0.053 7.14 3.61 12.37
11/5/2021 4:00:00 PM 6.7 44.06 0.053 7.14 3.65 12.33
11/5/2021 4:15:00 PM 6.72 44.096 0.053 7.14 3.28 12.29
11/5/2021 4:30:00 PM 6.74 44.132 0.053 7.13 3.2 12.25
11/5/2021 4:45:00 PM 6.75 44.15 0.053 7.13 3.5 12.21
11/5/2021 5:00:00 PM 6.73 44.114 0.053 7.11 2.68 12.16
11/5/2021 5:15:00 PM 6.7 44.06 0.053 7.1 2.98 12.12
11/5/2021 5:30:00 PM 6.67 44.006 0.053 7.1 3.1 12.08
11/5/2021 5:45:00 PM 6.64 43.952 0.053 7.07 2.91 12.04
11/5/2021 6:00:00 PM 6.59 43.862 0.053 7.06 3.65 12
11/5/2021 6:15:00 PM 6.54 43.772 0.053 7.05 2.82 11.96
11/5/2021 6:30:00 PM 6.49 43.682 0.053 7.03 3.3 11.93
11/5/2021 6:45:00 PM 6.43 43.574 0.053 7.03 3.15 11.91
11/5/2021 7:00:00 PM 6.36 43.448 0.053 7.01 4.45 11.9
11/5/2021 7:15:00 PM 6.29 43.322 0.054 7 5.25 11.9
11/5/2021 7:30:00 PM 6.22 43.196 0.054 7 4.5 11.9
11/5/2021 7:45:00 PM 6.15 43.07 0.054 6.99 5.06 11.91
11/5/2021 8:00:00 PM 6.07 42.926 0.054 6.99 5.19 11.93
11/5/2021 8:15:00 PM 5.99 42.782 0.054 6.98 4.74 11.96
11/5/2021 8:30:00 PM 5.92 42.656 0.054 6.98 4.68 11.97
11/5/2021 8:45:00 PM 5.84 42.512 0.054 6.98 4.16 12
11/5/2021 9:00:00 PM 5.76 42.368 0.054 6.97 4.45 12.02
11/5/2021 9:15:00 PM 5.68 42.224 0.054 6.97 4.54 12.05
11/5/2021 9:30:00 PM 5.6 42.08 0.054 6.97 4.2 12.07
11/5/2021 9:45:00 PM 5.53 41.954 0.054 6.97 4.87 12.1
11/5/2021 10:00:00 PM 5.46 41.828 0.054 6.96 4.89 12.12
11/5/2021 10:15:00 PM 5.4 41.72 0.054 6.96 4.69 12.14
11/5/2021 10:30:00 PM 5.34 41.612 0.054 6.95 4.23 12.16
11/5/2021 10:45:00 PM 5.28 41.504 0.054 6.96 4.01 12.18
11/5/2021 11:00:00 PM 5.22 41.396 0.054 6.95 4.1 12.2
11/5/2021 11:15:00 PM 5.17 41.306 0.054 6.96 4.32 12.22
11/5/2021 11:30:00 PM 5.11 41.198 0.054 6.95 3.82 12.24
11/5/2021 11:45:00 PM 5.06 41.108 0.054 6.95 5.03 12.25
11/6/2021 12:00:00 AM 5 41 0.054 6.95 4.26 12.28
11/6/2021 12:15:00 AM 4.95 40.91 0.054 6.95 3.22 12.29
11/6/2021 12:30:00 AM 4.9 40.82 0.054 6.95 2.97 12.31
11/6/2021 12:45:00 AM 4.85 40.73 0.055 6.95 2.72 12.32
11/6/2021 1:00:00 AM 4.79 40.622 0.055 6.95 2.87 12.35
11/6/2021 1:15:00 AM 4.74 40.532 0.054 6.95 3.07 12.37
11/6/2021 1:30:00 AM 4.69 40.442 0.054 6.95 3.02 12.38
11/6/2021 1:45:00 AM 4.64 40.352 0.055 6.95 2.94 12.4
11/6/2021 2:00:00 AM 4.59 40.262 0.055 6.95 3.1 12.42
11/6/2021 2:15:00 AM 4.54 40.172 0.055 6.94 3.55 12.44
11/6/2021 2:30:00 AM 4.49 40.082 0.054 6.94 3.1 12.45
11/6/2021 2:45:00 AM 4.45 40.01 0.055 6.94 2.92 12.47
11/6/2021 3:00:00 AM 4.4 39.92 0.055 6.94 3.42 12.49
11/6/2021 3:15:00 AM 4.35 39.83 0.055 6.94 3.05 12.51
11/6/2021 3:30:00 AM 4.31 39.758 0.055 6.95 3.08 12.52
11/6/2021 3:45:00 AM 4.26 39.668 0.055 6.94 3.34 12.54
11/6/2021 4:00:00 AM 4.21 39.578 0.055 6.94 2.85 12.56
11/6/2021 4:15:00 AM 4.17 39.506 0.055 6.94 2.82 12.58
11/6/2021 4:30:00 AM 4.12 39.416 0.055 6.94 2.72 12.59
11/6/2021 4:45:00 AM 4.07 39.326 0.055 6.94 2.69 12.61
11/6/2021 5:00:00 AM 4.03 39.254 0.055 6.94 3 12.63
11/6/2021 5:15:00 AM 3.98 39.164 0.055 6.94 3.26 12.64
11/6/2021 5:30:00 AM 3.94 39.092 0.055 6.94 3.24 12.66
11/6/2021 5:45:00 AM 3.89 39.002 0.055 6.94 2.72 12.68
11/6/2021 6:00:00 AM 3.85 38.93 0.055 6.94 3.21 12.7
11/6/2021 6:15:00 AM 3.8 38.84 0.055 6.94 2.75 12.71
11/6/2021 6:30:00 AM 3.76 38.768 0.055 6.94 2.79 12.73
11/6/2021 6:45:00 AM 3.71 38.678 0.055 6.93 2.66 12.74
11/6/2021 7:00:00 AM 3.67 38.606 0.055 6.94 3.11 12.77
11/6/2021 7:15:00 AM 3.62 38.516 0.055 6.94 2.72 12.77
11/6/2021 7:30:00 AM 3.58 38.444 0.055 6.94 2.6 12.8
11/6/2021 7:45:00 AM 3.53 38.354 0.055 6.94 3.06 12.81
11/6/2021 8:00:00 AM 3.49 38.282 0.055 6.94 3.47 12.85
11/6/2021 8:15:00 AM 3.45 38.21 0.055 6.94 2.89 12.89
11/6/2021 8:30:00 AM 3.42 38.156 0.055 6.95 2.51 12.94
11/6/2021 8:45:00 AM 3.39 38.102 0.055 6.96 2.53 13
11/6/2021 9:00:00 AM 3.37 38.066 0.055 6.97 2.46 13.06
11/6/2021 9:15:00 AM 3.35 38.03 0.055 6.98 2.61 13.12
11/6/2021 9:30:00 AM 3.35 38.03 0.055 6.99 2.73 13.17
11/6/2021 9:45:00 AM 3.36 38.048 0.054 7 2.47 13.22
11/6/2021 10:00:00 AM 3.37 38.066 0.055 7.01 2.5 13.26
11/6/2021 10:15:00 AM 3.41 38.138 0.054 7.01 2.62 13.29
11/6/2021 10:30:00 AM 3.48 38.264 0.054 7.03 2.5 13.32
11/6/2021 10:45:00 AM 3.55 38.39 0.054 7.04 2.73 13.33
11/6/2021 11:00:00 AM 3.65 38.57 0.054 7.05 2.55 13.34
11/6/2021 11:15:00 AM 3.76 38.768 0.054 7.05 2.74 13.33
11/6/2021 11:30:00 AM 3.88 38.984 0.054 7.07 2.68 13.31
11/6/2021 11:45:00 AM 4.01 39.218 0.054 7.07 2.3 13.3
11/6/2021 12:00:00 PM 4.15 39.47 0.054 7.08 2.6 13.28
11/6/2021 12:15:00 PM 4.3 39.74 0.054 7.09 2.62 13.25
11/6/2021 12:30:00 PM 4.46 40.028 0.054 7.09 2.33 13.22
11/6/2021 12:45:00 PM 4.63 40.334 0.054 7.1 2.07 13.17
11/6/2021 1:00:00 PM 4.8 40.64 0.054 7.11 3.44 13.13
11/6/2021 1:15:00 PM 4.94 40.892 0.054 7.11 2.64 13.08
11/6/2021 1:30:00 PM 5.09 41.162 0.054 7.12 2.59 13.03
11/6/2021 1:45:00 PM 5.22 41.396 0.054 7.12 2.32 12.98
11/6/2021 2:00:00 PM 5.35 41.63 0.053 7.13 2.27 12.93
11/6/2021 2:15:00 PM 5.46 41.828 0.053 7.14 2.76 12.89
11/6/2021 2:30:00 PM 5.56 42.008 0.053 7.14 3.56 12.84
11/6/2021 2:45:00 PM 5.66 42.188 0.053 7.14 2.34 12.79
11/6/2021 3:00:00 PM 5.75 42.35 0.053 7.15 2.29 12.74
11/6/2021 3:15:00 PM 5.82 42.476 0.053 7.15 2.47 12.7
11/6/2021 3:30:00 PM 5.89 42.602 0.053 7.15 2.54 12.65
11/6/2021 3:45:00 PM 5.94 42.692 0.053 7.15 2.03 12.61
11/6/2021 4:00:00 PM 5.98 42.764 0.053 7.15 1.95 12.55
11/6/2021 4:15:00 PM 6.01 42.818 0.053 7.15 1.82 12.52
11/6/2021 4:30:00 PM 6.03 42.854 0.053 7.14 2.02 12.47
11/6/2021 4:45:00 PM 6.04 42.872 0.053 7.13 2.06 12.43
11/6/2021 5:00:00 PM 6.03 42.854 0.053 7.12 2.12 12.37
11/6/2021 5:15:00 PM 6.01 42.818 0.054 7.12 2.01 12.33
11/6/2021 5:30:00 PM 6 42.8 0.054 7.1 3.11 12.27
11/6/2021 5:45:00 PM 5.98 42.764 0.054 7.09 2.14 12.23
11/6/2021 6:00:00 PM 5.95 42.71 0.054 7.08 2.29 12.18
11/6/2021 6:15:00 PM 5.92 42.656 0.054 7.06 3.3 12.13
11/6/2021 6:30:00 PM 5.88 42.584 0.054 7.04 1.89 12.1
11/6/2021 6:45:00 PM 5.84 42.512 0.054 7.03 2.37 12.06
11/6/2021 7:00:00 PM 5.79 42.422 0.054 7.02 2.06 12.05
11/6/2021 7:15:00 PM 5.73 42.314 0.054 7.02 2.28 12.04
11/6/2021 7:30:00 PM 5.68 42.224 0.054 7.01 3.2 12.04
11/6/2021 7:45:00 PM 5.61 42.098 0.054 7 2.41 12.05
11/6/2021 8:00:00 PM 5.55 41.99 0.055 6.99 2.45 12.06
11/6/2021 8:15:00 PM 5.48 41.864 0.055 6.99 2.58 12.08
11/6/2021 8:30:00 PM 5.41 41.738 0.055 6.99 2.38 12.09
11/6/2021 8:45:00 PM 5.35 41.63 0.055 6.98 2.55 12.11
11/6/2021 9:00:00 PM 5.28 41.504 0.055 6.97 2.59 12.13
11/6/2021 9:15:00 PM 5.21 41.378 0.055 6.98 3.5 12.15
11/6/2021 9:30:00 PM 5.14 41.252 0.055 6.97 2.98 12.18
11/6/2021 9:45:00 PM 5.07 41.126 0.055 6.97 2.52 12.2
11/6/2021 10:00:00 PM 4.99 40.982 0.055 6.96 2.44 12.23
11/6/2021 10:15:00 PM 4.93 40.874 0.055 6.97 2.68 12.25
11/6/2021 10:30:00 PM 4.86 40.748 0.055 6.96 3.18 12.27
11/6/2021 10:45:00 PM 4.81 40.658 0.055 6.96 2.55 12.29
11/6/2021 11:00:00 PM 4.75 40.55 0.055 6.96 2.87 12.31
11/6/2021 11:15:00 PM 4.7 40.46 0.055 6.96 2.89 12.33
11/6/2021 11:30:00 PM 4.64 40.352 0.055 6.96 2.48 12.35
11/6/2021 11:45:00 PM 4.59 40.262 0.055 6.96 2.54 12.37
11/7/2021 12:00:00 AM 4.54 40.172 0.055 6.96 2.77 12.38
11/7/2021 12:15:00 AM 4.49 40.082 0.055 6.96 2.63 12.4
11/7/2021 12:30:00 AM 4.44 39.992 0.055 6.96 2.51 12.42
11/7/2021 12:45:00 AM 4.39 39.902 0.055 6.96 2.87 12.43
11/7/2021 1:00:00 AM 4.34 39.812 0.055 6.95 2.81 12.45
11/7/2021 1:15:00 AM 4.29 39.722 0.055 6.96 2.65 12.47
11/7/2021 1:30:00 AM 4.25 39.65 0.055 6.95 2.73 12.48
11/7/2021 1:45:00 AM 4.2 39.56 0.055 6.95 2.53 12.5
11/7/2021 2:00:00 AM 4.15 39.47 0.055 6.95 2.76 12.52
11/7/2021 2:15:00 AM 4.11 39.398 0.055 6.95 3.4 12.54
11/7/2021 2:30:00 AM 4.06 39.308 0.055 6.95 2.51 12.55
11/7/2021 2:45:00 AM 4.02 39.236 0.055 6.95 2.65 12.56
11/7/2021 3:00:00 AM 3.97 39.146 0.055 6.95 2.62 12.58
11/7/2021 3:15:00 AM 3.93 39.074 0.055 6.95 2.43 12.6
11/7/2021 3:30:00 AM 3.89 39.002 0.055 6.94 2.2 12.61
11/7/2021 3:45:00 AM 3.85 38.93 0.055 6.94 2.64 12.63
11/7/2021 4:00:00 AM 3.81 38.858 0.055 6.95 2.73 12.63
11/7/2021 4:15:00 AM 3.77 38.786 0.055 6.94 2.78 12.65
11/7/2021 4:30:00 AM 3.73 38.714 0.055 6.94 2.41 12.66
11/7/2021 4:45:00 AM 3.68 38.624 0.056 6.94 2.93 12.67
11/7/2021 5:00:00 AM 3.64 38.552 0.055 6.95 2.53 12.7
11/7/2021 5:15:00 AM 3.61 38.498 0.056 6.94 2.72 12.71
11/7/2021 5:30:00 AM 3.57 38.426 0.055 6.95 2.47 12.73
11/7/2021 5:45:00 AM 3.52 38.336 0.055 6.94 2.68 12.73
11/7/2021 6:00:00 AM 3.49 38.282 0.055 6.94 2.46 12.76
11/7/2021 6:15:00 AM 3.44 38.192 0.055 6.94 2.53 12.77
11/7/2021 6:30:00 AM 3.41 38.138 0.055 6.94 2.59 12.78
11/7/2021 6:45:00 AM 3.37 38.066 0.055 6.94 3.45 12.8
11/7/2021 7:00:00 AM 3.33 37.994 0.056 6.94 2.57 12.82
11/7/2021 7:15:00 AM 3.29 37.922 0.055 6.95 2.54 12.83
11/7/2021 7:30:00 AM 3.25 37.85 0.056 6.94 3.03 12.85
11/7/2021 7:45:00 AM 3.21 37.778 0.055 6.94 2.42 12.86
11/7/2021 8:00:00 AM 3.17 37.706 0.056 6.94 2.59 12.89
11/7/2021 8:15:00 AM 3.14 37.652 0.056 6.94 2.12 12.93
11/7/2021 8:30:00 AM 3.11 37.598 0.056 6.95 2.35 12.98
11/7/2021 8:45:00 AM 3.09 37.562 0.056 6.96 2.53 13.04
11/7/2021 9:00:00 AM 3.07 37.526 0.055 6.98 2.98 13.11
11/7/2021 9:15:00 AM 3.06 37.508 0.055 6.98 2.49 13.17
11/7/2021 9:30:00 AM 3.07 37.526 0.055 7 2.5 13.22
11/7/2021 9:45:00 AM 3.08 37.544 0.055 7 2.42 13.27
11/7/2021 10:00:00 AM 3.1 37.58 0.055 7.02 2.34 13.31
11/7/2021 10:15:00 AM 3.15 37.67 0.055 7.03 2.6 13.35
11/7/2021 10:30:00 AM 3.21 37.778 0.055 7.04 3.2 13.37
11/7/2021 10:45:00 AM 3.29 37.922 0.055 7.05 2.05 13.38
11/7/2021 11:00:00 AM 3.39 38.102 0.055 7.06 3.07 13.39
11/7/2021 11:15:00 AM 3.51 38.318 0.055 7.07 2.33 13.38
11/7/2021 11:30:00 AM 3.64 38.552 0.055 7.07 3.22 13.38
11/7/2021 11:45:00 AM 3.78 38.804 0.055 7.08 2.26 13.35
11/7/2021 12:00:00 PM 3.93 39.074 0.055 7.09 2.46 13.33
11/7/2021 12:15:00 PM 4.09 39.362 0.054 7.1 7.83 13.3
11/7/2021 12:30:00 PM 4.26 39.668 0.054 7.1 2.74 13.27
11/7/2021 12:45:00 PM 4.43 39.974 0.054 7.12 2.61 13.23
11/7/2021 1:00:00 PM 4.59 40.262 0.054 7.12 2.52 13.18
11/7/2021 1:15:00 PM 4.76 40.568 0.054 7.13 4.16 13.13
11/7/2021 1:30:00 PM 4.93 40.874 0.054 7.13 2.27 13.08
11/7/2021 1:45:00 PM 5.07 41.126 0.054 7.14 2.75 13.03
11/7/2021 2:00:00 PM 5.22 41.396 0.054 7.14 2.26 12.98
11/7/2021 2:15:00 PM 5.33 41.594 0.054 7.15 2.15 12.93
11/7/2021 2:30:00 PM 5.45 41.81 0.054 7.15 2.68 12.88
11/7/2021 2:45:00 PM 5.56 42.008 0.054 7.15 2.2 12.83
11/7/2021 3:00:00 PM 5.65 42.17 0.054 7.16 2.19 12.78
11/7/2021 3:15:00 PM 5.74 42.332 0.054 7.16 1.81 12.73
11/7/2021 3:30:00 PM 5.82 42.476 0.054 7.17 2.16 12.68
11/7/2021 3:45:00 PM 5.88 42.584 0.054 7.17 2.23 12.63
11/7/2021 4:00:00 PM 5.93 42.674 0.054 7.17 2.52 12.58
11/7/2021 4:15:00 PM 5.98 42.764 0.054 7.17 2.22 12.54
11/7/2021 4:30:00 PM 6.01 42.818 0.054 7.16 2.13 12.47
11/7/2021 4:45:00 PM 6.03 42.854 0.054 7.15 2.33 12.43
11/7/2021 5:00:00 PM 6.03 42.854 0.054 7.14 2.05 12.38
11/7/2021 5:15:00 PM 6.03 42.854 0.054 7.13 2.34 12.33
11/7/2021 5:30:00 PM 6.03 42.854 0.054 7.12 2.49 12.26
11/7/2021 5:45:00 PM 6.02 42.836 0.054 7.1 2.34 12.2
11/7/2021 6:00:00 PM 6.02 42.836 0.054 7.09 2.69 12.14
11/7/2021 6:15:00 PM 6.01 42.818 0.054 7.07 2.12 12.07
11/7/2021 6:30:00 PM 5.99 42.782 0.054 7.05 2.44 12.03
11/7/2021 6:45:00 PM 5.97 42.746 0.055 7.04 2.4 11.99
11/7/2021 7:00:00 PM 5.94 42.692 0.055 7.03 2.54 11.97
11/7/2021 7:15:00 PM 5.91 42.638 0.055 7.02 2.51 11.95
11/7/2021 7:30:00 PM 5.86 42.548 0.055 7.01 2.3 11.95
11/7/2021 7:45:00 PM 5.82 42.476 0.055 7.01 2.48 11.95
11/7/2021 8:00:00 PM 5.77 42.386 0.055 7 2.64 11.95
11/7/2021 8:15:00 PM 5.72 42.296 0.055 7 4.59 11.96
11/7/2021 8:30:00 PM 5.66 42.188 0.055 6.99 2.72 11.98
11/7/2021 8:45:00 PM 5.61 42.098 0.055 6.99 2.64 12
11/7/2021 9:00:00 PM 5.56 42.008 0.055 6.98 2.77 12.01
11/7/2021 9:15:00 PM 5.5 41.9 0.055 6.98 2.39 12.03
11/7/2021 9:30:00 PM 5.44 41.792 0.055 6.98 2.93 12.05
11/7/2021 9:45:00 PM 5.39 41.702 0.056 6.98 2.82 12.06
11/7/2021 10:00:00 PM 5.32 41.576 0.056 6.98 3.2 12.09
11/7/2021 10:15:00 PM 5.26 41.468 0.056 6.97 3.63 12.11
11/7/2021 10:30:00 PM 5.21 41.378 0.056 6.97 2.67 12.13
11/7/2021 10:45:00 PM 5.15 41.27 0.056 6.97 3.05 12.15
11/7/2021 11:00:00 PM 5.1 41.18 0.056 6.97 2.31 12.16
11/7/2021 11:15:00 PM 5.05 41.09 0.056 6.97 2.51 12.18
11/7/2021 11:30:00 PM 5.01 41.018 0.056 6.96 2.58 12.2
11/7/2021 11:45:00 PM 4.97 40.946 0.056 6.97 3.17 12.21
11/8/2021 12:00:00 AM 4.92 40.856 0.056 6.96 2.68 12.23
11/8/2021 12:15:00 AM 4.89 40.802 0.056 6.96 2.79 12.23
11/8/2021 12:30:00 AM 4.85 40.73 0.056 6.96 2.61 12.25
11/8/2021 12:45:00 AM 4.81 40.658 0.056 6.96 2.76 12.27
11/8/2021 1:00:00 AM 4.77 40.586 0.056 6.96 2.63 12.27
11/8/2021 1:15:00 AM 4.73 40.514 0.056 6.96 2.52 12.29
11/8/2021 1:30:00 AM 4.69 40.442 0.056 6.96 2.8 12.3
11/8/2021 1:45:00 AM 4.66 40.388 0.056 6.96 2.94 12.32
11/8/2021 2:00:00 AM 4.62 40.316 0.056 6.96 2.76 12.33
11/8/2021 2:15:00 AM 4.58 40.244 0.056 6.96 2.44 12.35
11/8/2021 2:30:00 AM 4.55 40.19 0.056 6.96 2.55 12.36
11/8/2021 2:45:00 AM 4.51 40.118 0.056 6.96 2.73 12.37
11/8/2021 3:00:00 AM 4.48 40.064 0.056 6.96 2.73 12.39
11/8/2021 3:15:00 AM 4.44 39.992 0.056 6.96 3.2 12.39
11/8/2021 3:30:00 AM 4.41 39.938 0.056 6.96 2.63 12.41
11/8/2021 3:45:00 AM 4.38 39.884 0.056 6.96 2.63 12.42
11/8/2021 4:00:00 AM 4.34 39.812 0.056 6.95 2.68 12.43
11/8/2021 4:15:00 AM 4.31 39.758 0.056 6.96 2.57 12.44
11/8/2021 4:30:00 AM 4.28 39.704 0.056 6.95 2.51 12.46
11/8/2021 4:45:00 AM 4.25 39.65 0.056 6.95 2.86 12.47
11/8/2021 5:00:00 AM 4.22 39.596 0.056 6.95 2.63 12.48
11/8/2021 5:15:00 AM 4.18 39.524 0.056 6.95 2.84 12.49
11/8/2021 5:30:00 AM 4.15 39.47 0.056 6.96 2.36 12.5
11/8/2021 5:45:00 AM 4.12 39.416 0.056 6.95 2.38 12.51
11/8/2021 6:00:00 AM 4.1 39.38 0.056 6.95 3.09 12.52
11/8/2021 6:15:00 AM 4.06 39.308 0.056 6.95 2.37 12.54
11/8/2021 6:30:00 AM 4.04 39.272 0.056 6.95 2.93 12.55
11/8/2021 6:45:00 AM 4.01 39.218 0.056 6.95 2.49 12.56
11/8/2021 7:00:00 AM 3.98 39.164 0.056 6.95 2.86 12.57
11/8/2021 7:15:00 AM 3.95 39.11 0.056 6.95 5.26 12.59
11/8/2021 7:30:00 AM 3.92 39.056 0.056 6.95 3.01 12.6
11/8/2021 7:45:00 AM 3.89 39.002 0.056 6.95 2.81 12.61
11/8/2021 8:00:00 AM 3.86 38.948 0.056 6.95 2.65 12.64
11/8/2021 8:15:00 AM 3.84 38.912 0.056 6.96 3.56 12.68
11/8/2021 8:30:00 AM 3.82 38.876 0.056 6.97 2.45 12.73
11/8/2021 8:45:00 AM 3.8 38.84 0.056 6.98 2.52 12.79
11/8/2021 9:00:00 AM 3.79 38.822 0.056 6.99 2.4 12.85
11/8/2021 9:15:00 AM 3.79 38.822 0.056 7 2.34 12.92
11/8/2021 9:30:00 AM 3.8 38.84 0.056 7.01 2.42 12.98
11/8/2021 9:45:00 AM 3.82 38.876 0.056 7.02 2.64 13.03
11/8/2021 10:00:00 AM 3.85 38.93 0.056 7.03 4.39 13.09
11/8/2021 10:15:00 AM 3.89 39.002 0.055 7.04 2.51 13.11
11/8/2021 10:30:00 AM 3.96 39.128 0.055 7.06 2.83 13.14
11/8/2021 10:45:00 AM 4.05 39.29 0.055 7.07 2.3 13.16
11/8/2021 11:00:00 AM 4.16 39.488 0.055 7.08 2.41 13.17
11/8/2021 11:15:00 AM 4.28 39.704 0.055 7.09 2.51 13.17
11/8/2021 11:30:00 AM 4.42 39.956 0.055 7.11 3.23 13.17
11/8/2021 11:45:00 AM 4.57 40.226 0.055 7.12 2.36 13.15
11/8/2021 12:00:00 PM 4.74 40.532 0.055 7.12 2.45 13.13
11/8/2021 12:15:00 PM 4.91 40.838 0.055 7.13 1.61 13.1
11/8/2021 12:30:00 PM 5.08 41.144 0.055 7.15 1.53 13.06
11/8/2021 12:45:00 PM 5.27 41.486 0.055 7.16 1.62 13.03
11/8/2021 1:00:00 PM 5.44 41.792 0.055 7.16 1.48 12.98
11/8/2021 1:15:00 PM 5.63 42.134 0.055 7.17 1.43 12.93
11/8/2021 1:30:00 PM 5.79 42.422 0.055 7.18 1.4 12.88
11/8/2021 1:45:00 PM 5.95 42.71 0.055 7.19 1.36 12.83
11/8/2021 2:00:00 PM 6.1 42.98 0.054 7.19 1.38 12.79
11/8/2021 2:15:00 PM 6.23 43.214 0.054 7.2 1.42 12.74
11/8/2021 2:30:00 PM 6.36 43.448 0.054 7.21 1.46 12.69
11/8/2021 2:45:00 PM 6.48 43.664 0.054 7.21 4.07 12.63
11/8/2021 3:00:00 PM 6.59 43.862 0.054 7.22 12.7 12.58
11/8/2021 3:15:00 PM 6.69 44.042 0.054 7.22 5.03 12.53
11/8/2021 3:30:00 PM 6.78 44.204 0.054 7.22 11.61 12.47
11/8/2021 3:45:00 PM 6.86 44.348 0.054 7.23 3.06 12.42
11/8/2021 4:00:00 PM 6.93 44.474 0.054 7.22 9.91 12.36
11/8/2021 4:15:00 PM 6.98 44.564 0.054 7.21 4.64 12.3
11/8/2021 4:30:00 PM 7.01 44.618 0.054 7.2 14.62 12.24
11/8/2021 4:45:00 PM 7.04 44.672 0.054 7.2 3.56 12.19
11/8/2021 5:00:00 PM 7.06 44.708 0.054 7.19 3.54 12.12
11/8/2021 5:15:00 PM 7.06 44.708 0.054 7.17 14.27 12.06
11/8/2021 5:30:00 PM 7.06 44.708 0.054 7.15 3.37 11.99
11/8/2021 5:45:00 PM 7.06 44.708 0.055 7.14 2.33 11.91
11/8/2021 6:00:00 PM 7.06 44.708 0.055 7.11 3.76 11.84
11/8/2021 6:15:00 PM 7.05 44.69 0.055 7.09 5.46 11.77
11/8/2021 6:30:00 PM 7.04 44.672 0.055 7.08 4.1 11.7
11/8/2021 6:45:00 PM 7.03 44.654 0.055 7.06 6.3 11.66
11/8/2021 7:00:00 PM 7.02 44.636 0.055 7.05 2.54 11.63
11/8/2021 7:15:00 PM 6.99 44.582 0.055 7.04 6.39 11.6
11/8/2021 7:30:00 PM 6.96 44.528 0.055 7.02 7.03 11.59
11/8/2021 7:45:00 PM 6.92 44.456 0.055 7.02 7.92 11.59
11/8/2021 8:00:00 PM 6.88 44.384 0.055 7.01 2.19 11.59
11/8/2021 8:15:00 PM 6.83 44.294 0.056 7.01 3.41 11.6
11/8/2021 8:30:00 PM 6.78 44.204 0.056 7 5.66 11.61
11/8/2021 8:45:00 PM 6.73 44.114 0.056 7 3.59 11.62
11/8/2021 9:00:00 PM 6.68 44.024 0.056 6.99 3.14 11.63
11/8/2021 9:15:00 PM 6.63 43.934 0.056 6.99 8.2 11.64
11/8/2021 9:30:00 PM 6.58 43.844 0.056 6.99 3.34 11.66
11/8/2021 9:45:00 PM 6.53 43.754 0.056 6.99 5.85 11.67
11/8/2021 10:00:00 PM 6.47 43.646 0.056 6.98 3.02 11.69
11/8/2021 10:15:00 PM 6.41 43.538 0.056 6.98 3.08 11.71
11/8/2021 10:30:00 PM 6.35 43.43 0.056 6.98 4.34 11.73
11/8/2021 10:45:00 PM 6.3 43.34 0.056 6.98 4.08 11.75
11/8/2021 11:00:00 PM 6.24 43.232 0.056 6.98 4.17 11.76
11/8/2021 11:15:00 PM 6.19 43.142 0.056 6.97 2.71 11.78
11/8/2021 11:30:00 PM 6.14 43.052 0.056 6.98 6.03 11.79
11/8/2021 11:45:00 PM 6.09 42.962 0.056 6.97 7.16 11.82
11/9/2021 12:00:00 AM 6.05 42.89 0.056 6.97 2.48 11.84
11/9/2021 12:15:00 AM 6.01 42.818 0.056 6.97 3.56 11.85
11/9/2021 12:30:00 AM 5.96 42.728 0.056 6.97 2.58 11.86
11/9/2021 12:45:00 AM 5.92 42.656 0.057 6.97 4.84 11.87
11/9/2021 1:00:00 AM 5.88 42.584 0.056 6.97 2.53 11.88
11/9/2021 1:15:00 AM 5.84 42.512 0.057 6.97 2.44 11.89
11/9/2021 1:30:00 AM 5.8 42.44 0.057 6.97 6.53 11.91
11/9/2021 1:45:00 AM 5.76 42.368 0.057 6.97 2.44 11.92
11/9/2021 2:00:00 AM 5.72 42.296 0.056 6.97 3.18 11.93
11/9/2021 2:15:00 AM 5.68 42.224 0.057 6.97 2.99 11.95
11/9/2021 2:30:00 AM 5.64 42.152 0.057 6.97 3.39 11.96
11/9/2021 2:45:00 AM 5.6 42.08 0.057 6.96 3.05 11.97
11/9/2021 3:00:00 AM 5.57 42.026 0.056 6.97 2.63 11.98
11/9/2021 3:15:00 AM 5.54 41.972 0.057 6.97 3.33 12
11/9/2021 3:30:00 AM 5.52 41.936 0.057 6.96 2.64 12.01
11/9/2021 3:45:00 AM 5.49 41.882 0.057 6.97 2.55 12.01
11/9/2021 4:00:00 AM 5.47 41.846 0.057 6.96 3.21 12.03
11/9/2021 4:15:00 AM 5.45 41.81 0.057 6.97 3.14 12.03
11/9/2021 4:30:00 AM 5.44 41.792 0.056 6.96 2.54 12.04
11/9/2021 4:45:00 AM 5.42 41.756 0.057 6.96 11.64 12.05
11/9/2021 5:00:00 AM 5.4 41.72 0.056 6.97 2.54 12.06
11/9/2021 5:15:00 AM 5.38 41.684 0.057 6.97 2.45 12.06
11/9/2021 5:30:00 AM 5.36 41.648 0.057 6.97 2.82 12.07
11/9/2021 5:45:00 AM 5.35 41.63 0.057 6.97 5.56 12.08
11/9/2021 6:00:00 AM 5.33 41.594 0.057 6.96 3.68 12.09
11/9/2021 6:15:00 AM 5.31 41.558 0.057 6.97 2.64 12.09
11/9/2021 6:30:00 AM 5.29 41.522 0.056 6.97 3.27 12.1
11/9/2021 6:45:00 AM 5.28 41.504 0.057 6.97 2.46 12.1
11/9/2021 7:00:00 AM 5.26 41.468 0.057 6.96 3.3 12.11
11/9/2021 7:15:00 AM 5.24 41.432 0.057 6.96 3.98 12.12
11/9/2021 7:30:00 AM 5.22 41.396 0.057 6.96 2.47 12.13
11/9/2021 7:45:00 AM 5.19 41.342 0.057 6.96 3.81 12.14
11/9/2021 8:00:00 AM 5.17 41.306 0.057 6.97 3.38 12.16
11/9/2021 8:15:00 AM 5.16 41.288 0.057 6.97 1.69 12.19
11/9/2021 8:30:00 AM 5.14 41.252 0.057 6.98 1.63 12.24
11/9/2021 8:45:00 AM 5.14 41.252 0.056 6.99 1.62 12.32
11/9/2021 9:00:00 AM 5.14 41.252 0.056 7.01 1.59 12.41
11/9/2021 9:15:00 AM 5.13 41.234 0.056 7.02 1.5 12.49
11/9/2021 9:30:00 AM 5.15 41.27 0.056 7.04 1.55 12.58
11/9/2021 9:45:00 AM 5.18 41.324 0.056 7.06 1.54 12.65
11/9/2021 10:00:00 AM 5.19 41.342 0.056 7.07 1.55 12.7
11/9/2021 10:15:00 AM 5.23 41.414 0.056 7.09 1.52 12.75
11/9/2021 10:30:00 AM 5.28 41.504 0.056 7.1 1.43 12.79
11/9/2021 10:45:00 AM 5.35 41.63 0.056 7.12 1.47 12.81
11/9/2021 11:00:00 AM 5.46 41.828 0.056 7.14 1.52 12.82
11/9/2021 11:15:00 AM 5.58 42.044 0.056 7.15 1.48 12.83
11/9/2021 11:30:00 AM 5.71 42.278 0.056 7.16 1.43 12.83
11/9/2021 11:45:00 AM 5.85 42.53 0.056 7.17 1.46 12.81
11/9/2021 12:00:00 PM 6.01 42.818 0.056 7.19 1.39 12.8
11/9/2021 12:15:00 PM 6.18 43.124 0.055 7.2 1.39 12.76
11/9/2021 12:30:00 PM 6.36 43.448 0.055 7.21 1.37 12.73
11/9/2021 12:45:00 PM 6.54 43.772 0.055 7.23 1.38 12.7
11/9/2021 1:00:00 PM 6.71 44.078 0.055 7.24 1.46 12.66
11/9/2021 1:15:00 PM 6.87 44.366 0.055 7.26 1.4 12.62
11/9/2021 1:30:00 PM 7.04 44.672 0.055 7.27 1.34 12.58
11/9/2021 1:45:00 PM 7.18 44.924 0.055 7.28 1.3 12.54
11/9/2021 2:00:00 PM 7.29 45.122 0.055 7.29 1.28 12.5
11/9/2021 2:15:00 PM 7.39 45.302 0.055 7.3 1.25 12.46
11/9/2021 2:30:00 PM 7.51 45.518 0.055 7.31 1.3 12.43
11/9/2021 2:45:00 PM 7.6 45.68 0.055 7.31 1.3 12.38
11/9/2021 3:00:00 PM 7.71 45.878 0.055 7.32 1.3 12.35
11/9/2021 3:15:00 PM 7.79 46.022 0.055 7.33 1.33 12.31
11/9/2021 3:30:00 PM 7.86 46.148 0.055 7.33 1.33 12.28
11/9/2021 3:45:00 PM 7.92 46.256 0.055 7.34 1.31 12.24
11/9/2021 4:00:00 PM 7.98 46.364 0.054 7.34 1.35 12.2
11/9/2021 4:15:00 PM 8.03 46.454 0.054 7.33 1.35 12.14
11/9/2021 4:30:00 PM 8.07 46.526 0.054 7.31 1.29 12.07
11/9/2021 4:45:00 PM 8.11 46.598 0.055 7.31 1.23 12.01
11/9/2021 5:00:00 PM 8.14 46.652 0.055 7.29 1.22 11.94
11/9/2021 5:15:00 PM 8.17 46.706 0.055 7.27 1.43 11.84
11/9/2021 5:30:00 PM 8.19 46.742 0.055 7.24 1.38 11.73
11/9/2021 5:45:00 PM 8.2 46.76 0.055 7.2 1.39 11.62
11/9/2021 6:00:00 PM 8.23 46.814 0.055 7.17 1.39 11.51
11/9/2021 6:15:00 PM 8.25 46.85 0.055 7.14 1.41 11.41
11/9/2021 6:30:00 PM 8.26 46.868 0.055 7.11 1.36 11.33
11/9/2021 6:45:00 PM 8.27 46.886 0.056 7.1 1.44 11.27
11/9/2021 7:00:00 PM 8.28 46.904 0.056 7.08 1.42 11.23
11/9/2021 7:15:00 PM 8.29 46.922 0.056 7.06 1.43 11.2
11/9/2021 7:30:00 PM 8.29 46.922 0.056 7.05 1.58 11.17
11/9/2021 7:45:00 PM 8.28 46.904 0.056 7.03 1.41 11.16
11/9/2021 8:00:00 PM 8.28 46.904 0.056 7.02 1.53 11.14
11/9/2021 8:15:00 PM 8.28 46.904 0.056 7.01 1.61 11.13
11/9/2021 8:30:00 PM 8.27 46.886 0.056 7.01 1.49 11.13
11/9/2021 8:45:00 PM 8.26 46.868 0.056 7 1.5 11.13
11/9/2021 9:00:00 PM 8.24 46.832 0.056 7 1.42 11.13
11/9/2021 9:15:00 PM 8.21 46.778 0.056 6.99 1.45 11.13
11/9/2021 9:30:00 PM 8.18 46.724 0.057 6.99 1.6 11.13
11/9/2021 9:45:00 PM 8.15 46.67 0.057 6.98 1.5 11.13
11/9/2021 10:00:00 PM 8.12 46.616 0.057 6.98 1.55 11.14
11/9/2021 10:15:00 PM 8.1 46.58 0.057 6.97 1.62 11.15
11/9/2021 10:30:00 PM 8.07 46.526 0.057 6.97 1.51 11.15
11/9/2021 10:45:00 PM 8.04 46.472 0.057 6.97 1.47 11.15
11/9/2021 11:00:00 PM 8 46.4 0.057 6.97 1.52 11.16
11/9/2021 11:15:00 PM 7.96 46.328 0.057 6.96 1.58 11.17
11/9/2021 11:30:00 PM 7.92 46.256 0.057 6.96 1.58 11.18
11/9/2021 11:45:00 PM 7.88 46.184 0.057 6.96 1.6 11.19
11/10/2021 12:00:00 AM 7.84 46.112 0.057 6.96 1.57 11.2
11/10/2021 12:15:00 AM 7.81 46.058 0.057 6.96 1.58 11.21
11/10/2021 12:30:00 AM 7.78 46.004 0.057 6.96 1.61 11.22
11/10/2021 12:45:00 AM 7.76 45.968 0.057 6.96 1.61 11.23
11/10/2021 1:00:00 AM 7.74 45.932 0.057 6.96 1.58 11.23
11/10/2021 1:15:00 AM 7.71 45.878 0.057 6.96 1.63 11.24
11/10/2021 1:30:00 AM 7.7 45.86 0.057 6.97 1.52 11.24
11/10/2021 1:45:00 AM 7.68 45.824 0.057 6.96 1.5 11.25
11/10/2021 2:00:00 AM 7.66 45.788 0.057 6.96 1.57 11.26
11/10/2021 2:15:00 AM 7.63 45.734 0.057 6.97 1.72 11.26
11/10/2021 2:30:00 AM 7.6 45.68 0.057 6.97 1.6 11.27
11/10/2021 2:45:00 AM 7.57 45.626 0.057 6.97 1.69 11.28
11/10/2021 3:00:00 AM 7.54 45.572 0.057 6.97 1.56 11.29
11/10/2021 3:15:00 AM 7.53 45.554 0.058 6.96 1.74 11.29
11/10/2021 3:30:00 AM 7.53 45.554 0.057 6.97 1.52 11.3
11/10/2021 3:45:00 AM 7.52 45.536 0.057 6.97 1.58 11.31
11/10/2021 4:00:00 AM 7.52 45.536 0.058 6.97 1.43 11.31
11/10/2021 4:15:00 AM 7.52 45.536 0.058 6.97 1.72 11.31
11/10/2021 4:30:00 AM 7.52 45.536 0.057 6.97 1.74 11.32
11/10/2021 4:45:00 AM 7.51 45.518 0.057 6.97 1.72 11.32
11/10/2021 5:00:00 AM 7.5 45.5 0.057 6.97 1.72 11.33
11/10/2021 5:15:00 AM 7.5 45.5 0.058 6.98 1.73 11.32
11/10/2021 5:30:00 AM 7.51 45.518 0.058 6.97 1.63 11.33
11/10/2021 5:45:00 AM 7.51 45.518 0.057 6.97 1.57 11.33
11/10/2021 6:00:00 AM 7.52 45.536 0.057 6.97 1.49 11.33
11/10/2021 6:15:00 AM 7.52 45.536 0.057 6.97 1.66 11.33
11/10/2021 6:30:00 AM 7.53 45.554 0.057 6.98 1.6 11.33
11/10/2021 6:45:00 AM 7.53 45.554 0.051 6.99 1.62 11.32
11/10/2021 7:00:00 AM 7.54 45.572 0.057 6.98 1.66 11.34
11/10/2021 7:15:00 AM 7.54 45.572 0.057 6.98 46.38 11.33
11/10/2021 7:30:00 AM 7.53 45.554 0.058 6.97 18.57 11.34
11/10/2021 7:45:00 AM 7.52 45.536 0.057 6.98 1.5 11.35
11/10/2021 8:00:00 AM 7.5 45.5 0.058 6.98 1.6 11.36
11/10/2021 8:15:00 AM 7.47 45.446 0.057 6.99 1.69 11.4
11/10/2021 8:30:00 AM 7.45 45.41 0.058 7.01 2.31 11.46
11/10/2021 8:45:00 AM 7.43 45.374 0.057 7.02 1.8 11.55
11/10/2021 9:00:00 AM 7.42 45.356 0.057 7.04 1.69 11.64
11/10/2021 9:15:00 AM 7.4 45.32 0.057 7.06 1.74 11.71
11/10/2021 9:30:00 AM 7.39 45.302 0.057 7.08 1.51 11.78
11/10/2021 9:45:00 AM 7.41 45.338 0.057 7.1 1.62 11.87
11/10/2021 10:00:00 AM 7.43 45.374 0.057 7.12 1.47 11.94
11/10/2021 10:15:00 AM 7.47 45.446 0.057 7.15 1.86 12
11/10/2021 10:30:00 AM 7.52 45.536 0.057 7.16 2.16 12.05
11/10/2021 10:45:00 AM 7.59 45.662 0.056 7.18 1.43 12.09
11/10/2021 11:00:00 AM 7.68 45.824 0.056 7.21 1.51 12.13
11/10/2021 11:15:00 AM 7.79 46.022 0.056 7.24 1.79 12.15
11/10/2021 11:30:00 AM 7.91 46.238 0.056 7.25 1.75 12.17
11/10/2021 11:45:00 AM 8.04 46.472 0.056 7.27 3.68 12.18
11/10/2021 12:00:00 PM 8.18 46.724 0.056 7.3 1.54 12.17
11/10/2021 12:15:00 PM 8.32 46.976 0.056 7.32 1.47 12.17
11/10/2021 12:30:00 PM 8.47 47.246 0.056 7.33 1.6 12.15
11/10/2021 12:45:00 PM 8.61 47.498 0.056 7.35 1.58 12.14
11/10/2021 1:00:00 PM 8.76 47.768 0.056 7.36 1.44 12.12
11/10/2021 1:15:00 PM 8.88 47.984 0.056 7.37 1.45 12.08
11/10/2021 1:30:00 PM 9 48.2 0.056 7.39 1.35 12.06
11/10/2021 1:45:00 PM 9.1 48.38 0.056 7.39 1.32 12.04
11/10/2021 2:00:00 PM 9.19 48.542 0.055 7.4 1.37 12.01
11/10/2021 2:15:00 PM 9.27 48.686 0.056 7.41 1.62 11.98
11/10/2021 2:30:00 PM 9.34 48.812 0.056 7.42 1.5 11.96
11/10/2021 2:45:00 PM 9.4 48.92 0.055 7.42 1.42 11.93
11/10/2021 3:00:00 PM 9.44 48.992 0.056 7.43 1.28 11.9
11/10/2021 3:15:00 PM 9.46 49.028 0.056 7.43 1.47 11.87
11/10/2021 3:30:00 PM 9.47 49.046 0.055 7.41 1.37 11.82
11/10/2021 3:45:00 PM 9.48 49.064 0.055 7.41 14.04 11.77
11/10/2021 4:00:00 PM 9.47 49.046 0.055 7.4 1.3 11.72
11/10/2021 4:15:00 PM 9.45 49.01 0.055 7.38 1.33 11.67
11/10/2021 4:30:00 PM 9.44 48.992 0.056 7.37 1.41 11.64
11/10/2021 4:45:00 PM 9.42 48.956 0.055 7.34 1.41 11.59
11/10/2021 5:00:00 PM 9.38 48.884 0.056 7.32 1.39 11.53
11/10/2021 5:15:00 PM 9.32 48.776 0.056 7.29 1.35 11.48
11/10/2021 5:30:00 PM 9.27 48.686 0.056 7.27 1.39 11.43
11/10/2021 5:45:00 PM 9.22 48.596 0.056 7.23 1.37 11.33
11/10/2021 6:00:00 PM 9.16 48.488 0.056 7.2 1.56 11.24
11/10/2021 6:15:00 PM 9.09 48.362 0.056 7.16 1.44 11.15
11/10/2021 6:30:00 PM 9.02 48.236 0.056 7.14 1.48 11.1
11/10/2021 6:45:00 PM 8.97 48.146 0.056 7.12 1.57 11.05
11/10/2021 7:00:00 PM 8.91 48.038 0.056 7.1 1.49 11.03
11/10/2021 7:15:00 PM 8.85 47.93 0.057 7.09 1.49 11
11/10/2021 7:30:00 PM 8.79 47.822 0.057 7.08 1.56 11
11/10/2021 7:45:00 PM 8.72 47.696 0.057 7.07 1.57 11.01
11/10/2021 8:00:00 PM 8.65 47.57 0.057 7.06 1.58 11.01
11/10/2021 8:15:00 PM 8.58 47.444 0.057 7.05 1.6 11.03
11/10/2021 8:30:00 PM 8.5 47.3 0.057 7.04 1.49 11.05
11/10/2021 8:45:00 PM 8.41 47.138 0.057 7.04 1.6 11.07
11/10/2021 9:00:00 PM 8.33 46.994 0.057 7.03 1.62 11.09
11/10/2021 9:15:00 PM 8.24 46.832 0.057 7.03 1.68 11.11
11/10/2021 9:30:00 PM 8.15 46.67 0.057 7.03 1.57 11.13
11/10/2021 9:45:00 PM 8.06 46.508 0.057 7.02 1.65 11.16
11/10/2021 10:00:00 PM 7.97 46.346 0.057 7.02 1.53 11.19
11/10/2021 10:15:00 PM 7.88 46.184 0.057 7.02 1.59 11.21
11/10/2021 10:30:00 PM 7.8 46.04 0.057 7.02 1.64 11.24
11/10/2021 10:45:00 PM 7.71 45.878 0.058 7.02 1.51 11.27
11/10/2021 11:00:00 PM 7.62 45.716 0.058 7.02 1.58 11.3
11/10/2021 11:15:00 PM 7.53 45.554 0.058 7.02 1.59 11.33
11/10/2021 11:30:00 PM 7.44 45.392 0.058 7.02 1.61 11.35
11/10/2021 11:45:00 PM 7.36 45.248 0.058 7.01 1.55 11.39
11/11/2021 12:00:00 AM 7.27 45.086 0.058 7.01 1.62 11.41
11/11/2021 12:15:00 AM 7.18 44.924 0.058 7.01 1.69 11.44
11/11/2021 12:30:00 AM 7.1 44.78 0.058 7.01 1.69 11.47
11/11/2021 12:45:00 AM 7.02 44.636 0.058 7.01 1.62 11.49
11/11/2021 1:00:00 AM 6.95 44.51 0.058 7.01 1.61 11.51
11/11/2021 1:15:00 AM 6.87 44.366 0.058 7.01 1.61 11.54
11/11/2021 1:30:00 AM 6.79 44.222 0.058 7.01 1.64 11.56
11/11/2021 1:45:00 AM 6.72 44.096 0.058 7 1.62 11.59
11/11/2021 2:00:00 AM 6.65 43.97 0.058 7 1.52 11.61
11/11/2021 2:15:00 AM 6.58 43.844 0.058 7 1.48 11.63
11/11/2021 2:30:00 AM 6.51 43.718 0.058 7 1.72 11.65
11/11/2021 2:45:00 AM 6.45 43.61 0.058 7.01 1.47 11.68
11/11/2021 3:00:00 AM 6.39 43.502 0.058 7 1.65 11.7
11/11/2021 3:15:00 AM 6.35 43.43 0.058 7 1.62 11.71
11/11/2021 3:30:00 AM 6.32 43.376 0.058 7 1.52 11.75
11/11/2021 3:45:00 AM 6.29 43.322 0.058 7 1.57 11.75
11/11/2021 4:00:00 AM 6.26 43.268 0.058 7 1.63 11.76
11/11/2021 4:15:00 AM 6.24 43.232 0.058 7 1.73 11.77
11/11/2021 4:30:00 AM 6.2 43.16 0.058 7 1.67 11.79
11/11/2021 4:45:00 AM 6.14 43.052 0.058 7.01 1.7 11.8
11/11/2021 5:00:00 AM 6.09 42.962 0.058 7 1.62 11.82
11/11/2021 5:15:00 AM 6.04 42.872 0.058 7 1.64 11.82
11/11/2021 5:30:00 AM 6 42.8 0.059 7 1.69 11.85
11/11/2021 5:45:00 AM 5.96 42.728 0.059 7 1.75 11.86
11/11/2021 6:00:00 AM 5.92 42.656 0.059 7 1.65 11.86
11/11/2021 6:15:00 AM 5.87 42.566 0.058 7 1.72 11.88
11/11/2021 6:30:00 AM 5.82 42.476 0.058 7 1.61 11.89
11/11/2021 6:45:00 AM 5.78 42.404 0.058 7 1.58 11.91
11/11/2021 7:00:00 AM 5.74 42.332 0.058 7 1.73 11.92
11/11/2021 7:15:00 AM 5.69 42.242 0.058 7 1.63 11.94
11/11/2021 7:30:00 AM 5.64 42.152 0.058 7 1.67 11.95
11/11/2021 7:45:00 AM 5.6 42.08 0.058 7 1.61 11.97
11/11/2021 8:00:00 AM 5.55 41.99 0.058 7 1.62 11.99
11/11/2021 8:15:00 AM 5.51 41.918 0.058 7 1.66 12.03
11/11/2021 8:30:00 AM 5.47 41.846 0.058 7.01 1.54 12.1
11/11/2021 8:45:00 AM 5.45 41.81 0.058 7.03 1.51 12.2
11/11/2021 9:00:00 AM 5.43 41.774 0.058 7.05 1.58 12.32
11/11/2021 9:15:00 AM 5.43 41.774 0.058 7.07 1.47 12.43
11/11/2021 9:30:00 AM 5.44 41.792 0.058 7.09 1.42 12.54
11/11/2021 9:45:00 AM 5.47 41.846 0.058 7.12 1.43 12.63
11/11/2021 10:00:00 AM 5.51 41.918 0.058 7.14 1.44 12.71
11/11/2021 10:15:00 AM 5.55 41.99 0.057 7.17 1.42 12.77
11/11/2021 10:30:00 AM 5.59 42.062 0.057 7.18 1.46 12.82
11/11/2021 10:45:00 AM 5.64 42.152 0.057 7.21 1.53 12.85
11/11/2021 11:00:00 AM 5.71 42.278 0.057 7.22 1.42 12.87
11/11/2021 11:15:00 AM 5.8 42.44 0.057 7.24 1.44 12.89
11/11/2021 11:30:00 AM 5.89 42.602 0.057 7.26 1.4 12.89
11/11/2021 11:45:00 AM 5.99 42.782 0.057 7.28 1.43 12.88
11/11/2021 12:00:00 PM 6.11 42.998 0.057 7.3 1.35 12.89
11/11/2021 12:15:00 PM 6.25 43.25 0.057 7.32 1.39 12.87
11/11/2021 12:30:00 PM 6.38 43.484 0.056 7.34 1.34 12.86
11/11/2021 12:45:00 PM 6.56 43.808 0.056 7.35 1.39 12.83
11/11/2021 1:00:00 PM 6.75 44.15 0.056 7.36 1.37 12.8
11/11/2021 1:15:00 PM 6.88 44.384 0.056 7.38 1.38 12.76
11/11/2021 1:30:00 PM 6.99 44.582 0.056 7.39 1.32 12.72
11/11/2021 1:45:00 PM 7.08 44.744 0.056 7.4 1.36 12.68
11/11/2021 2:00:00 PM 7.17 44.906 0.056 7.4 1.32 12.64
11/11/2021 2:15:00 PM 7.27 45.086 0.056 7.42 1.3 12.62
11/11/2021 2:30:00 PM 7.37 45.266 0.056 7.43 1.28 12.59
11/11/2021 2:45:00 PM 7.48 45.464 0.056 7.44 1.27 12.55
11/11/2021 3:00:00 PM 7.59 45.662 0.056 7.44 1.28 12.51
11/11/2021 3:15:00 PM 7.71 45.878 0.056 7.46 1.29 12.48
11/11/2021 3:30:00 PM 7.79 46.022 0.056 7.45 1.18 12.41
11/11/2021 3:45:00 PM 7.85 46.13 0.056 7.44 1.3 12.36
11/11/2021 4:00:00 PM 7.91 46.238 0.056 7.44 1.24 12.32
11/11/2021 4:15:00 PM 7.96 46.328 0.056 7.43 1.37 12.28
11/11/2021 4:30:00 PM 8 46.4 0.056 7.44 1.31 12.24
11/11/2021 4:45:00 PM 8.01 46.418 0.055 7.42 1.31 12.19
11/11/2021 5:00:00 PM 8.03 46.454 0.056 7.4 1.33 12.11
11/11/2021 5:15:00 PM 8.03 46.454 0.056 7.36 1.26 12.02
11/11/2021 5:30:00 PM 8.03 46.454 0.056 7.33 1.32 11.92
11/11/2021 5:45:00 PM 8.02 46.436 0.056 7.29 1.36 11.79
11/11/2021 6:00:00 PM 8.01 46.418 0.056 7.25 1.22 11.65
11/11/2021 6:15:00 PM 8 46.4 0.056 7.21 1.4 11.54
11/11/2021 6:30:00 PM 7.99 46.382 0.056 7.18 1.23 11.44
11/11/2021 6:45:00 PM 7.99 46.382 0.057 7.16 1.44 11.37
11/11/2021 7:00:00 PM 8 46.4 0.057 7.13 1.35 11.32
11/11/2021 7:15:00 PM 8.04 46.472 0.057 7.12 1.41 11.27
11/11/2021 7:30:00 PM 8.07 46.526 0.057 7.11 1.32 11.23
11/11/2021 7:45:00 PM 8.09 46.562 0.057 7.1 1.5 11.2
11/11/2021 8:00:00 PM 8.11 46.598 0.057 7.1 1.5 11.17
11/11/2021 8:15:00 PM 8.13 46.634 0.057 7.09 1.49 11.15
11/11/2021 8:30:00 PM 8.16 46.688 0.057 7.08 1.5 11.13
11/11/2021 8:45:00 PM 8.18 46.724 0.057 7.08 1.56 11.11
11/11/2021 9:00:00 PM 8.2 46.76 0.057 7.07 1.46 11.1
11/11/2021 9:15:00 PM 8.23 46.814 0.058 7.07 1.51 11.08
11/11/2021 9:30:00 PM 8.26 46.868 0.058 7.07 1.47 11.07
11/11/2021 9:45:00 PM 8.29 46.922 0.058 7.06 1.49 11.07
11/11/2021 10:00:00 PM 8.33 46.994 0.058 7.07 1.44 11.05
11/11/2021 10:15:00 PM 8.36 47.048 0.058 7.06 1.53 11.03
11/11/2021 10:30:00 PM 8.41 47.138 0.058 7.06 1.55 11.02
11/11/2021 10:45:00 PM 8.45 47.21 0.058 7.06 1.42 11.01
11/11/2021 11:00:00 PM 8.49 47.282 0.058 7.06 1.58 10.99
11/11/2021 11:15:00 PM 8.52 47.336 0.058 7.06 1.4 10.98
11/11/2021 11:30:00 PM 8.54 47.372 0.058 7.06 1.58 10.98
11/11/2021 11:45:00 PM 8.56 47.408 0.058 7.05 1.41 10.97
11/12/2021 12:00:00 AM 8.6 47.48 0.058 7.06 1.43 10.95
11/12/2021 12:15:00 AM 8.62 47.516 0.058 7.06 1.48 10.94
11/12/2021 12:30:00 AM 8.65 47.57 0.058 7.05 1.49 10.93
11/12/2021 12:45:00 AM 8.69 47.642 0.058 7.05 1.59 10.92
11/12/2021 1:00:00 AM 8.72 47.696 0.058 7.05 1.46 10.91
11/12/2021 1:15:00 AM 8.74 47.732 0.058 7.05 1.45 10.89
11/12/2021 1:30:00 AM 8.77 47.786 0.058 7.05 1.4 10.88
11/12/2021 1:45:00 AM 8.8 47.84 0.058 7.05 1.5 10.87
11/12/2021 2:00:00 AM 8.85 47.93 0.059 7.05 1.5 10.85
11/12/2021 2:15:00 AM 8.88 47.984 0.058 7.05 1.55 10.85
11/12/2021 2:30:00 AM 8.92 48.056 0.059 7.05 1.55 10.83
11/12/2021 2:45:00 AM 8.96 48.128 0.058 7.05 1.58 10.82
11/12/2021 3:00:00 AM 8.98 48.164 0.058 7.04 1.59 10.81
11/12/2021 3:15:00 AM 9.01 48.218 0.058 7.05 1.55 10.8
11/12/2021 3:30:00 AM 9.03 48.254 0.058 7.05 1.61 10.79
11/12/2021 3:45:00 AM 9.08 48.344 0.058 7.05 1.82 10.77
11/12/2021 4:00:00 AM 9.1 48.38 0.058 7.04 1.63 10.76
11/12/2021 4:15:00 AM 9.11 48.398 0.059 7.05 1.78 10.76
11/12/2021 4:30:00 AM 9.11 48.398 0.058 7.04 1.76 10.75
11/12/2021 4:45:00 AM 9.12 48.416 0.059 7.05 1.8 10.74
11/12/2021 5:00:00 AM 9.12 48.416 0.059 7.04 1.94 10.74
11/12/2021 5:15:00 AM 9.13 48.434 0.06 7.04 2.05 10.73
11/12/2021 5:30:00 AM 9.13 48.434 0.06 7.04 2.4 10.73
11/12/2021 5:45:00 AM 9.14 48.452 0.06 7.03 2.56 10.73
11/12/2021 6:00:00 AM 9.14 48.452 0.059 7.03 2.33 10.72
11/12/2021 6:15:00 AM 9.14 48.452 0.059 7.02 2.14 10.71
11/12/2021 6:30:00 AM 9.15 48.47 0.058 7.02 2.15 10.71
11/12/2021 6:45:00 AM 9.16 48.488 0.059 7.02 2.12 10.71
11/12/2021 7:00:00 AM 9.17 48.506 0.058 7.02 2.19 10.71
11/12/2021 7:15:00 AM 9.16 48.488 0.059 7.02 2.32 10.72
11/12/2021 7:30:00 AM 9.14 48.452 0.058 7.02 2.37 10.72
11/12/2021 7:45:00 AM 9.12 48.416 0.058 7.03 2.48 10.74
11/12/2021 8:00:00 AM 9.1 48.38 0.058 7.03 2.42 10.75
11/12/2021 8:15:00 AM 9.08 48.344 0.058 7.04 2.56 10.77
11/12/2021 8:30:00 AM 9.06 48.308 0.058 7.05 2.97 10.81
11/12/2021 8:45:00 AM 9.03 48.254 0.058 7.06 2.9 10.87
11/12/2021 9:00:00 AM 8.99 48.182 0.058 7.07 3.26 10.95
11/12/2021 9:15:00 AM 8.96 48.128 0.058 7.08 3.32 11.03
11/12/2021 9:30:00 AM 8.94 48.092 0.058 7.11 3.72 11.11
11/12/2021 9:45:00 AM 8.93 48.074 0.058 7.13 4.06 11.21
11/12/2021 10:00:00 AM 8.93 48.074 0.058 7.15 4.22 11.31
11/12/2021 10:15:00 AM 8.93 48.074 0.057 7.17 4.48 11.38
11/12/2021 10:30:00 AM 8.95 48.11 0.057 7.19 4.44 11.45
11/12/2021 10:45:00 AM 9 48.2 0.057 7.23 4.3 11.52
11/12/2021 11:00:00 AM 9.05 48.29 0.057 7.25 4.15 11.57
11/12/2021 11:15:00 AM 9.12 48.416 0.057 7.27 4.37 11.62
11/12/2021 11:30:00 AM 9.2 48.56 0.057 7.31 4.26 11.66
11/12/2021 11:45:00 AM 9.27 48.686 0.057 7.33 4.31 11.7
11/12/2021 12:00:00 PM 9.36 48.848 0.057 7.36 3.99 11.72
11/12/2021 12:15:00 PM 9.45 49.01 0.057 7.4 3.88 11.73
11/12/2021 12:30:00 PM 9.53 49.154 0.057 7.42 4.04 11.75
11/12/2021 12:45:00 PM 9.61 49.298 0.057 7.43 3.83 11.74
11/12/2021 1:00:00 PM 9.63 49.334 0.057 7.43 3.71 11.71
11/12/2021 1:15:00 PM 9.64 49.352 0.057 7.44 3.93 11.68
11/12/2021 1:30:00 PM 9.65 49.37 0.057 7.44 3.54 11.67
11/12/2021 1:45:00 PM 9.68 49.424 0.057 7.45 3.73 11.68
11/12/2021 2:00:00 PM 9.76 49.568 0.057 7.47 3.56 11.7
11/12/2021 2:15:00 PM 9.84 49.712 0.057 7.49 3.72 11.71
11/12/2021 2:30:00 PM 9.92 49.856 0.057 7.51 3.67 11.7
11/12/2021 2:45:00 PM 9.97 49.946 0.057 7.53 3.7 11.7
11/12/2021 3:00:00 PM 9.99 49.982 0.057 7.52 3.52 11.67
11/12/2021 3:15:00 PM 9.99 49.982 0.057 7.52 3.46 11.63
11/12/2021 3:30:00 PM 9.95 49.91 0.057 7.5 3.63 11.58
11/12/2021 3:45:00 PM 9.92 49.856 0.057 7.49 3.78 11.55
11/12/2021 4:00:00 PM 9.9 49.82 0.057 7.47 3.6 11.49
11/12/2021 4:15:00 PM 9.87 49.766 0.057 7.44 3.53 11.47
11/12/2021 4:30:00 PM 9.84 49.712 0.057 7.43 3.58 11.41
11/12/2021 4:45:00 PM 9.79 49.622 0.057 7.4 3.46 11.36
11/12/2021 5:00:00 PM 9.74 49.532 0.057 7.37 3.42 11.32
11/12/2021 5:15:00 PM 9.67 49.406 0.057 7.34 3.29 11.25
11/12/2021 5:30:00 PM 9.62 49.316 0.057 7.31 3.26 11.19
11/12/2021 5:45:00 PM 9.55 49.19 0.057 7.28 3.08 11.1
11/12/2021 6:00:00 PM 9.48 49.064 0.058 7.24 3.27 11.02
11/12/2021 6:15:00 PM 9.41 48.938 0.058 7.21 3.35 10.96
11/12/2021 6:30:00 PM 9.33 48.794 0.058 7.17 3.12 10.9
11/12/2021 6:45:00 PM 9.26 48.668 0.058 7.16 2.81 10.86
11/12/2021 7:00:00 PM 9.19 48.542 0.058 7.14 2.99 10.84
11/12/2021 7:15:00 PM 9.12 48.416 0.058 7.12 2.99 10.82
11/12/2021 7:30:00 PM 9.05 48.29 0.058 7.11 2.91 10.82
11/12/2021 7:45:00 PM 8.96 48.128 0.058 7.1 2.85 10.83
11/12/2021 8:00:00 PM 8.87 47.966 0.058 7.09 2.74 10.85
11/12/2021 8:15:00 PM 8.8 47.84 0.059 7.08 2.62 10.86
11/12/2021 8:30:00 PM 8.72 47.696 0.059 7.08 2.59 10.87
11/12/2021 8:45:00 PM 8.64 47.552 0.059 7.07 2.56 10.89
11/12/2021 9:00:00 PM 8.57 47.426 0.059 7.06 2.57 10.91
11/12/2021 9:15:00 PM 8.5 47.3 0.059 7.06 2.63 10.93
11/12/2021 9:30:00 PM 8.45 47.21 0.059 7.06 2.51 10.94
11/12/2021 9:45:00 PM 8.39 47.102 0.059 7.05 2.41 10.96
11/12/2021 10:00:00 PM 8.34 47.012 0.059 7.05 2.48 10.98
11/12/2021 10:15:00 PM 8.26 46.868 0.059 7.05 2.44 10.99
11/12/2021 10:30:00 PM 8.18 46.724 0.059 7.05 2.34 11.02
11/12/2021 10:45:00 PM 8.1 46.58 0.059 7.04 2.38 11.04
11/12/2021 11:00:00 PM 8.02 46.436 0.059 7.05 2.4 11.06
11/12/2021 11:15:00 PM 7.94 46.292 0.059 7.04 2.19 11.07
11/12/2021 11:30:00 PM 7.88 46.184 0.059 7.04 2.19 11.1
11/12/2021 11:45:00 PM 7.81 46.058 0.059 7.04 2.2 11.12
11/13/2021 12:00:00 AM 7.74 45.932 0.059 7.04 2.24 11.14
11/13/2021 12:15:00 AM 7.68 45.824 0.059 7.04 2.15 11.16
11/13/2021 12:30:00 AM 7.6 45.68 0.06 7.04 2.23 11.17
11/13/2021 12:45:00 AM 7.53 45.554 0.059 7.04 2.23 11.19
11/13/2021 1:00:00 AM 7.46 45.428 0.06 7.04 2.13 11.21
11/13/2021 1:15:00 AM 7.39 45.302 0.06 7.03 2.05 11.23
11/13/2021 1:30:00 AM 7.31 45.158 0.06 7.03 2.15 11.25
11/13/2021 1:45:00 AM 7.24 45.032 0.06 7.04 2.04 11.27
11/13/2021 2:00:00 AM 7.18 44.924 0.06 7.03 2.06 11.29
11/13/2021 2:15:00 AM 7.13 44.834 0.06 7.03 2.17 11.31
11/13/2021 2:30:00 AM 7.09 44.762 0.06 7.03 2.05 11.32
11/13/2021 2:45:00 AM 7.04 44.672 0.06 7.03 2.07 11.34
11/13/2021 3:00:00 AM 7 44.6 0.06 7.03 1.91 11.35
11/13/2021 3:15:00 AM 6.97 44.546 0.06 7.03 2.15 11.37
11/13/2021 3:30:00 AM 6.94 44.492 0.06 7.03 2.14 11.38
11/13/2021 3:45:00 AM 6.91 44.438 0.06 7.03 1.98 11.4
11/13/2021 4:00:00 AM 6.88 44.384 0.06 7.03 1.96 11.41
11/13/2021 4:15:00 AM 6.86 44.348 0.06 7.03 2.08 11.42
11/13/2021 4:30:00 AM 6.83 44.294 0.06 7.04 1.93 11.43
11/13/2021 4:45:00 AM 6.79 44.222 0.06 7.04 1.96 11.43
11/13/2021 5:00:00 AM 6.76 44.168 0.06 7.03 2 11.45
11/13/2021 5:15:00 AM 6.74 44.132 0.06 7.03 1.96 11.45
11/13/2021 5:30:00 AM 6.71 44.078 0.06 7.03 1.99 11.46
11/13/2021 5:45:00 AM 6.7 44.06 0.06 7.03 1.98 11.47
11/13/2021 6:00:00 AM 6.68 44.024 0.06 7.03 1.92 11.48
11/13/2021 6:15:00 AM 6.66 43.988 0.06 7.03 1.95 11.48
11/13/2021 6:30:00 AM 6.65 43.97 0.06 7.03 1.89 11.49
11/13/2021 6:45:00 AM 6.64 43.952 0.06 7.03 1.93 11.49
11/13/2021 7:00:00 AM 6.62 43.916 0.06 7.03 1.93 11.5
11/13/2021 7:15:00 AM 6.6 43.88 0.06 7.03 1.93 11.5
11/13/2021 7:30:00 AM 6.6 43.88 0.06 7.03 1.87 11.5
11/13/2021 7:45:00 AM 6.58 43.844 0.06 7.03 1.9 11.51
11/13/2021 8:00:00 AM 6.57 43.826 0.06 7.03 1.77 11.52
11/13/2021 8:15:00 AM 6.56 43.808 0.06 7.03 1.78 11.53
11/13/2021 8:30:00 AM 6.55 43.79 0.06 7.03 1.81 11.55
11/13/2021 8:45:00 AM 6.55 43.79 0.06 7.04 1.78 11.59
11/13/2021 9:00:00 AM 6.56 43.808 0.06 7.06 1.81 11.65
11/13/2021 9:15:00 AM 6.57 43.826 0.059 7.08 1.83 11.74
11/13/2021 9:30:00 AM 6.58 43.844 0.059 7.1 1.83 11.83
11/13/2021 9:45:00 AM 6.58 43.844 0.059 7.11 1.77 11.85
11/13/2021 10:00:00 AM 6.55 43.79 0.059 7.12 1.83 11.84
11/13/2021 10:15:00 AM 6.55 43.79 0.059 7.13 1.69 11.91
11/13/2021 10:30:00 AM 6.56 43.808 0.059 7.15 1.63 11.99
11/13/2021 10:45:00 AM 6.55 43.79 0.059 7.17 1.73 12.03
11/13/2021 11:00:00 AM 6.54 43.772 0.059 7.18 1.62 12.08
11/13/2021 11:15:00 AM 6.56 43.808 0.059 7.21 1.64 12.18
11/13/2021 11:30:00 AM 6.61 43.898 0.059 7.25 1.61 12.3
11/13/2021 11:45:00 AM 6.67 44.006 0.058 7.29 1.68 12.4
11/13/2021 12:00:00 PM 6.72 44.096 0.058 7.32 1.56 12.46
11/13/2021 12:15:00 PM 6.78 44.204 0.058 7.35 1.57 12.5
11/13/2021 12:30:00 PM 6.84 44.312 0.058 7.38 1.6 12.53
11/13/2021 12:45:00 PM 6.92 44.456 0.058 7.4 1.58 12.53
11/13/2021 1:00:00 PM 6.99 44.582 0.058 7.41 1.54 12.53
11/13/2021 1:15:00 PM 7.05 44.69 0.058 7.43 1.42 12.52
11/13/2021 1:30:00 PM 7.07 44.726 0.058 7.45 1.58 12.51
11/13/2021 1:45:00 PM 7.09 44.762 0.058 7.46 1.58 12.5
11/13/2021 2:00:00 PM 7.08 44.744 0.057 7.46 1.61 12.48
11/13/2021 2:15:00 PM 7.04 44.672 0.057 7.47 1.54 12.47
11/13/2021 2:30:00 PM 7.03 44.654 0.057 7.46 1.58 12.44
11/13/2021 2:45:00 PM 7 44.6 0.057 7.45 1.58 12.4
11/13/2021 3:00:00 PM 6.96 44.528 0.057 7.43 1.48 12.35
11/13/2021 3:15:00 PM 6.94 44.492 0.057 7.42 1.55 12.33
11/13/2021 3:30:00 PM 6.9 44.42 0.057 7.41 1.52 12.31
11/13/2021 3:45:00 PM 6.88 44.384 0.057 7.4 1.56 12.31
11/13/2021 4:00:00 PM 6.86 44.348 0.057 7.39 1.55 12.29
11/13/2021 4:15:00 PM 6.84 44.312 0.057 7.39 1.53 12.27
11/13/2021 4:30:00 PM 6.82 44.276 0.057 7.37 1.62 12.23
11/13/2021 4:45:00 PM 6.79 44.222 0.057 7.34 1.58 12.16
11/13/2021 5:00:00 PM 6.76 44.168 0.057 7.31 1.53 12.07
11/13/2021 5:15:00 PM 6.74 44.132 0.058 7.27 1.58 11.97
11/13/2021 5:30:00 PM 6.73 44.114 0.058 7.24 1.56 11.89
11/13/2021 5:45:00 PM 6.69 44.042 0.058 7.21 1.58 11.81
11/13/2021 6:00:00 PM 6.67 44.006 0.058 7.19 1.59 11.74
11/13/2021 6:15:00 PM 6.65 43.97 0.058 7.17 1.61 11.69
11/13/2021 6:30:00 PM 6.62 43.916 0.058 7.15 1.54 11.65
11/13/2021 6:45:00 PM 6.6 43.88 0.058 7.13 1.62 11.62
11/13/2021 7:00:00 PM 6.57 43.826 0.058 7.12 1.57 11.6
11/13/2021 7:15:00 PM 6.54 43.772 0.058 7.11 1.52 11.59
11/13/2021 7:30:00 PM 6.51 43.718 0.058 7.1 1.55 11.59
11/13/2021 7:45:00 PM 6.49 43.682 0.058 7.1 1.56 11.58
11/13/2021 8:00:00 PM 6.45 43.61 0.059 7.09 1.61 11.59
11/13/2021 8:15:00 PM 6.43 43.574 0.059 7.09 1.47 11.6
11/13/2021 8:30:00 PM 6.41 43.538 0.059 7.08 1.62 11.6
11/13/2021 8:45:00 PM 6.39 43.502 0.059 7.08 1.65 11.61
11/13/2021 9:00:00 PM 6.36 43.448 0.059 7.08 1.61 11.61
11/13/2021 9:15:00 PM 6.34 43.412 0.059 7.07 1.55 11.61
11/13/2021 9:30:00 PM 6.31 43.358 0.059 7.07 1.55 11.62
11/13/2021 9:45:00 PM 6.29 43.322 0.059 7.06 1.55 11.62
11/13/2021 10:00:00 PM 6.27 43.286 0.059 7.07 1.63 11.63
11/13/2021 10:15:00 PM 6.25 43.25 0.059 7.06 1.52 11.64
11/13/2021 10:30:00 PM 6.22 43.196 0.059 7.06 1.6 11.64
11/13/2021 10:45:00 PM 6.2 43.16 0.059 7.06 1.52 11.66
11/13/2021 11:00:00 PM 6.18 43.124 0.059 7.06 1.8 11.65
11/13/2021 11:15:00 PM 6.16 43.088 0.059 7.06 1.52 11.66
11/13/2021 11:30:00 PM 6.14 43.052 0.06 7.06 1.57 11.68
11/13/2021 11:45:00 PM 6.13 43.034 0.059 7.06 1.58 11.68
11/14/2021 12:00:00 AM 6.11 42.998 0.059 7.05 1.62 11.7
11/14/2021 12:15:00 AM 6.09 42.962 0.06 7.06 1.47 11.7
11/14/2021 12:30:00 AM 6.08 42.944 0.06 7.05 1.58 11.71
11/14/2021 12:45:00 AM 6.06 42.908 0.06 7.06 1.63 11.71
11/14/2021 1:00:00 AM 6.04 42.872 0.059 7.05 1.6 11.72
11/14/2021 1:15:00 AM 6.03 42.854 0.06 7.05 1.65 11.73
11/14/2021 1:30:00 AM 6.01 42.818 0.06 7.05 1.62 11.73
11/14/2021 1:45:00 AM 6 42.8 0.06 7.05 1.54 11.74
11/14/2021 2:00:00 AM 5.97 42.746 0.06 7.05 1.54 11.74
11/14/2021 2:15:00 AM 5.95 42.71 0.06 7.05 1.54 11.75
11/14/2021 2:30:00 AM 5.93 42.674 0.06 7.05 1.5 11.76
11/14/2021 2:45:00 AM 5.91 42.638 0.06 7.05 1.57 11.76
11/14/2021 3:00:00 AM 5.88 42.584 0.06 7.05 1.46 11.77
11/14/2021 3:15:00 AM 5.86 42.548 0.06 7.05 1.58 11.78
11/14/2021 3:30:00 AM 5.84 42.512 0.06 7.05 1.51 11.79
11/14/2021 3:45:00 AM 5.82 42.476 0.06 7.05 1.55 11.79
11/14/2021 4:00:00 AM 5.81 42.458 0.06 7.04 1.54 11.8
11/14/2021 4:15:00 AM 5.79 42.422 0.06 7.05 1.61 11.8
11/14/2021 4:30:00 AM 5.77 42.386 0.06 7.05 1.47 11.81
11/14/2021 4:45:00 AM 5.76 42.368 0.06 7.05 1.57 11.82
11/14/2021 5:00:00 AM 5.74 42.332 0.06 7.05 1.5 11.82
11/14/2021 5:15:00 AM 5.72 42.296 0.06 7.05 1.56 11.83
11/14/2021 5:30:00 AM 5.7 42.26 0.06 7.04 1.6 11.84
11/14/2021 5:45:00 AM 5.68 42.224 0.06 7.05 1.61 11.84
11/14/2021 6:00:00 AM 5.66 42.188 0.06 7.05 1.63 11.85
11/14/2021 6:15:00 AM 5.64 42.152 0.06 7.05 1.56 11.85
11/14/2021 6:30:00 AM 5.62 42.116 0.06 7.05 1.64 11.86
11/14/2021 6:45:00 AM 5.6 42.08 0.06 7.05 1.56 11.87
11/14/2021 7:00:00 AM 5.59 42.062 0.06 7.05 1.75 11.88
11/14/2021 7:15:00 AM 5.57 42.026 0.06 7.05 1.68 11.88
11/14/2021 7:30:00 AM 5.56 42.008 0.06 7.05 1.68 11.89
11/14/2021 7:45:00 AM 5.55 41.99 0.06 7.05 1.71 11.89
11/14/2021 8:00:00 AM 5.53 41.954 0.06 7.05 1.57 11.91
11/14/2021 8:15:00 AM 5.52 41.936 0.06 7.05 1.51 11.93
11/14/2021 8:30:00 AM 5.51 41.918 0.059 7.06 1.53 11.98
11/14/2021 8:45:00 AM 5.51 41.918 0.059 7.07 1.55 12.04
11/14/2021 9:00:00 AM 5.5 41.9 0.059 7.09 1.54 12.11
11/14/2021 9:15:00 AM 5.49 41.882 0.059 7.1 1.51 12.17
11/14/2021 9:30:00 AM 5.49 41.882 0.059 7.12 1.42 12.24
11/14/2021 9:45:00 AM 5.5 41.9 0.059 7.13 1.48 12.31
11/14/2021 10:00:00 AM 5.5 41.9 0.059 7.15 1.46 12.37
11/14/2021 10:15:00 AM 5.51 41.918 0.059 7.17 1.4 12.44
11/14/2021 10:30:00 AM 5.54 41.972 0.059 7.19 1.45 12.54
11/14/2021 10:45:00 AM 5.6 42.08 0.059 7.23 1.4 12.64
11/14/2021 11:00:00 AM 5.67 42.206 0.058 7.26 1.47 12.73
11/14/2021 11:15:00 AM 5.72 42.296 0.058 7.29 1.44 12.79
11/14/2021 11:30:00 AM 5.77 42.386 0.058 7.32 1.37 12.82
11/14/2021 11:45:00 AM 5.82 42.476 0.058 7.34 1.45 12.85
11/14/2021 12:00:00 PM 5.87 42.566 0.058 7.36 1.31 12.87
11/14/2021 12:15:00 PM 5.93 42.674 0.058 7.38 1.35 12.87
11/14/2021 12:30:00 PM 6.03 42.854 0.058 7.4 1.32 12.88
11/14/2021 12:45:00 PM 6.13 43.034 0.058 7.43 1.29 12.87
11/14/2021 1:00:00 PM 6.15 43.07 0.058 7.43 1.31 12.84
11/14/2021 1:15:00 PM 6.15 43.07 0.058 7.43 1.26 12.81
11/14/2021 1:30:00 PM 6.15 43.07 0.058 7.44 1.33 12.79
11/14/2021 1:45:00 PM 6.14 43.052 0.058 7.44 1.29 12.76
11/14/2021 2:00:00 PM 6.15 43.07 0.058 7.44 1.38 12.74
11/14/2021 2:15:00 PM 6.17 43.106 0.057 7.45 1.25 12.73
11/14/2021 2:30:00 PM 6.19 43.142 0.057 7.45 1.29 12.73
11/14/2021 2:45:00 PM 6.2 43.16 0.057 7.46 1.2 12.71
11/14/2021 3:00:00 PM 6.18 43.124 0.057 7.44 1.32 12.64
11/14/2021 3:15:00 PM 6.14 43.052 0.057 7.39 1.31 12.53
11/14/2021 3:30:00 PM 6.12 43.016 0.057 7.36 1.3 12.46
11/14/2021 3:45:00 PM 6.09 42.962 0.058 7.33 1.3 12.37
11/14/2021 4:00:00 PM 6.07 42.926 0.058 7.3 1.35 12.31
11/14/2021 4:15:00 PM 6.05 42.89 0.058 7.28 1.21 12.28
11/14/2021 4:30:00 PM 6 42.8 0.058 7.26 1.3 12.23
11/14/2021 4:45:00 PM 5.96 42.728 0.058 7.24 1.31 12.17
11/14/2021 5:00:00 PM 5.87 42.566 0.058 7.22 1.29 12.14
11/14/2021 5:15:00 PM 5.79 42.422 0.058 7.2 1.34 12.08
11/14/2021 5:30:00 PM 5.71 42.278 0.058 7.18 1.28 12.04
11/14/2021 5:45:00 PM 5.64 42.152 0.058 7.16 1.33 12
11/14/2021 6:00:00 PM 5.55 41.99 0.058 7.14 1.33 11.96
11/14/2021 6:15:00 PM 5.43 41.774 0.058 7.13 1.39 11.94
11/14/2021 6:30:00 PM 5.37 41.666 0.059 7.12 1.44 11.92
11/14/2021 6:45:00 PM 5.28 41.504 0.059 7.11 1.43 11.92
11/14/2021 7:00:00 PM 5.21 41.378 0.059 7.09 1.52 11.92
11/14/2021 7:15:00 PM 5.19 41.342 0.059 7.09 1.53 11.92
11/14/2021 7:30:00 PM 5.15 41.27 0.059 7.08 1.41 11.94
11/14/2021 7:45:00 PM 5.13 41.234 0.058 7.08 1.47 11.94
11/14/2021 8:00:00 PM 5.1 41.18 0.059 7.08 1.37 11.95
11/14/2021 8:15:00 PM 5.07 41.126 0.059 7.07 1.54 11.96
11/14/2021 8:30:00 PM 5.04 41.072 0.059 7.06 1.52 11.97
11/14/2021 8:45:00 PM 5.02 41.036 0.059 7.06 1.45 11.98
11/14/2021 9:00:00 PM 5 41 0.059 7.06 1.52 11.99
11/14/2021 9:15:00 PM 4.98 40.964 0.059 7.06 1.49 12
11/14/2021 9:30:00 PM 4.96 40.928 0.059 7.05 1.58 12.01
11/14/2021 9:45:00 PM 4.95 40.91 0.059 7.06 1.48 12.02
11/14/2021 10:00:00 PM 4.94 40.892 0.059 7.06 1.41 12.02
11/14/2021 10:15:00 PM 4.93 40.874 0.059 7.05 1.44 12.02
11/14/2021 10:30:00 PM 4.91 40.838 0.059 7.05 1.53 12.03
11/14/2021 10:45:00 PM 4.91 40.838 0.059 7.05 1.52 12.04
11/14/2021 11:00:00 PM 4.89 40.802 0.059 7.05 1.6 12.04
11/14/2021 11:15:00 PM 4.88 40.784 0.059 7.05 1.46 12.04
11/14/2021 11:30:00 PM 4.86 40.748 0.059 7.05 1.49 12.05
11/14/2021 11:45:00 PM 4.85 40.73 0.059 7.05 1.5 12.06
11/15/2021 12:00:00 AM 4.84 40.712 0.059 7.04 1.53 12.06
11/15/2021 12:15:00 AM 4.83 40.694 0.059 7.04 1.57 12.06
11/15/2021 12:30:00 AM 4.82 40.676 0.059 7.04 1.76 12.07
11/15/2021 12:45:00 AM 4.81 40.658 0.059 7.04 1.61 12.08
11/15/2021 1:00:00 AM 4.8 40.64 0.059 7.04 1.76 12.08
11/15/2021 1:15:00 AM 4.79 40.622 0.059 7.05 1.75 12.09
11/15/2021 1:30:00 AM 4.77 40.586 0.059 7.05 1.76 12.09
11/15/2021 1:45:00 AM 4.76 40.568 0.059 7.04 1.87 12.09
11/15/2021 2:00:00 AM 4.75 40.55 0.059 7.04 1.67 12.1
11/15/2021 2:15:00 AM 4.74 40.532 0.059 7.04 1.8 12.11
11/15/2021 2:30:00 AM 4.73 40.514 0.059 7.04 1.83 12.11
11/15/2021 2:45:00 AM 4.72 40.496 0.059 7.04 1.76 12.12
11/15/2021 3:00:00 AM 4.7 40.46 0.06 7.04 1.65 12.12
11/15/2021 3:15:00 AM 4.69 40.442 0.059 7.04 1.68 12.13
11/15/2021 3:30:00 AM 4.68 40.424 0.059 7.05 1.81 12.13
11/15/2021 3:45:00 AM 4.67 40.406 0.059 7.04 1.74 12.14
11/15/2021 4:00:00 AM 4.66 40.388 0.059 7.04 1.76 12.14
11/15/2021 4:15:00 AM 4.64 40.352 0.059 7.05 1.79 12.14
11/15/2021 4:30:00 AM 4.63 40.334 0.059 7.05 1.72 12.15
11/15/2021 4:45:00 AM 4.62 40.316 0.059 7.04 1.77 12.15
11/15/2021 5:00:00 AM 4.62 40.316 0.059 7.05 1.65 12.16
11/15/2021 5:15:00 AM 4.61 40.298 0.06 7.05 1.65 12.16
11/15/2021 5:30:00 AM 4.6 40.28 0.06 7.05 1.74 12.16
11/15/2021 5:45:00 AM 4.6 40.28 0.059 7.05 1.62 12.16
11/15/2021 6:00:00 AM 4.59 40.262 0.06 7.05 1.68 12.17
11/15/2021 6:15:00 AM 4.58 40.244 0.06 7.05 1.7 12.17
11/15/2021 6:30:00 AM 4.58 40.244 0.06 7.05 1.8 12.17
11/15/2021 6:45:00 AM 4.58 40.244 0.06 7.05 1.72 12.17
11/15/2021 7:00:00 AM 4.58 40.244 0.059 7.05 1.76 12.18
11/15/2021 7:15:00 AM 4.58 40.244 0.06 7.05 1.76 12.18
11/15/2021 7:30:00 AM 4.57 40.226 0.059 7.05 1.63 12.18
11/15/2021 7:45:00 AM 4.57 40.226 0.06 7.05 1.73 12.19
11/15/2021 8:00:00 AM 4.57 40.226 0.06 7.05 1.61 12.19
11/15/2021 8:15:00 AM 4.56 40.208 0.06 7.05 1.58 12.21
11/15/2021 8:30:00 AM 4.56 40.208 0.06 7.06 1.72 12.26
11/15/2021 8:45:00 AM 4.57 40.226 0.06 7.07 1.74 12.33
11/15/2021 9:00:00 AM 4.58 40.244